Provisional Data: Apalachin Creek near Apalachin, NY


Please select a monitoring station.
Please select start date.
Please select start date.

Toggle Unit: C/F Toggle Unit: C/F
Sample Time Temperature (C) Temperature (F) Specific Conductivity (mS/cm) pH   Turbidity (NTU+) DO (mg/L)
10/20/2020 12:00:00 AM 13.99 57.182 0.26 6.86 0.6 7.48
10/20/2020 12:15:00 AM 13.99 57.182 0.26 6.85 0.69 7.5
10/20/2020 12:30:00 AM 13.98 57.164 0.259 6.86 0.61 7.5
10/20/2020 12:45:00 AM 13.98 57.164 0.259 6.86 0.61 7.53
10/20/2020 1:00:00 AM 13.98 57.164 0.259 6.86 0.64 7.5
10/20/2020 1:15:00 AM 13.98 57.164 0.259 6.86 0.6 7.5
10/20/2020 1:30:00 AM 13.98 57.164 0.259 6.85 0.55 7.55
10/20/2020 1:45:00 AM 13.98 57.164 0.259 6.86 0.61 7.57
10/20/2020 2:00:00 AM 13.98 57.164 0.259 6.86 0.6 7.55
10/20/2020 2:15:00 AM 13.98 57.164 0.259 6.86 0.61 7.57
10/20/2020 2:30:00 AM 13.98 57.164 0.259 6.86 0.6 7.57
10/20/2020 2:45:00 AM 13.99 57.182 0.259 6.86 0.58 7.56
10/20/2020 3:00:00 AM 13.99 57.182 0.259 6.86 0.62 7.56
10/20/2020 3:15:00 AM 13.99 57.182 0.259 6.86 0.75 7.56
10/20/2020 3:30:00 AM 14 57.2 0.259 6.86 0.7 7.53
10/20/2020 3:45:00 AM 14 57.2 0.259 6.86 0.58 7.56
10/20/2020 4:00:00 AM 14 57.2 0.259 6.86 0.57 7.55
10/20/2020 4:15:00 AM 14.01 57.218 0.259 6.86 0.58 7.52
10/20/2020 4:30:00 AM 14.01 57.218 0.259 6.86 0.61 7.5
10/20/2020 4:45:00 AM 14.01 57.218 0.259 6.86 0.58 7.53
10/20/2020 5:00:00 AM 14.02 57.236 0.259 6.86 0.63 7.51
10/20/2020 5:15:00 AM 14.02 57.236 0.259 6.86 0.59 7.46
10/20/2020 5:30:00 AM 14.02 57.236 0.259 6.86 0.57 7.52
10/20/2020 5:45:00 AM 14.03 57.254 0.258 6.86 0.6 7.52
10/20/2020 6:00:00 AM 14.03 57.254 0.258 6.86 0.53 7.51
10/20/2020 6:15:00 AM 14.03 57.254 0.258 6.86 0.54 7.49
10/20/2020 6:30:00 AM 14.04 57.272 0.258 6.86 0.57 7.49
10/20/2020 6:45:00 AM 14.04 57.272 0.258 6.86 0.57 7.5
10/20/2020 7:00:00 AM 14.04 57.272 0.258 6.86 0.64 7.51
10/20/2020 7:15:00 AM 14.05 57.29 0.258 6.87 0.78 7.55
10/20/2020 7:30:00 AM 14.05 57.29 0.257 6.87 0.66 7.55
10/20/2020 7:45:00 AM 14.05 57.29 0.257 6.87 0.55 7.58
10/20/2020 8:00:00 AM 14.05 57.29 0.257 6.87 0.97 7.65
10/20/2020 8:15:00 AM 14.05 57.29 0.256 6.88 0.6 7.63
10/20/2020 8:30:00 AM 14.06 57.308 0.256 6.87 0.61 7.66
10/20/2020 8:45:00 AM 14.06 57.308 0.255 6.87 0.63 7.67
10/20/2020 9:00:00 AM 14.06 57.308 0.255 6.88 0.71 7.69
10/20/2020 9:15:00 AM 14.07 57.326 0.255 6.87 0.57 7.69
10/20/2020 9:30:00 AM 14.07 57.326 0.255 6.87 0.65 7.73
10/20/2020 9:45:00 AM 14.08 57.344 0.255 6.87 0.62 7.68
10/20/2020 10:00:00 AM 14.08 57.344 0.255 6.87 0.69 7.77
10/20/2020 10:15:00 AM 14.09 57.362 0.255 6.87 0.74 7.81
10/20/2020 10:30:00 AM 14.1 57.38 0.255 6.88 0.7 7.9
10/20/2020 10:45:00 AM 14.12 57.416 0.254 6.88 0.62 7.95
10/20/2020 11:00:00 AM 14.13 57.434 0.254 6.88 0.61 8.04
10/20/2020 11:15:00 AM 14.16 57.488 0.254 6.89 0.65 8.14
10/20/2020 11:30:00 AM 14.17 57.506 0.254 6.89 0.64 8.2
10/20/2020 11:45:00 AM 14.19 57.542 0.254 6.89 0.83 8.24
10/20/2020 12:00:00 PM 14.21 57.578 0.254 6.89 0.59 8.31
10/20/2020 12:15:00 PM 14.24 57.632 0.254 6.9 0.57 8.41
10/20/2020 12:30:00 PM 14.26 57.668 0.254 6.91 0.56 8.5
10/20/2020 12:45:00 PM 14.28 57.704 0.254 6.91 0.55 8.56
10/20/2020 1:00:00 PM 14.3 57.74 0.254 6.91 0.54 8.61
10/20/2020 1:15:00 PM 14.32 57.776 0.254 6.91 0.61 8.66
10/20/2020 1:30:00 PM 14.32 57.776 0.254 6.92 0.56 8.64
10/20/2020 1:45:00 PM 14.33 57.794 0.254 6.92 0.64 8.63
10/20/2020 2:00:00 PM 14.33 57.794 0.253 6.92 0.55 8.69
10/20/2020 2:15:00 PM 14.33 57.794 0.253 6.92 0.57 8.67
10/20/2020 2:30:00 PM 14.33 57.794 0.253 6.92 0.59 8.67
10/20/2020 2:45:00 PM 14.33 57.794 0.253 6.92 0.61 8.67
10/20/2020 3:00:00 PM 14.32 57.776 0.253 6.91 2.74 8.65
10/20/2020 3:15:00 PM 14.31 57.758 0.252 6.92 0.53 8.71
10/20/2020 3:30:00 PM 14.31 57.758 0.252 6.92 0.53 8.72
10/20/2020 3:45:00 PM 14.31 57.758 0.252 6.92 0.49 8.78
10/20/2020 4:00:00 PM 14.31 57.758 0.252 6.93 0.57 8.78
10/20/2020 4:15:00 PM 14.29 57.722 0.252 6.92 0.58 8.72
10/20/2020 4:30:00 PM 14.27 57.686 0.251 6.93 0.6 8.62
10/20/2020 4:45:00 PM 14.24 57.632 0.251 6.93 0.55 8.55
10/20/2020 5:00:00 PM 14.21 57.578 0.251 6.93 0.59 8.48
10/20/2020 5:15:00 PM 14.18 57.524 0.251 6.92 0.79 8.4
10/20/2020 5:30:00 PM 14.17 57.506 0.251 6.91 0.62 8.37
10/20/2020 5:45:00 PM 14.15 57.47 0.251 6.92 1.02 8.34
10/20/2020 6:00:00 PM 14.13 57.434 0.251 6.91 0.74 8.31
10/20/2020 6:15:00 PM 14.11 57.398 0.25 6.91 0.95 8.22
10/20/2020 6:30:00 PM 14.09 57.362 0.25 6.91 0.53 8.25
10/20/2020 6:45:00 PM 14.07 57.326 0.25 6.91 0.52 8.23
10/20/2020 7:00:00 PM 14.05 57.29 0.25 6.91 0.55 8.2
10/20/2020 7:15:00 PM 14.03 57.254 0.25 6.91 0.42 8.17
10/20/2020 7:30:00 PM 14 57.2 0.249 6.91 0.5 8.15
10/20/2020 7:45:00 PM 13.99 57.182 0.249 6.91 0.47 8.17
10/20/2020 8:00:00 PM 13.97 57.146 0.249 6.91 0.48 8.15
10/20/2020 8:15:00 PM 13.94 57.092 0.249 6.91 0.57 8.15
10/20/2020 8:30:00 PM 13.93 57.074 0.249 6.91 0.51 8.16
10/20/2020 8:45:00 PM 13.91 57.038 0.249 6.92 0.56 8.15
10/20/2020 9:00:00 PM 13.89 57.002 0.249 6.92 0.53 8.16
10/20/2020 9:15:00 PM 13.87 56.966 0.248 6.92 0.7 8.15
10/20/2020 9:30:00 PM 13.86 56.948 0.248 6.92 0.67 8.14
10/20/2020 9:45:00 PM 13.84 56.912 0.249 6.92 0.54 8.16
10/20/2020 10:00:00 PM 13.83 56.894 0.248 6.92 0.53 8.14
10/20/2020 10:15:00 PM 13.83 56.894 0.248 6.92 0.58 8.13
10/20/2020 10:30:00 PM 13.81 56.858 0.248 6.92 0.53 8.2
10/20/2020 10:45:00 PM 13.8 56.84 0.247 6.93 0.51 8.2
10/20/2020 11:00:00 PM 13.78 56.804 0.247 6.93 0.52 8.24
10/20/2020 11:15:00 PM 13.76 56.768 0.247 6.93 0.54 8.26
10/20/2020 11:30:00 PM 13.75 56.75 0.246 6.93 0.65 8.21
10/20/2020 11:45:00 PM 13.73 56.714 0.246 6.94 0.5 8.27
10/21/2020 12:00:00 AM 13.72 56.696 0.246 6.94 0.56 8.31
10/21/2020 12:15:00 AM 13.7 56.66 0.245 6.95 0.57 8.33
10/21/2020 12:30:00 AM 13.69 56.642 0.245 6.95 0.63 8.34
10/21/2020 12:45:00 AM 13.68 56.624 0.245 6.95 0.6 8.35
10/21/2020 1:00:00 AM 13.66 56.588 0.244 6.95 0.77 8.4
10/21/2020 1:15:00 AM 13.65 56.57 0.244 6.95 0.7 8.4
10/21/2020 1:30:00 AM 13.63 56.534 0.244 6.96 0.92 8.4
10/21/2020 1:45:00 AM 13.62 56.516 0.244 6.96 0.54 8.4
10/21/2020 2:00:00 AM 13.61 56.498 0.243 6.96 0.63 8.45
10/21/2020 2:15:00 AM 13.6 56.48 0.243 6.96 0.58 8.44
10/21/2020 2:30:00 AM 13.6 56.48 0.243 6.96 0.55 8.45
10/21/2020 2:45:00 AM 13.59 56.462 0.243 6.96 0.61 8.45
10/21/2020 3:00:00 AM 13.59 56.462 0.243 6.96 0.66 8.44
10/21/2020 3:15:00 AM 13.57 56.426 0.243 6.96 0.56 8.46
10/21/2020 3:30:00 AM 13.57 56.426 0.243 6.97 0.57 8.46
10/21/2020 3:45:00 AM 13.56 56.408 0.242 6.97 0.59 8.51
10/21/2020 4:00:00 AM 13.56 56.408 0.242 6.97 0.6 8.49
10/21/2020 4:15:00 AM 13.55 56.39 0.242 6.97 0.54 8.5
10/21/2020 4:30:00 AM 13.55 56.39 0.242 6.97 0.64 8.5
10/21/2020 4:45:00 AM 13.54 56.372 0.242 6.97 0.6 8.52
10/21/2020 5:00:00 AM 13.54 56.372 0.242 6.97 0.55 8.51
10/21/2020 5:15:00 AM 13.54 56.372 0.242 6.97 0.53 8.51
10/21/2020 5:30:00 AM 13.54 56.372 0.242 6.97 0.69 8.51
10/21/2020 5:45:00 AM 13.54 56.372 0.241 6.97 0.55 8.52
10/21/2020 6:00:00 AM 13.54 56.372 0.241 6.96 0.5 8.51
10/21/2020 6:15:00 AM 13.54 56.372 0.241 6.97 0.51 8.52
10/21/2020 6:30:00 AM 13.54 56.372 0.241 6.97 0.75 8.51
10/21/2020 6:45:00 AM 13.54 56.372 0.241 6.97 0.56 8.5
10/21/2020 7:00:00 AM 13.53 56.354 0.241 6.96 0.74 8.5
10/21/2020 7:15:00 AM 13.52 56.336 0.241 6.96 0.81 8.49
10/21/2020 7:30:00 AM 13.52 56.336 0.241 6.97 0.58 8.48
10/21/2020 7:45:00 AM 13.51 56.318 0.241 6.96 0.51 8.51
10/21/2020 8:00:00 AM 13.51 56.318 0.241 6.97 0.63 8.54
10/21/2020 8:15:00 AM 13.52 56.336 0.241 6.97 0.57 8.59
10/21/2020 8:30:00 AM 13.53 56.354 0.241 6.97 0.5 8.67
10/21/2020 8:45:00 AM 13.56 56.408 0.24 6.98 0.49 8.86
10/21/2020 9:00:00 AM 13.61 56.498 0.24 6.98 0.52 8.98
10/21/2020 9:15:00 AM 13.71 56.678 0.24 7 0.49 9.15
10/21/2020 9:30:00 AM 13.78 56.804 0.24 7.01 0.47 9.18
10/21/2020 9:45:00 AM 13.89 57.002 0.24 7.02 0.61 9.34
10/21/2020 10:00:00 AM 14 57.2 0.24 7.02 0.47 9.41
10/21/2020 10:15:00 AM 14.12 57.416 0.24 7.03 0.41 9.49
10/21/2020 10:30:00 AM 14.26 57.668 0.24 7.04 0.42 9.51
10/21/2020 10:45:00 AM 14.34 57.812 0.24 7.04 0.54 9.61
10/21/2020 11:00:00 AM 14.44 57.992 0.24 7.05 0.54 9.71
10/21/2020 11:15:00 AM 14.55 58.19 0.24 7.06 1.02 9.82
10/21/2020 11:30:00 AM 14.65 58.37 0.24 7.06 0.5 9.8
10/21/2020 11:45:00 AM 14.72 58.496 0.24 7.06 0.41 9.76
10/21/2020 12:00:00 PM 14.8 58.64 0.24 7.05 0.46 9.72
10/21/2020 12:15:00 PM 14.85 58.73 0.24 7.05 0.55 9.65
10/21/2020 12:30:00 PM 14.97 58.946 0.24 7.05 0.44 9.63
10/21/2020 12:45:00 PM 15.11 59.198 0.24 7.05 0.54 9.69
10/21/2020 1:00:00 PM 15.23 59.414 0.24 7.06 0.64 9.69
10/21/2020 1:15:00 PM 15.39 59.702 0.24 7.06 0.47 9.62
10/21/2020 1:30:00 PM 15.48 59.864 0.24 7.06 0.47 9.59
10/21/2020 1:45:00 PM 15.64 60.152 0.24 7.06 0.45 9.6
10/21/2020 2:00:00 PM 15.75 60.35 0.24 7.06 0.46 9.6
10/21/2020 2:15:00 PM 15.86 60.548 0.24 7.06 0.49 9.72
10/21/2020 2:30:00 PM 15.95 60.71 0.24 7.06 0.46 9.71
10/21/2020 2:45:00 PM 16 60.8 0.24 7.06 0.45 9.57
10/21/2020 3:00:00 PM 16.02 60.836 0.24 7.05 0.49 9.58
10/21/2020 3:15:00 PM 16.01 60.818 0.24 7.04 0.47 9.54
10/21/2020 3:30:00 PM 16 60.8 0.24 7.03 0.52 9.5
10/21/2020 3:45:00 PM 15.98 60.764 0.239 7.03 0.52 9.47
10/21/2020 4:00:00 PM 15.95 60.71 0.239 7.02 0.49 9.41
10/21/2020 4:15:00 PM 15.94 60.692 0.239 7.02 0.53 9.4
10/21/2020 4:30:00 PM 15.93 60.674 0.239 7.01 0.51 9.37
10/21/2020 4:45:00 PM 15.91 60.638 0.239 7.01 0.7 9.35
10/21/2020 5:00:00 PM 15.89 60.602 0.239 7.01 0.5 9.28
10/21/2020 5:15:00 PM 15.87 60.566 0.239 7 0.48 9.2
10/21/2020 5:30:00 PM 15.83 60.494 0.239 6.99 0.54 9.09
10/21/2020 5:45:00 PM 15.79 60.422 0.239 6.98 0.56 8.98
10/21/2020 6:00:00 PM 15.75 60.35 0.239 6.98 0.48 8.9
10/21/2020 6:15:00 PM 15.69 60.242 0.239 6.97 0.56 8.8
10/21/2020 6:30:00 PM 15.65 60.17 0.239 6.96 0.57 8.66
10/21/2020 6:45:00 PM 15.62 60.116 0.239 6.95 0.8 8.56
10/21/2020 7:00:00 PM 15.57 60.026 0.24 6.94 0.71 8.46
10/21/2020 7:15:00 PM 15.52 59.936 0.239 6.94 0.67 8.32
10/21/2020 7:30:00 PM 15.5 59.9 0.24 6.93 0.71 8.27
10/21/2020 7:45:00 PM 15.47 59.846 0.239 6.93 0.68 8.19
10/21/2020 8:00:00 PM 15.43 59.774 0.239 6.92 0.62 8.14
10/21/2020 8:15:00 PM 15.41 59.738 0.24 6.92 0.59 8.12
10/21/2020 8:30:00 PM 15.38 59.684 0.24 6.92 0.57 8.05
10/21/2020 8:45:00 PM 15.35 59.63 0.24 6.91 0.57 8.07
10/21/2020 9:00:00 PM 15.32 59.576 0.24 6.92 0.54 8.05
10/21/2020 9:15:00 PM 15.3 59.54 0.24 6.91 0.59 8.04
10/21/2020 9:30:00 PM 15.26 59.468 0.24 6.91 0.57 8.04
10/21/2020 9:45:00 PM 15.24 59.432 0.24 6.91 0.9 8
10/21/2020 10:00:00 PM 15.21 59.378 0.24 6.91 0.59 7.98
10/21/2020 10:15:00 PM 15.19 59.342 0.24 6.9 0.57 7.98
10/21/2020 10:30:00 PM 15.16 59.288 0.24 6.9 0.62 7.99
10/21/2020 10:45:00 PM 15.14 59.252 0.24 6.91 0.54 7.98
10/21/2020 11:00:00 PM 15.12 59.216 0.24 6.91 1.06 7.97
10/21/2020 11:15:00 PM 15.11 59.198 0.24 6.91 0.66 7.96
10/21/2020 11:30:00 PM 15.09 59.162 0.24 6.91 0.85 7.98
10/21/2020 11:45:00 PM 15.08 59.144 0.24 6.91 0.6 7.97
10/22/2020 12:00:00 AM 15.06 59.108 0.24 6.91 0.64 7.96
10/22/2020 12:15:00 AM 15.05 59.09 0.24 6.91 0.61 7.96
10/22/2020 12:30:00 AM 15.03 59.054 0.24 6.91 0.57 7.96
10/22/2020 12:45:00 AM 15.01 59.018 0.24 6.91 0.58 7.93
10/22/2020 1:00:00 AM 15 59 0.24 6.91 0.71 7.93
10/22/2020 1:15:00 AM 14.98 58.964 0.24 6.91 0.7 7.95
10/22/2020 1:30:00 AM 14.96 58.928 0.24 6.91 0.62 7.93
10/22/2020 1:45:00 AM 14.94 58.892 0.24 6.91 0.6 7.94
10/22/2020 2:00:00 AM 14.93 58.874 0.24 6.91 0.63 7.94
10/22/2020 2:15:00 AM 14.91 58.838 0.24 6.91 0.63 7.94
10/22/2020 2:30:00 AM 14.9 58.82 0.24 6.91 0.66 7.93
10/22/2020 2:45:00 AM 14.89 58.802 0.24 6.91 0.58 7.94
10/22/2020 3:00:00 AM 14.88 58.784 0.24 6.91 0.62 7.93
10/22/2020 3:15:00 AM 14.87 58.766 0.24 6.91 0.6 7.92
10/22/2020 3:30:00 AM 14.86 58.748 0.24 6.91 0.6 7.89
10/22/2020 3:45:00 AM 14.85 58.73 0.24 6.91 0.62 7.9
10/22/2020 4:00:00 AM 14.84 58.712 0.24 6.91 0.61 7.9
10/22/2020 4:15:00 AM 14.83 58.694 0.24 6.91 0.55 7.91
10/22/2020 4:30:00 AM 14.82 58.676 0.24 6.91 0.93 7.89
10/22/2020 4:45:00 AM 14.81 58.658 0.24 6.91 0.65 7.88
10/22/2020 5:00:00 AM 14.8 58.64 0.24 6.91 0.6 7.9
10/22/2020 5:15:00 AM 14.79 58.622 0.24 6.91 0.56 7.9
10/22/2020 5:30:00 AM 14.78 58.604 0.24 6.91 0.57 7.91
10/22/2020 5:45:00 AM 14.77 58.586 0.24 6.91 0.56 7.92
10/22/2020 6:00:00 AM 14.76 58.568 0.24 6.91 0.58 7.89
10/22/2020 6:15:00 AM 14.74 58.532 0.24 6.91 0.56 7.91
10/22/2020 6:30:00 AM 14.73 58.514 0.24 6.91 0.52 7.91
10/22/2020 6:45:00 AM 14.72 58.496 0.24 6.91 0.51 7.91
10/22/2020 7:00:00 AM 14.72 58.496 0.24 6.91 0.5 7.9
10/22/2020 7:15:00 AM 14.71 58.478 0.24 6.91 0.55 7.87
10/22/2020 7:30:00 AM 14.7 58.46 0.24 6.91 0.89 7.92
10/22/2020 7:45:00 AM 14.69 58.442 0.24 6.91 0.53 7.91
10/22/2020 8:00:00 AM 14.68 58.424 0.24 6.91 0.58 7.93
10/22/2020 8:15:00 AM 14.66 58.388 0.24 6.91 0.61 7.96
10/22/2020 8:30:00 AM 14.65 58.37 0.24 6.92 0.6 7.99
10/22/2020 8:45:00 AM 14.65 58.37 0.24 6.92 0.52 8.07
10/22/2020 9:00:00 AM 14.65 58.37 0.24 6.92 0.61 8.2
10/22/2020 9:15:00 AM 14.67 58.406 0.24 6.93 0.56 8.29
10/22/2020 9:30:00 AM 14.69 58.442 0.24 6.94 0.55 8.41
10/22/2020 9:45:00 AM 14.73 58.514 0.24 6.95 0.49 8.58
10/22/2020 10:00:00 AM 14.77 58.586 0.24 6.96 0.51 8.74
10/22/2020 10:15:00 AM 14.81 58.658 0.24 6.96 0.53 8.85
10/22/2020 10:30:00 AM 14.87 58.766 0.24 6.97 0.5 8.96
10/22/2020 10:45:00 AM 14.93 58.874 0.239 6.98 0.52 9.01
10/22/2020 11:00:00 AM 15 59 0.239 6.99 0.47 9.14
10/22/2020 11:15:00 AM 15.14 59.252 0.24 7 0.45 9.2
10/22/2020 11:30:00 AM 15.21 59.378 0.24 7.01 0.53 9.28
10/22/2020 11:45:00 AM 15.23 59.414 0.239 7.01 0.52 9.35
10/22/2020 12:00:00 PM 15.26 59.468 0.239 7 0.48 9.37
10/22/2020 12:15:00 PM 15.33 59.594 0.239 7.01 0.49 9.39
10/22/2020 12:30:00 PM 15.42 59.756 0.239 7.01 0.46 9.4
10/22/2020 12:45:00 PM 15.5 59.9 0.239 7.02 0.54 9.52
10/22/2020 1:00:00 PM 15.6 60.08 0.239 7.03 0.52 9.58
10/22/2020 1:15:00 PM 15.69 60.242 0.239 7.03 0.45 9.6
10/22/2020 1:30:00 PM 15.81 60.458 0.239 7.03 0.47 9.56
10/22/2020 1:45:00 PM 15.96 60.728 0.239 7.03 0.49 9.5
10/22/2020 2:00:00 PM 16.07 60.926 0.239 7.04 0.46 9.52
10/22/2020 2:15:00 PM 16.13 61.034 0.239 7.04 0.49 9.53
10/22/2020 2:30:00 PM 16.17 61.106 0.239 7.04 0.53 9.55
10/22/2020 2:45:00 PM 16.2 61.16 0.239 7.04 0.48 9.53
10/22/2020 3:00:00 PM 16.23 61.214 0.239 7.03 0.54 9.52
10/22/2020 3:15:00 PM 16.25 61.25 0.239 7.03 0.45 9.49
10/22/2020 3:30:00 PM 16.25 61.25 0.239 7.03 0.55 9.43
10/22/2020 3:45:00 PM 16.22 61.196 0.238 7.01 0.48 9.31
10/22/2020 4:00:00 PM 16.23 61.214 0.238 7.01 0.45 9.32
10/22/2020 4:15:00 PM 16.24 61.232 0.238 7.01 0.53 9.33
10/22/2020 4:30:00 PM 16.23 61.214 0.238 7 0.54 9.25
10/22/2020 4:45:00 PM 16.21 61.178 0.238 7 0.52 9.16
10/22/2020 5:00:00 PM 16.19 61.142 0.238 6.99 0.57 9.12
10/22/2020 5:15:00 PM 16.16 61.088 0.238 6.99 0.51 9.04
10/22/2020 5:30:00 PM 16.09 60.962 0.238 6.97 0.55 8.9
10/22/2020 5:45:00 PM 16.03 60.854 0.238 6.96 0.64 8.78
10/22/2020 6:00:00 PM 15.98 60.764 0.238 6.95 0.65 8.67
10/22/2020 6:15:00 PM 15.92 60.656 0.238 6.94 0.61 8.56
10/22/2020 6:30:00 PM 15.88 60.584 0.238 6.94 0.59 8.44
10/22/2020 6:45:00 PM 15.83 60.494 0.239 6.93 0.64 8.31
10/22/2020 7:00:00 PM 15.8 60.44 0.239 6.92 0.67 8.22
10/22/2020 7:15:00 PM 15.76 60.368 0.239 6.92 0.59 8.13
10/22/2020 7:30:00 PM 15.71 60.278 0.239 6.91 0.58 8.05
10/22/2020 7:45:00 PM 15.67 60.206 0.239 6.91 0.55 8
10/22/2020 8:00:00 PM 15.61 60.098 0.239 6.9 0.61 7.94
10/22/2020 8:15:00 PM 15.57 60.026 0.239 6.9 0.58 7.94
10/22/2020 8:30:00 PM 15.51 59.918 0.239 6.9 0.62 7.94
10/22/2020 8:45:00 PM 15.47 59.846 0.239 6.9 0.54 7.91
10/22/2020 9:00:00 PM 15.43 59.774 0.239 6.9 0.54 7.91
10/22/2020 9:15:00 PM 15.39 59.702 0.239 6.9 0.68 7.88
10/22/2020 9:30:00 PM 15.34 59.612 0.239 6.9 0.68 7.86
10/22/2020 9:45:00 PM 15.3 59.54 0.239 6.9 0.53 7.89
10/22/2020 10:00:00 PM 15.25 59.45 0.239 6.9 0.53 7.88
10/22/2020 10:15:00 PM 15.21 59.378 0.239 6.89 0.54 7.87
10/22/2020 10:30:00 PM 15.18 59.324 0.239 6.9 0.52 7.87
10/22/2020 10:45:00 PM 15.14 59.252 0.239 6.9 0.61 7.85
10/22/2020 11:00:00 PM 15.09 59.162 0.239 6.9 0.57 7.88
10/22/2020 11:15:00 PM 15.06 59.108 0.239 6.9 0.56 7.87
10/22/2020 11:30:00 PM 15.03 59.054 0.239 6.9 0.5 7.87
10/22/2020 11:45:00 PM 14.98 58.964 0.239 6.9 0.51 7.9
10/23/2020 12:00:00 AM 14.96 58.928 0.239 6.91 0.54 7.85
10/23/2020 12:15:00 AM 14.92 58.856 0.239 6.91 0.61 7.87
10/23/2020 12:30:00 AM 14.89 58.802 0.239 6.9 0.57 7.86
10/23/2020 12:45:00 AM 14.85 58.73 0.239 6.91 0.57 7.88
10/23/2020 1:00:00 AM 14.81 58.658 0.239 6.91 0.57 7.87
10/23/2020 1:15:00 AM 14.78 58.604 0.239 6.91 0.54 7.87
10/23/2020 1:30:00 AM 14.76 58.568 0.239 6.9 0.55 7.87
10/23/2020 1:45:00 AM 14.73 58.514 0.239 6.91 0.59 7.86
10/23/2020 2:00:00 AM 14.7 58.46 0.239 6.91 0.52 7.85
10/23/2020 2:15:00 AM 14.67 58.406 0.239 6.91 0.56 7.85
10/23/2020 2:30:00 AM 14.64 58.352 0.239 6.91 0.56 7.83
10/23/2020 2:45:00 AM 14.61 58.298 0.239 6.91 0.51 7.8
10/23/2020 3:00:00 AM 14.59 58.262 0.239 6.91 0.55 7.85
10/23/2020 3:15:00 AM 14.56 58.208 0.239 6.91 0.53 7.82
10/23/2020 3:30:00 AM 14.54 58.172 0.24 6.91 0.54 7.83
10/23/2020 3:45:00 AM 14.52 58.136 0.24 6.91 0.56 7.83
10/23/2020 4:00:00 AM 14.5 58.1 0.24 6.91 0.53 7.81
10/23/2020 4:15:00 AM 14.49 58.082 0.24 6.91 0.57 7.81
10/23/2020 4:30:00 AM 14.49 58.082 0.239 6.91 0.53 7.83
10/23/2020 4:45:00 AM 14.48 58.064 0.239 6.91 0.55 7.88
10/23/2020 5:00:00 AM 14.49 58.082 0.239 6.92 0.52 7.9
10/23/2020 5:15:00 AM 14.49 58.082 0.239 6.92 0.64 7.92
10/23/2020 5:30:00 AM 14.48 58.064 0.239 6.92 0.58 7.92
10/23/2020 5:45:00 AM 14.48 58.064 0.239 6.93 0.53 7.91
10/23/2020 6:00:00 AM 14.46 58.028 0.239 6.93 0.57 7.93
10/23/2020 6:15:00 AM 14.45 58.01 0.239 6.93 0.61 7.9
10/23/2020 6:30:00 AM 14.44 57.992 0.239 6.93 0.5 7.95
10/23/2020 6:45:00 AM 14.42 57.956 0.239 6.93 0.6 7.95
10/23/2020 7:00:00 AM 14.4 57.92 0.239 6.93 0.68 7.98
10/23/2020 7:15:00 AM 14.37 57.866 0.239 6.93 0.77 7.94
10/23/2020 7:30:00 AM 14.34 57.812 0.239 6.93 0.61 7.99
10/23/2020 7:45:00 AM 14.32 57.776 0.239 6.93 0.55 8.01
10/23/2020 8:00:00 AM 14.3 57.74 0.239 6.93 0.62 8.05
10/23/2020 8:15:00 AM 14.29 57.722 0.239 6.93 0.59 8.08
10/23/2020 8:30:00 AM 14.27 57.686 0.238 6.93 0.61 8.11
10/23/2020 8:45:00 AM 14.28 57.704 0.238 6.94 0.51 8.23
10/23/2020 9:00:00 AM 14.3 57.74 0.238 6.95 0.5 8.37
10/23/2020 9:15:00 AM 14.35 57.83 0.238 6.96 0.57 8.49
10/23/2020 9:30:00 AM 14.42 57.956 0.238 6.97 0.49 8.62
10/23/2020 9:45:00 AM 14.54 58.172 0.238 6.97 0.52 8.76
10/23/2020 10:00:00 AM 14.66 58.388 0.238 6.99 0.54 8.88
10/23/2020 10:15:00 AM 14.81 58.658 0.238 6.99 0.54 8.92
10/23/2020 10:30:00 AM 14.96 58.928 0.239 7 0.5 9
10/23/2020 10:45:00 AM 15.1 59.18 0.239 7.01 0.51 9.09
10/23/2020 11:00:00 AM 15.24 59.432 0.239 7.01 0.5 9.2
10/23/2020 11:15:00 AM 15.39 59.702 0.239 7.01 0.49 9.29
10/23/2020 11:30:00 AM 15.6 60.08 0.239 7.03 0.5 9.34
10/23/2020 11:45:00 AM 15.67 60.206 0.239 7.03 0.49 9.38
10/23/2020 12:00:00 PM 15.77 60.386 0.239 7.03 0.53 9.45
10/23/2020 12:15:00 PM 15.82 60.476 0.239 7.02 0.63 9.43
10/23/2020 12:30:00 PM 15.9 60.62 0.239 7.02 0.51 9.44
10/23/2020 12:45:00 PM 15.98 60.764 0.239 7.02 0.47 9.46
10/23/2020 1:00:00 PM 16.07 60.926 0.239 7.02 0.56 9.44
10/23/2020 1:15:00 PM 16.14 61.052 0.239 7.01 0.47 9.37
10/23/2020 1:30:00 PM 16.22 61.196 0.239 7.01 0.46 9.37
10/23/2020 1:45:00 PM 16.33 61.394 0.239 7.01 0.46 9.35
10/23/2020 2:00:00 PM 16.39 61.502 0.24 7 0.48 9.29
10/23/2020 2:15:00 PM 16.43 61.574 0.24 7 0.58 9.27
10/23/2020 2:30:00 PM 16.46 61.628 0.24 6.99 0.51 9.23
10/23/2020 2:45:00 PM 16.46 61.628 0.24 6.98 0.58 9.13
10/23/2020 3:00:00 PM 16.47 61.646 0.24 6.98 0.49 9.14
10/23/2020 3:15:00 PM 16.47 61.646 0.24 6.97 0.53 9.08
10/23/2020 3:30:00 PM 16.45 61.61 0.24 6.96 0.94 9.04
10/23/2020 3:45:00 PM 16.42 61.556 0.241 6.96 0.56 9.01
10/23/2020 4:00:00 PM 16.39 61.502 0.24 6.95 0.66 8.94
10/23/2020 4:15:00 PM 16.34 61.412 0.24 6.94 0.7 8.89
10/23/2020 4:30:00 PM 16.29 61.322 0.24 6.94 0.7 8.83
10/23/2020 4:45:00 PM 16.24 61.232 0.241 6.93 0.58 8.8
10/23/2020 5:00:00 PM 16.21 61.178 0.241 6.93 0.71 8.79
10/23/2020 5:15:00 PM 16.17 61.106 0.241 6.92 0.66 8.73
10/23/2020 5:30:00 PM 16.11 60.998 0.241 6.92 0.59 8.65
10/23/2020 5:45:00 PM 16.02 60.836 0.241 6.91 0.62 8.54
10/23/2020 6:00:00 PM 15.94 60.692 0.241 6.9 0.58 8.44
10/23/2020 6:15:00 PM 15.85 60.53 0.241 6.89 0.53 8.27
10/23/2020 6:30:00 PM 15.78 60.404 0.241 6.87 0.6 8.11
10/23/2020 6:45:00 PM 15.71 60.278 0.242 6.87 0.57 7.97
10/23/2020 7:00:00 PM 15.64 60.152 0.242 6.86 0.65 7.86
10/23/2020 7:15:00 PM 15.58 60.044 0.242 6.86 0.64 7.74
10/23/2020 7:30:00 PM 15.52 59.936 0.242 6.86 0.54 7.65
10/23/2020 7:45:00 PM 15.48 59.864 0.242 6.85 0.54 7.56
10/23/2020 8:00:00 PM 15.45 59.81 0.242 6.85 0.6 7.49
10/23/2020 8:15:00 PM 15.42 59.756 0.242 6.85 0.61 7.45
10/23/2020 8:30:00 PM 15.39 59.702 0.242 6.85 0.73 7.42
10/23/2020 8:45:00 PM 15.36 59.648 0.242 6.86 0.6 7.39
10/23/2020 9:00:00 PM 15.34 59.612 0.242 6.86 0.65 7.37
10/23/2020 9:15:00 PM 15.31 59.558 0.242 6.86 0.68 7.37
10/23/2020 9:30:00 PM 15.28 59.504 0.242 6.86 0.62 7.36
10/23/2020 9:45:00 PM 15.27 59.486 0.242 6.86 0.58 7.35
10/23/2020 10:00:00 PM 15.24 59.432 0.242 6.86 0.57 7.35
10/23/2020 10:15:00 PM 15.23 59.414 0.242 6.86 0.6 7.33
10/23/2020 10:30:00 PM 15.21 59.378 0.242 6.86 0.53 7.34
10/23/2020 10:45:00 PM 15.19 59.342 0.242 6.86 0.54 7.34
10/23/2020 11:00:00 PM 15.18 59.324 0.242 6.86 0.55 7.34
10/23/2020 11:15:00 PM 15.16 59.288 0.242 6.86 0.55 7.31
10/23/2020 11:30:00 PM 15.15 59.27 0.242 6.86 0.53 7.29
10/23/2020 11:45:00 PM 15.13 59.234 0.242 6.86 0.52 7.27
10/24/2020 12:00:00 AM 15.11 59.198 0.242 6.87 0.56 7.3
10/24/2020 12:15:00 AM 15.1 59.18 0.242 6.86 0.72 7.29
10/24/2020 12:30:00 AM 15.09 59.162 0.242 6.87 0.54 7.27
10/24/2020 12:45:00 AM 15.08 59.144 0.242 6.87 0.53 7.3
10/24/2020 1:00:00 AM 15.07 59.126 0.242 6.87 0.56 7.3
10/24/2020 1:15:00 AM 15.05 59.09 0.242 6.87 0.65 7.28
10/24/2020 1:30:00 AM 15.04 59.072 0.242 6.87 0.72 7.26
10/24/2020 1:45:00 AM 15.03 59.054 0.242 6.87 0.55 7.3
10/24/2020 2:00:00 AM 15.02 59.036 0.242 6.87 0.61 7.3
10/24/2020 2:15:00 AM 15.01 59.018 0.242 6.87 0.67 7.29
10/24/2020 2:30:00 AM 15.01 59.018 0.242 6.87 0.61 7.27
10/24/2020 2:45:00 AM 15 59 0.242 6.87 0.6 7.29
10/24/2020 3:00:00 AM 15 59 0.242 6.87 0.54 7.24
10/24/2020 3:15:00 AM 15 59 0.242 6.87 0.6 7.23
10/24/2020 3:30:00 AM 15 59 0.242 6.87 0.57 7.25
10/24/2020 3:45:00 AM 14.99 58.982 0.242 6.88 0.59 7.24
10/24/2020 4:00:00 AM 14.99 58.982 0.242 6.87 0.56 7.25
10/24/2020 4:15:00 AM 14.99 58.982 0.242 6.88 0.58 7.25
10/24/2020 4:30:00 AM 14.99 58.982 0.242 6.88 0.57 7.31
10/24/2020 4:45:00 AM 15 59 0.242 6.88 0.56 7.31
10/24/2020 5:00:00 AM 14.99 58.982 0.242 6.88 0.53 7.31
10/24/2020 5:15:00 AM 15 59 0.242 6.88 0.5 7.31
10/24/2020 5:30:00 AM 15 59 0.242 6.88 0.53 7.32
10/24/2020 5:45:00 AM 15 59 0.242 6.88 0.49 7.33
10/24/2020 6:00:00 AM 15.01 59.018 0.242 6.89 0.58 7.34
10/24/2020 6:15:00 AM 15.02 59.036 0.242 6.89 0.53 7.35
10/24/2020 6:30:00 AM 15.03 59.054 0.242 6.88 0.7 7.34
10/24/2020 6:45:00 AM 15.04 59.072 0.242 6.88 0.53 7.32
10/24/2020 7:00:00 AM 15.04 59.072 0.242 6.88 0.51 7.31
10/24/2020 7:15:00 AM 15.03 59.054 0.241 6.89 0.6 7.41
10/24/2020 7:30:00 AM 15.01 59.018 0.241 6.89 0.62 7.41
10/24/2020 7:45:00 AM 15 59 0.241 6.89 0.6 7.35
10/24/2020 8:00:00 AM 14.98 58.964 0.241 6.88 0.68 7.33
10/24/2020 8:15:00 AM 14.95 58.91 0.241 6.88 0.66 7.27
10/24/2020 8:30:00 AM 14.91 58.838 0.241 6.87 0.75 7.28
10/24/2020 8:45:00 AM 14.85 58.73 0.241 6.87 0.65 7.27
10/24/2020 9:00:00 AM 14.81 58.658 0.241 6.86 0.62 7.26
10/24/2020 9:15:00 AM 14.77 58.586 0.241 6.87 0.6 7.31
10/24/2020 9:30:00 AM 14.72 58.496 0.242 6.87 0.7 7.32
10/24/2020 9:45:00 AM 14.7 58.46 0.242 6.87 0.64 7.42
10/24/2020 10:00:00 AM 14.68 58.424 0.242 6.88 0.59 7.55
10/24/2020 10:15:00 AM 14.67 58.406 0.242 6.89 0.68 7.74
10/24/2020 10:30:00 AM 14.66 58.388 0.242 6.89 0.66 7.86
10/24/2020 10:45:00 AM 14.66 58.388 0.241 6.9 0.65 8
10/24/2020 11:00:00 AM 14.66 58.388 0.241 6.92 0.59 8.27
10/24/2020 11:15:00 AM 14.7 58.46 0.241 6.93 0.65 8.47
10/24/2020 11:30:00 AM 14.71 58.478 0.241 6.94 0.52 8.55
10/24/2020 11:45:00 AM 14.74 58.532 0.241 6.95 0.52 8.72
10/24/2020 12:00:00 PM 14.75 58.55 0.241 6.96 0.5 8.81
10/24/2020 12:15:00 PM 14.78 58.604 0.241 6.96 0.59 8.89
10/24/2020 12:30:00 PM 14.8 58.64 0.242 6.96 0.58 8.91
10/24/2020 12:45:00 PM 14.82 58.676 0.241 6.97 0.54 8.98
10/24/2020 1:00:00 PM 14.82 58.676 0.242 6.97 0.51 9.01
10/24/2020 1:15:00 PM 14.83 58.694 0.242 6.97 0.45 9.07
10/24/2020 1:30:00 PM 14.82 58.676 0.242 6.97 0.46 9.05
10/24/2020 1:45:00 PM 14.8 58.64 0.242 6.97 0.47 9.11
10/24/2020 2:00:00 PM 14.81 58.658 0.241 6.98 0.48 9.16
10/24/2020 2:15:00 PM 14.81 58.658 0.241 6.98 0.49 9.19
10/24/2020 2:30:00 PM 14.8 58.64 0.241 6.98 0.56 9.18
10/24/2020 2:45:00 PM 14.79 58.622 0.242 6.98 0.51 9.29
10/24/2020 3:00:00 PM 14.78 58.604 0.241 6.99 0.52 9.34
10/24/2020 3:15:00 PM 14.78 58.604 0.241 6.98 0.53 9.31
10/24/2020 3:30:00 PM 14.77 58.586 0.241 6.98 0.46 9.27
10/24/2020 3:45:00 PM 14.75 58.55 0.241 6.98 0.8 9.29
10/24/2020 4:00:00 PM 14.73 58.514 0.241 6.98 0.56 9.28
10/24/2020 4:15:00 PM 14.71 58.478 0.241 6.99 0.55 9.22
10/24/2020 4:30:00 PM 14.69 58.442 0.241 6.98 0.56 9.2
10/24/2020 4:45:00 PM 14.65 58.37 0.241 6.98 0.57 9.14
10/24/2020 5:00:00 PM 14.63 58.334 0.241 6.97 0.6 9.09
10/24/2020 5:15:00 PM 14.59 58.262 0.241 6.97 0.58 9
10/24/2020 5:30:00 PM 14.55 58.19 0.241 6.96 0.56 8.89
10/24/2020 5:45:00 PM 14.51 58.118 0.241 6.96 0.59 8.79
10/24/2020 6:00:00 PM 14.47 58.046 0.242 6.94 0.71 8.66
10/24/2020 6:15:00 PM 14.4 57.92 0.242 6.94 0.62 8.55
10/24/2020 6:30:00 PM 14.37 57.866 0.242 6.93 0.64 8.42
10/24/2020 6:45:00 PM 14.31 57.758 0.242 6.93 0.6 8.31
10/24/2020 7:00:00 PM 14.25 57.65 0.242 6.93 0.58 8.24
10/24/2020 7:15:00 PM 14.21 57.578 0.242 6.92 0.61 8.16
10/24/2020 7:30:00 PM 14.16 57.488 0.242 6.92 0.58 8.1
10/24/2020 7:45:00 PM 14.14 57.452 0.242 6.92 0.57 8.01
10/24/2020 8:00:00 PM 14.08 57.344 0.242 6.92 0.58 8
10/24/2020 8:15:00 PM 14.05 57.29 0.242 6.91 0.6 7.98
10/24/2020 8:30:00 PM 14.01 57.218 0.242 6.91 0.65 7.96
10/24/2020 8:45:00 PM 13.99 57.182 0.242 6.91 0.57 7.95
10/24/2020 9:00:00 PM 13.96 57.128 0.241 6.91 0.56 7.93
10/24/2020 9:15:00 PM 13.91 57.038 0.241 6.91 0.58 7.93
10/24/2020 9:30:00 PM 13.88 56.984 0.241 6.91 0.56 7.94
10/24/2020 9:45:00 PM 13.84 56.912 0.241 6.92 0.57 7.94
10/24/2020 10:00:00 PM 13.8 56.84 0.241 6.92 0.56 7.96
10/24/2020 10:15:00 PM 13.77 56.786 0.241 6.92 0.59 7.98
10/24/2020 10:30:00 PM 13.71 56.678 0.241 6.91 0.59 7.99
10/24/2020 10:45:00 PM 13.66 56.588 0.241 6.92 0.57 7.99
10/24/2020 11:00:00 PM 13.64 56.552 0.241 6.91 0.63 7.98
10/24/2020 11:15:00 PM 13.59 56.462 0.241 6.92 0.58 8
10/24/2020 11:30:00 PM 13.54 56.372 0.241 6.92 0.62 8.03
10/24/2020 11:45:00 PM 13.49 56.282 0.241 6.92 0.62 8.04
10/25/2020 12:00:00 AM 13.43 56.174 0.241 6.92 0.6 8.05
10/25/2020 12:15:00 AM 13.42 56.156 0.241 6.92 0.58 8.07
10/25/2020 12:30:00 AM 13.37 56.066 0.241 6.92 0.58 8.06
10/25/2020 12:45:00 AM 13.34 56.012 0.241 6.92 0.56 8.08
10/25/2020 1:00:00 AM 13.33 55.994 0.241 6.92 0.57 8.08
10/25/2020 1:15:00 AM 13.28 55.904 0.241 6.93 0.54 8.1
10/25/2020 1:30:00 AM 13.24 55.832 0.241 6.93 0.6 8.12
10/25/2020 1:45:00 AM 13.21 55.778 0.241 6.92 0.53 8.12
10/25/2020 2:00:00 AM 13.18 55.724 0.241 6.92 0.55 8.12
10/25/2020 2:15:00 AM 13.14 55.652 0.241 6.93 0.55 8.15
10/25/2020 2:30:00 AM 13.12 55.616 0.241 6.93 0.56 8.16
10/25/2020 2:45:00 AM 13.09 55.562 0.241 6.93 0.51 8.17
10/25/2020 3:00:00 AM 13.06 55.508 0.241 6.93 0.57 8.18
10/25/2020 3:15:00 AM 13.01 55.418 0.24 6.93 0.54 8.2
10/25/2020 3:30:00 AM 13 55.4 0.24 6.93 0.59 8.23
10/25/2020 3:45:00 AM 12.97 55.346 0.241 6.93 0.57 8.21
10/25/2020 4:00:00 AM 12.97 55.346 0.241 6.93 0.53 8.21
10/25/2020 4:15:00 AM 12.91 55.238 0.24 6.93 0.52 8.23
10/25/2020 4:30:00 AM 12.92 55.256 0.24 6.93 0.57 8.24
10/25/2020 4:45:00 AM 12.9 55.22 0.241 6.94 0.6 8.25
10/25/2020 5:00:00 AM 12.87 55.166 0.241 6.93 0.49 8.25
10/25/2020 5:15:00 AM 12.88 55.184 0.241 6.93 0.55 8.24
10/25/2020 5:30:00 AM 12.86 55.148 0.241 6.94 0.5 8.25
10/25/2020 5:45:00 AM 12.85 55.13 0.241 6.93 0.57 8.25
10/25/2020 6:00:00 AM 12.83 55.094 0.241 6.94 0.54 8.26
10/25/2020 6:15:00 AM 12.82 55.076 0.241 6.94 0.55 8.26
10/25/2020 6:30:00 AM 12.85 55.13 0.241 6.94 0.54 8.26
10/25/2020 6:45:00 AM 12.84 55.112 0.241 6.93 0.59 8.27
10/25/2020 7:00:00 AM 12.83 55.094 0.241 6.94 0.51 8.27
10/25/2020 7:15:00 AM 12.8 55.04 0.241 6.94 0.58 8.26
10/25/2020 7:30:00 AM 12.84 55.112 0.241 6.94 0.6 8.26
10/25/2020 7:45:00 AM 12.85 55.13 0.241 6.93 0.6 8.27
10/25/2020 8:00:00 AM 12.83 55.094 0.241 6.94 0.56 8.26
10/25/2020 8:15:00 AM 12.85 55.13 0.241 6.94 0.58 8.3
10/25/2020 8:30:00 AM 12.85 55.13 0.241 6.94 0.58 8.33
10/25/2020 8:45:00 AM 12.84 55.112 0.241 6.94 0.54 8.37
10/25/2020 9:00:00 AM 12.83 55.094 0.24 6.94 0.55 8.44
10/25/2020 9:15:00 AM 12.87 55.166 0.24 6.95 0.55 8.57
10/25/2020 9:30:00 AM 12.89 55.202 0.24 6.96 0.55 8.66
10/25/2020 9:45:00 AM 12.89 55.202 0.24 6.96 0.51 8.75
10/25/2020 10:00:00 AM 12.94 55.292 0.24 6.97 0.56 8.88
10/25/2020 10:15:00 AM 12.97 55.346 0.24 6.97 0.53 8.98
10/25/2020 10:30:00 AM 13.05 55.49 0.24 6.98 0.58 9.11
10/25/2020 10:45:00 AM 13.15 55.67 0.24 6.99 0.51 9.25
10/25/2020 11:00:00 AM 13.26 55.868 0.24 7.01 0.53 9.39
10/25/2020 11:15:00 AM 13.36 56.048 0.24 7.02 0.52 9.49
10/25/2020 11:30:00 AM 13.45 56.21 0.24 7.03 0.52 9.56
10/25/2020 11:45:00 AM 13.52 56.336 0.24 7.03 0.48 9.64
10/25/2020 12:00:00 PM 13.59 56.462 0.24 7.03 0.49 9.7
10/25/2020 12:15:00 PM 13.63 56.534 0.24 7.02 0.52 9.65
10/25/2020 12:30:00 PM 13.74 56.732 0.24 7.02 0.81 9.63
10/25/2020 12:45:00 PM 13.83 56.894 0.24 7.03 0.45 9.69
10/25/2020 1:00:00 PM 13.94 57.092 0.24 7.03 0.56 9.61
10/25/2020 1:15:00 PM 14.02 57.236 0.24 7.03 0.52 9.63
10/25/2020 1:30:00 PM 14.11 57.398 0.24 7.03 0.48 9.64
10/25/2020 1:45:00 PM 14.2 57.56 0.24 7.04 0.47 9.7
10/25/2020 2:00:00 PM 14.3 57.74 0.24 7.04 0.53 9.7
10/25/2020 2:15:00 PM 14.37 57.866 0.24 7.03 0.51 9.71
10/25/2020 2:30:00 PM 14.4 57.92 0.24 7.03 0.72 9.73
10/25/2020 2:45:00 PM 14.4 57.92 0.24 7.03 0.56 9.72
10/25/2020 3:00:00 PM 14.38 57.884 0.24 7.02 0.54 9.72
10/25/2020 3:15:00 PM 14.38 57.884 0.24 7.01 0.56 9.69
10/25/2020 3:30:00 PM 14.37 57.866 0.24 7 0.54 9.65
10/25/2020 3:45:00 PM 14.34 57.812 0.24 6.99 0.57 9.63
10/25/2020 4:00:00 PM 14.31 57.758 0.24 7 0.55 9.64
10/25/2020 4:15:00 PM 14.29 57.722 0.24 7 0.52 9.66
10/25/2020 4:30:00 PM 14.27 57.686 0.24 7 0.56 9.69
10/25/2020 4:45:00 PM 14.25 57.65 0.24 6.99 0.59 9.57
10/25/2020 5:00:00 PM 14.22 57.596 0.24 6.98 0.45 9.59
10/25/2020 5:15:00 PM 14.19 57.542 0.24 6.99 0.62 9.55
10/25/2020 5:30:00 PM 14.16 57.488 0.24 6.98 0.47 9.47
10/25/2020 5:45:00 PM 14.12 57.416 0.24 6.98 0.51 9.4
10/25/2020 6:00:00 PM 14.08 57.344 0.24 6.97 0.54 9.27
10/25/2020 6:15:00 PM 14.04 57.272 0.24 6.97 0.49 9.13
10/25/2020 6:30:00 PM 14.02 57.236 0.24 6.96 0.47 8.98
10/25/2020 6:45:00 PM 13.98 57.164 0.24 6.95 0.54 8.84
10/25/2020 7:00:00 PM 13.95 57.11 0.241 6.93 0.54 8.69
10/25/2020 7:15:00 PM 13.91 57.038 0.241 6.92 0.51 8.54
10/25/2020 7:30:00 PM 13.89 57.002 0.241 6.92 0.57 8.45
10/25/2020 7:45:00 PM 13.84 56.912 0.241 6.92 0.57 8.35
10/25/2020 8:00:00 PM 13.82 56.876 0.241 6.91 0.98 8.21
10/25/2020 8:15:00 PM 13.78 56.804 0.241 6.91 1.16 8.12
10/25/2020 8:30:00 PM 13.75 56.75 0.241 6.9 0.54 8.1
10/25/2020 8:45:00 PM 13.72 56.696 0.241 6.9 0.49 8.07
10/25/2020 9:00:00 PM 13.69 56.642 0.241 6.9 0.51 8.03
10/25/2020 9:15:00 PM 13.66 56.588 0.241 6.9 0.52 8.02
10/25/2020 9:30:00 PM 13.64 56.552 0.241 6.89 0.48 8.03
10/25/2020 9:45:00 PM 13.64 56.552 0.241 6.89 0.46 8
10/25/2020 10:00:00 PM 13.63 56.534 0.241 6.9 0.46 8
10/25/2020 10:15:00 PM 13.62 56.516 0.241 6.89 0.46 8
10/25/2020 10:30:00 PM 13.61 56.498 0.241 6.89 0.5 8
10/25/2020 10:45:00 PM 13.6 56.48 0.241 6.89 0.52 7.97
10/25/2020 11:00:00 PM 13.6 56.48 0.241 6.9 0.57 7.97
10/25/2020 11:15:00 PM 13.6 56.48 0.241 6.9 0.5 7.98
10/25/2020 11:30:00 PM 13.59 56.462 0.241 6.9 0.47 7.96
10/25/2020 11:45:00 PM 13.57 56.426 0.241 6.9 0.5 7.98
10/26/2020 12:00:00 AM 13.56 56.408 0.241 6.9 0.48 7.96
10/26/2020 12:15:00 AM 13.54 56.372 0.241 6.9 0.45 7.96
10/26/2020 12:30:00 AM 13.53 56.354 0.241 6.9 0.45 7.97
10/26/2020 12:45:00 AM 13.52 56.336 0.241 6.9 0.48 7.96
10/26/2020 1:00:00 AM 13.49 56.282 0.241 6.9 0.54 7.97
10/26/2020 1:15:00 AM 13.47 56.246 0.241 6.9 0.6 8.02
10/26/2020 1:30:00 AM 13.46 56.228 0.241 6.9 0.48 8.01
10/26/2020 1:45:00 AM 13.45 56.21 0.24 6.9 0.48 8.01
10/26/2020 2:00:00 AM 13.44 56.192 0.24 6.9 0.47 7.99
10/26/2020 2:15:00 AM 13.44 56.192 0.24 6.9 0.46 7.96
10/26/2020 2:30:00 AM 13.44 56.192 0.24 6.89 0.54 7.93
10/26/2020 2:45:00 AM 13.42 56.156 0.24 6.89 0.52 7.91
10/26/2020 3:00:00 AM 13.43 56.174 0.24 6.89 0.45 7.88
10/26/2020 3:15:00 AM 13.43 56.174 0.24 6.89 0.53 7.88
10/26/2020 3:30:00 AM 13.44 56.192 0.241 6.89 0.49 7.9
10/26/2020 3:45:00 AM 13.44 56.192 0.241 6.89 1.44 7.89
10/26/2020 4:00:00 AM 13.44 56.192 0.241 6.89 0.51 7.88
10/26/2020 4:15:00 AM 13.44 56.192 0.241 6.9 0.48 7.88
10/26/2020 4:30:00 AM 13.44 56.192 0.241 6.89 0.5 7.89
10/26/2020 4:45:00 AM 13.44 56.192 0.241 6.9 0.44 7.9
10/26/2020 5:00:00 AM 13.41 56.138 0.241 6.9 0.47 7.91
10/26/2020 5:15:00 AM 13.43 56.174 0.241 6.9 0.51 7.89
10/26/2020 5:30:00 AM 13.44 56.192 0.241 6.89 0.46 7.89
10/26/2020 5:45:00 AM 13.43 56.174 0.241 6.9 0.43 7.91
10/26/2020 6:00:00 AM 13.44 56.192 0.241 6.89 0.63 7.92
10/26/2020 6:15:00 AM 13.43 56.174 0.241 6.9 0.46 7.91
10/26/2020 6:30:00 AM 13.45 56.21 0.241 6.9 0.49 7.92
10/26/2020 6:45:00 AM 13.45 56.21 0.241 6.9 0.47 7.91
10/26/2020 7:00:00 AM 13.46 56.228 0.241 6.9 0.43 7.91
10/26/2020 7:15:00 AM 13.46 56.228 0.241 6.9 0.47 7.91
10/26/2020 7:30:00 AM 13.47 56.246 0.241 6.9 0.46 7.91
10/26/2020 7:45:00 AM 13.49 56.282 0.241 6.9 0.51 7.91
10/26/2020 8:00:00 AM 13.48 56.264 0.241 6.9 0.51 7.91
10/26/2020 8:15:00 AM 13.49 56.282 0.241 6.9 0.53 7.89
10/26/2020 8:30:00 AM 13.48 56.264 0.241 6.89 0.46 7.87
10/26/2020 8:45:00 AM 13.5 56.3 0.241 6.9 0.47 7.91
10/26/2020 9:00:00 AM 13.5 56.3 0.241 6.9 0.48 7.91
10/26/2020 9:15:00 AM 13.52 56.336 0.241 6.9 0.49 7.94
10/26/2020 9:30:00 AM 13.54 56.372 0.241 6.9 0.47 7.96
10/26/2020 9:45:00 AM 13.56 56.408 0.241 6.9 0.46 8.06
10/26/2020 10:00:00 AM 13.58 56.444 0.241 6.9 0.46 8.1
10/26/2020 10:15:00 AM 13.6 56.48 0.241 6.91 0.47 8.26
10/26/2020 10:30:00 AM 13.63 56.534 0.241 6.92 0.42 8.37
10/26/2020 10:45:00 AM 13.65 56.57 0.241 6.92 0.45 8.41
10/26/2020 11:00:00 AM 13.67 56.606 0.241 6.92 0.54 8.48
10/26/2020 11:15:00 AM 13.7 56.66 0.241 6.93 0.45 8.55
10/26/2020 11:30:00 AM 13.72 56.696 0.241 6.93 0.42 8.61
10/26/2020 11:45:00 AM 13.75 56.75 0.241 6.93 0.45 8.65
10/26/2020 12:00:00 PM 13.79 56.822 0.241 6.94 0.47 8.7
10/26/2020 12:15:00 PM 13.84 56.912 0.241 6.94 0.47 8.82
10/26/2020 12:30:00 PM 13.9 57.02 0.241 6.95 0.43 8.92
10/26/2020 12:45:00 PM 13.96 57.128 0.241 6.95 0.44 9.01
10/26/2020 1:00:00 PM 14 57.2 0.241 6.96 0.5 9.09
10/26/2020 1:15:00 PM 14.04 57.272 0.241 6.96 0.42 9.15
10/26/2020 1:30:00 PM 14.06 57.308 0.241 6.96 0.44 9.18
10/26/2020 1:45:00 PM 14.08 57.344 0.241 6.96 0.49 9.21
10/26/2020 2:00:00 PM 14.09 57.362 0.241 6.96 0.46 9.17
10/26/2020 2:15:00 PM 14.1 57.38 0.241 6.96 0.53 9.15
10/26/2020 2:30:00 PM 14.1 57.38 0.241 6.96 0.45 9.14
10/26/2020 2:45:00 PM 14.1 57.38 0.241 6.95 0.46 9.12
10/26/2020 3:00:00 PM 14.1 57.38 0.241 6.95 0.48 9.07
10/26/2020 3:15:00 PM 14.1 57.38 0.241 6.94 0.42 8.98
10/26/2020 3:30:00 PM 14.1 57.38 0.241 6.94 0.43 8.91
10/26/2020 3:45:00 PM 14.1 57.38 0.241 6.94 0.64 8.65
10/26/2020 4:00:00 PM 14.1 57.38 0.241 6.94 0.49 8.79
10/26/2020 4:15:00 PM 14.09 57.362 0.241 6.94 0.49 8.77
10/26/2020 4:30:00 PM 14.09 57.362 0.241 6.94 0.5 8.77
10/26/2020 4:45:00 PM 14.09 57.362 0.241 6.93 0.53 8.68
10/26/2020 5:00:00 PM 14.08 57.344 0.241 6.92 0.52 8.58
10/26/2020 5:15:00 PM 14.08 57.344 0.241 6.92 0.52 8.5
10/26/2020 5:30:00 PM 14.07 57.326 0.241 6.91 0.51 8.45
10/26/2020 5:45:00 PM 14.07 57.326 0.241 6.92 0.49 8.42
10/26/2020 6:00:00 PM 14.06 57.308 0.241 6.92 0.53 8.37
10/26/2020 6:15:00 PM 14.05 57.29 0.241 6.91 0.53 8.32
10/26/2020 6:30:00 PM 14.05 57.29 0.241 6.91 0.59 8.2
10/26/2020 6:45:00 PM 14.04 57.272 0.241 6.9 0.55 8.14
10/26/2020 7:00:00 PM 14.03 57.254 0.241 6.9 0.53 8
10/26/2020 7:15:00 PM 14.02 57.236 0.241 6.89 0.6 7.96
10/26/2020 7:30:00 PM 14.01 57.218 0.241 6.89 0.59 7.92
10/26/2020 7:45:00 PM 14 57.2 0.241 6.89 0.53 7.83
10/26/2020 8:00:00 PM 14 57.2 0.241 6.88 0.76 7.77
10/26/2020 8:15:00 PM 13.98 57.164 0.241 6.88 11.23 7.73
10/26/2020 8:30:00 PM 13.97 57.146 0.241 6.88 1.01 7.7
10/26/2020 8:45:00 PM 13.96 57.128 0.241 6.88 0.56 7.74
10/26/2020 9:00:00 PM 13.95 57.11 0.241 6.88 0.7 7.7
10/26/2020 9:15:00 PM 13.93 57.074 0.241 6.88 0.88 7.77
10/26/2020 9:30:00 PM 13.9 57.02 0.241 6.89 0.57 7.78
10/26/2020 9:45:00 PM 13.89 57.002 0.241 6.89 0.54 7.78
10/26/2020 10:00:00 PM 13.87 56.966 0.241 6.88 0.48 7.79
10/26/2020 10:15:00 PM 13.85 56.93 0.241 6.89 0.5 7.75
10/26/2020 10:30:00 PM 13.82 56.876 0.241 6.88 0.52 7.74
10/26/2020 10:45:00 PM 13.78 56.804 0.241 6.88 0.54 7.72
10/26/2020 11:00:00 PM 13.75 56.75 0.241 6.89 0.52 7.73
10/26/2020 11:15:00 PM 13.73 56.714 0.241 6.89 0.5 7.77
10/26/2020 11:30:00 PM 13.69 56.642 0.241 6.89 0.52 7.81
10/26/2020 11:45:00 PM 13.66 56.588 0.241 6.89 0.49 7.81
10/27/2020 12:00:00 AM 13.63 56.534 0.241 6.89 0.5 7.8
10/27/2020 12:15:00 AM 13.61 56.498 0.241 6.89 0.47 7.84
10/27/2020 12:30:00 AM 13.59 56.462 0.241 6.89 0.52 7.83
10/27/2020 12:45:00 AM 13.57 56.426 0.241 6.89 0.52 7.85
10/27/2020 1:00:00 AM 13.56 56.408 0.241 6.89 0.49 7.87
10/27/2020 1:15:00 AM 13.54 56.372 0.241 6.89 0.5 7.84
10/27/2020 1:30:00 AM 13.53 56.354 0.241 6.9 0.5 7.88
10/27/2020 1:45:00 AM 13.52 56.336 0.241 6.9 0.49 7.91
10/27/2020 2:00:00 AM 13.5 56.3 0.241 6.9 0.49 7.91
10/27/2020 2:15:00 AM 13.47 56.246 0.241 6.9 0.53 7.95
10/27/2020 2:30:00 AM 13.47 56.246 0.241 6.9 0.54 7.93
10/27/2020 2:45:00 AM 13.45 56.21 0.241 6.9 0.61 7.94
10/27/2020 3:00:00 AM 13.43 56.174 0.241 6.9 0.53 7.94
10/27/2020 3:15:00 AM 13.41 56.138 0.241 6.9 0.58 7.95
10/27/2020 3:30:00 AM 13.39 56.102 0.241 6.91 0.59 7.97
10/27/2020 3:45:00 AM 13.38 56.084 0.241 6.9 0.6 7.97
10/27/2020 4:00:00 AM 13.37 56.066 0.24 6.9 0.55 7.98
10/27/2020 4:15:00 AM 13.36 56.048 0.241 6.9 0.54 7.98
10/27/2020 4:30:00 AM 13.35 56.03 0.241 6.9 0.56 7.97
10/27/2020 4:45:00 AM 13.35 56.03 0.241 6.91 0.52 7.96
10/27/2020 5:00:00 AM 13.33 55.994 0.241 6.91 0.52 7.96
10/27/2020 5:15:00 AM 13.32 55.976 0.241 6.91 0.57 7.97
10/27/2020 5:30:00 AM 13.31 55.958 0.241 6.91 0.48 8.01
10/27/2020 5:45:00 AM 13.3 55.94 0.241 6.91 0.53 8.02
10/27/2020 6:00:00 AM 13.29 55.922 0.241 6.91 0.49 7.99
10/27/2020 6:15:00 AM 13.28 55.904 0.241 6.91 0.51 8.03
10/27/2020 6:30:00 AM 13.27 55.886 0.241 6.91 0.55 8.04
10/27/2020 6:45:00 AM 13.25 55.85 0.241 6.91 0.54 8.05
10/27/2020 7:00:00 AM 13.24 55.832 0.241 6.92 0.5 8.09
10/27/2020 7:15:00 AM 13.22 55.796 0.241 6.92 0.53 8.1
10/27/2020 7:30:00 AM 13.21 55.778 0.241 6.92 0.62 8.12
10/27/2020 7:45:00 AM 13.2 55.76 0.241 6.92 0.63 8.12
10/27/2020 8:00:00 AM 13.16 55.688 0.24 6.92 0.55 8.15
10/27/2020 8:15:00 AM 13.15 55.67 0.24 6.93 0.54 8.19
10/27/2020 8:30:00 AM 13.13 55.634 0.24 6.93 0.54 8.22
10/27/2020 8:45:00 AM 13.12 55.616 0.24 6.93 0.52 8.27
10/27/2020 9:00:00 AM 13.11 55.598 0.24 6.94 0.52 8.3
10/27/2020 9:15:00 AM 13.1 55.58 0.24 6.94 0.53 8.38
10/27/2020 9:30:00 AM 13.1 55.58 0.24 6.95 0.52 8.52
10/27/2020 9:45:00 AM 13.1 55.58 0.24 6.97 0.56 8.68
10/27/2020 10:00:00 AM 13.11 55.598 0.24 6.97 0.51 8.81
10/27/2020 10:15:00 AM 13.1 55.58 0.239 6.98 0.51 8.93
10/27/2020 10:30:00 AM 13.12 55.616 0.239 6.99 0.5 9.07
10/27/2020 10:45:00 AM 13.13 55.634 0.239 6.99 0.5 9.15
10/27/2020 11:00:00 AM 13.13 55.634 0.239 7 0.49 9.2
10/27/2020 11:15:00 AM 13.15 55.67 0.239 7.01 0.64 9.32
10/27/2020 11:30:00 AM 13.21 55.778 0.238 7.02 0.5 9.47
10/27/2020 11:45:00 AM 13.27 55.886 0.238 7.03 0.53 9.62
10/27/2020 12:00:00 PM 13.32 55.976 0.238 7.04 0.51 9.7
10/27/2020 12:15:00 PM 13.38 56.084 0.238 7.05 0.51 9.84
10/27/2020 12:30:00 PM 13.44 56.192 0.238 7.05 0.48 9.91
10/27/2020 12:45:00 PM 13.06 55.508 0.238 8.23 9.71 9.86
10/27/2020 1:00:00 PM 13.54 56.372 0.237 7.23 1.46 9.17
10/27/2020 1:15:00 PM 13.63 56.534 0.237 7.18 1.04 9.2
10/27/2020 1:30:00 PM 13.68 56.624 0.236 7.14 0.9 9.2
10/27/2020 1:45:00 PM 13.72 56.696 0.236 7.13 0.88 9.22
10/27/2020 2:00:00 PM 13.74 56.732 0.236 7.12 0.97 9.26
10/27/2020 2:15:00 PM 13.76 56.768 0.236 7.1 0.9 9.26
10/27/2020 2:30:00 PM 13.77 56.786 0.236 7.09 0.97 9.24
10/27/2020 2:45:00 PM 13.77 56.786 0.236 7.09 0.95 9.26
10/27/2020 3:00:00 PM 13.77 56.786 0.236 7.08 0.98 9.27
10/27/2020 3:15:00 PM 13.76 56.768 0.236 7.08 0.92 9.27
10/27/2020 3:30:00 PM 13.74 56.732 0.236 7.07 0.93 9.26
10/27/2020 3:45:00 PM 13.73 56.714 0.236 7.07 0.93 9.23
10/27/2020 4:00:00 PM 13.7 56.66 0.236 7.06 0.93 9.16
10/27/2020 4:15:00 PM 13.68 56.624 0.236 7.05 0.91 9.07
10/27/2020 4:30:00 PM 13.65 56.57 0.236 7.05 1.07 9.01
10/27/2020 4:45:00 PM 13.63 56.534 0.236 7.04 0.93 8.95
10/27/2020 5:00:00 PM 13.61 56.498 0.235 7.04 1.01 8.86
10/27/2020 5:15:00 PM 13.59 56.462 0.235 7.04 0.99 8.81
10/27/2020 5:30:00 PM 13.56 56.408 0.235 7.02 0.96 8.72
10/27/2020 5:45:00 PM 13.55 56.39 0.235 7.03 0.97 8.67
10/27/2020 6:00:00 PM 13.53 56.354 0.235 7.02 1.04 8.61
10/27/2020 6:15:00 PM 13.51 56.318 0.235 7.02 1.01 8.5
10/27/2020 6:30:00 PM 13.49 56.282 0.235 7.01 1 8.39
10/27/2020 6:45:00 PM 13.47 56.246 0.235 7 1.07 8.3
10/27/2020 7:00:00 PM 13.45 56.21 0.235 7 1.1 8.21
10/27/2020 7:15:00 PM 13.43 56.174 0.235 7 1.08 8.1
10/27/2020 7:30:00 PM 13.4 56.12 0.235 6.99 1.03 8.02
10/27/2020 7:45:00 PM 13.37 56.066 0.235 6.99 0.92 7.96
10/27/2020 8:00:00 PM 13.35 56.03 0.235 6.98 1.05 7.92
10/27/2020 8:15:00 PM 13.33 55.994 0.235 6.97 0.97 7.89
10/27/2020 8:30:00 PM 13.31 55.958 0.235 6.97 0.93 7.87
10/27/2020 8:45:00 PM 13.29 55.922 0.235 6.97 0.96 7.85
10/27/2020 9:00:00 PM 13.28 55.904 0.235 6.96 1.11 7.82
10/27/2020 9:15:00 PM 13.25 55.85 0.235 6.97 0.94 7.82
10/27/2020 9:30:00 PM 13.24 55.832 0.235 6.97 0.93 7.81
10/27/2020 9:45:00 PM 13.22 55.796 0.235 6.96 0.93 7.8
10/27/2020 10:00:00 PM 13.21 55.778 0.235 6.96 0.95 7.78
10/27/2020 10:15:00 PM 13.19 55.742 0.235 6.97 1.2 7.77
10/27/2020 10:30:00 PM 13.18 55.724 0.235 6.97 0.97 7.77
10/27/2020 10:45:00 PM 13.17 55.706 0.235 6.96 0.99 7.76
10/27/2020 11:00:00 PM 13.16 55.688 0.235 6.96 0.98 7.75
10/27/2020 11:15:00 PM 13.15 55.67 0.235 6.96 0.95 7.74
10/27/2020 11:30:00 PM 13.14 55.652 0.235 6.96 0.99 7.73
10/27/2020 11:45:00 PM 13.12 55.616 0.235 6.96 0.94 7.73
10/28/2020 12:00:00 AM 13.11 55.598 0.235 6.96 0.93 7.72
10/28/2020 12:15:00 AM 13.11 55.598 0.235 6.96 0.91 7.71
10/28/2020 12:30:00 AM 13.09 55.562 0.235 6.96 0.96 7.71
10/28/2020 12:45:00 AM 13.08 55.544 0.235 6.96 0.97 7.71
10/28/2020 1:00:00 AM 13.08 55.544 0.235 6.96 1 7.71
10/28/2020 1:15:00 AM 13.08 55.544 0.235 6.96 1.05 7.71
10/28/2020 1:30:00 AM 13.06 55.508 0.235 6.96 0.97 7.71
10/28/2020 1:45:00 AM 13.06 55.508 0.235 6.96 0.95 7.71
10/28/2020 2:00:00 AM 13.06 55.508 0.235 6.96 0.93 7.71
10/28/2020 2:15:00 AM 13.05 55.49 0.235 6.96 0.95 7.71
10/28/2020 2:30:00 AM 13.03 55.454 0.235 6.96 0.94 7.7
10/28/2020 2:45:00 AM 13.03 55.454 0.235 6.96 0.98 7.7
10/28/2020 3:00:00 AM 13.02 55.436 0.235 6.95 0.91 7.7
10/28/2020 3:15:00 AM 13.01 55.418 0.235 6.96 0.96 7.7
10/28/2020 3:30:00 AM 13 55.4 0.235 6.95 0.94 7.71
10/28/2020 3:45:00 AM 12.99 55.382 0.235 6.96 0.94 7.71
10/28/2020 4:00:00 AM 12.97 55.346 0.234 6.96 0.9 7.72
10/28/2020 4:15:00 AM 12.96 55.328 0.234 6.96 0.94 7.72
10/28/2020 4:30:00 AM 12.95 55.31 0.234 6.96 1.01 7.72
10/28/2020 4:45:00 AM 12.94 55.292 0.234 6.95 0.94 7.72
10/28/2020 5:00:00 AM 12.93 55.274 0.234 6.96 0.92 7.72
10/28/2020 5:15:00 AM 12.92 55.256 0.234 6.95 0.93 7.72
10/28/2020 5:30:00 AM 12.91 55.238 0.234 6.95 0.97 7.72
10/28/2020 5:45:00 AM 12.9 55.22 0.234 6.96 0.94 7.73
10/28/2020 6:00:00 AM 12.89 55.202 0.233 6.95 1.15 7.75
10/28/2020 6:15:00 AM 12.88 55.184 0.233 6.96 1.07 7.76
10/28/2020 6:30:00 AM 12.87 55.166 0.233 6.96 0.92 7.76
10/28/2020 6:45:00 AM 12.86 55.148 0.233 6.96 0.93 7.78
10/28/2020 7:00:00 AM 12.85 55.13 0.233 6.96 1.04 7.8
10/28/2020 7:15:00 AM 12.84 55.112 0.233 6.96 1.03 7.8
10/28/2020 7:30:00 AM 12.83 55.094 0.233 6.96 0.97 7.8
10/28/2020 7:45:00 AM 12.82 55.076 0.233 6.97 1.05 7.81
10/28/2020 8:00:00 AM 12.81 55.058 0.233 6.97 0.99 7.82
10/28/2020 8:15:00 AM 12.81 55.058 0.233 6.97 0.94 7.83
10/28/2020 8:30:00 AM 12.8 55.04 0.233 6.97 0.98 7.85
10/28/2020 8:45:00 AM 12.79 55.022 0.233 6.97 0.97 7.87
10/28/2020 9:00:00 AM 12.8 55.04 0.233 6.97 0.93 7.9
10/28/2020 9:15:00 AM 12.79 55.022 0.233 6.98 0.93 7.96
10/28/2020 9:30:00 AM 12.8 55.04 0.233 6.98 0.96 8.05
10/28/2020 9:45:00 AM 12.8 55.04 0.232 6.99 0.92 8.13
10/28/2020 10:00:00 AM 12.82 55.076 0.232 7 0.9 8.25
10/28/2020 10:15:00 AM 12.85 55.13 0.232 7 0.98 8.39
10/28/2020 10:30:00 AM 12.88 55.184 0.232 7.02 1.09 8.57
10/28/2020 10:45:00 AM 12.92 55.256 0.232 7.02 0.9 8.69
10/28/2020 11:00:00 AM 12.95 55.31 0.232 7.02 0.93 8.75
10/28/2020 11:15:00 AM 12.98 55.364 0.232 7.03 0.92 8.81
10/28/2020 11:30:00 AM 13.01 55.418 0.232 7.03 0.94 8.87
10/28/2020 11:45:00 AM 13.03 55.454 0.231 7.04 1 8.96
10/28/2020 12:00:00 PM 13.08 55.544 0.231 7.05 0.93 9.02
10/28/2020 12:15:00 PM 13.11 55.598 0.231 7.05 0.94 9.05
10/28/2020 12:30:00 PM 13.13 55.634 0.231 7.05 0.9 9.07
10/28/2020 12:45:00 PM 13.17 55.706 0.231 7.06 0.91 9.13
10/28/2020 1:00:00 PM 13.19 55.742 0.231 7.06 0.89 9.16
10/28/2020 1:15:00 PM 13.24 55.832 0.231 7.07 0.93 9.21
10/28/2020 1:30:00 PM 13.29 55.922 0.231 7.07 0.9 9.23
10/28/2020 1:45:00 PM 13.31 55.958 0.231 7.07 0.93 9.22
10/28/2020 2:00:00 PM 13.31 55.958 0.231 7.07 0.94 9.18
10/28/2020 2:15:00 PM 13.3 55.94 0.231 7.07 0.93 9.13
10/28/2020 2:30:00 PM 13.3 55.94 0.231 7.07 0.93 9.12
10/28/2020 2:45:00 PM 13.3 55.94 0.231 7.07 1 9.11
10/28/2020 3:00:00 PM 13.31 55.958 0.23 7.07 0.92 9.11
10/28/2020 3:15:00 PM 13.33 55.994 0.23 7.07 0.98 9.15
10/28/2020 3:30:00 PM 13.4 56.12 0.23 7.08 0.92 9.26
10/28/2020 3:45:00 PM 13.44 56.192 0.23 7.08 1.02 9.29
10/28/2020 4:00:00 PM 13.47 56.246 0.23 7.09 0.97 9.36
10/28/2020 4:15:00 PM 13.48 56.264 0.229 7.09 0.97 9.34
10/28/2020 4:30:00 PM 13.49 56.282 0.229 7.09 1.02 9.36
10/28/2020 4:45:00 PM 13.48 56.264 0.229 7.1 0.96 9.36
10/28/2020 5:00:00 PM 13.47 56.246 0.229 7.09 1.03 9.35
10/28/2020 5:15:00 PM 13.43 56.174 0.229 7.09 0.99 9.27
10/28/2020 5:30:00 PM 13.37 56.066 0.229 7.09 0.95 9.16
10/28/2020 5:45:00 PM 13.31 55.958 0.229 7.07 0.98 9.06
10/28/2020 6:00:00 PM 13.27 55.886 0.229 7.08 0.98 8.99
10/28/2020 6:15:00 PM 13.22 55.796 0.229 7.07 1.1 8.9
10/28/2020 6:30:00 PM 13.17 55.706 0.228 7.07 1.01 8.82
10/28/2020 6:45:00 PM 13.11 55.598 0.228 7.07 1.03 8.76
10/28/2020 7:00:00 PM 13.07 55.526 0.228 7.07 1.07 8.71
10/28/2020 7:15:00 PM 13 55.4 0.227 7.07 1.02 8.67
10/28/2020 7:30:00 PM 12.94 55.292 0.227 7.06 1 8.62
10/28/2020 7:45:00 PM 12.88 55.184 0.227 7.06 0.99 8.6
10/28/2020 8:00:00 PM 12.82 55.076 0.226 7.06 1.13 8.57
10/28/2020 8:15:00 PM 12.77 54.986 0.226 7.06 1.12 8.56
10/28/2020 8:30:00 PM 12.73 54.914 0.226 7.06 1.23 8.51
10/28/2020 8:45:00 PM 12.68 54.824 0.226 7.06 1.03 8.51
10/28/2020 9:00:00 PM 12.63 54.734 0.226 7.06 1.07 8.51
10/28/2020 9:15:00 PM 12.58 54.644 0.226 7.06 1.03 8.51
10/28/2020 9:30:00 PM 12.52 54.536 0.226 7.06 1.07 8.51
10/28/2020 9:45:00 PM 12.49 54.482 0.225 7.06 1.07 8.51
10/28/2020 10:00:00 PM 12.43 54.374 0.225 7.06 1.01 8.53
10/28/2020 10:15:00 PM 12.39 54.302 0.225 7.06 1.05 8.52
10/28/2020 10:30:00 PM 12.36 54.248 0.225 7.06 1.09 8.52
10/28/2020 10:45:00 PM 12.31 54.158 0.225 7.06 1.06 8.53
10/28/2020 11:00:00 PM 12.26 54.068 0.225 7.07 1.03 8.55
10/28/2020 11:15:00 PM 12.22 53.996 0.225 7.06 1.05 8.57
10/28/2020 11:30:00 PM 12.19 53.942 0.225 7.07 1.05 8.59
10/28/2020 11:45:00 PM 12.16 53.888 0.224 7.06 1.11 8.58
10/29/2020 12:00:00 AM 12.14 53.852 0.224 7.06 1.03 8.59
10/29/2020 12:15:00 AM 12.12 53.816 0.224 7.07 0.99 8.6
10/29/2020 12:30:00 AM 12.11 53.798 0.224 7.07 1.12 8.61
10/29/2020 12:45:00 AM 12.09 53.762 0.224 7.07 1.03 8.61
10/29/2020 1:00:00 AM 12.06 53.708 0.224 7.08 1.09 8.62
10/29/2020 1:15:00 AM 12.03 53.654 0.224 7.08 0.98 8.62
10/29/2020 1:30:00 AM 12.01 53.618 0.224 7.07 1.08 8.64
10/29/2020 1:45:00 AM 12 53.6 0.224 7.08 0.99 8.66
10/29/2020 2:00:00 AM 11.99 53.582 0.223 7.08 1.01 8.67
10/29/2020 2:15:00 AM 11.97 53.546 0.223 7.08 1.02 8.68
10/29/2020 2:30:00 AM 11.96 53.528 0.223 7.08 0.99 8.69
10/29/2020 2:45:00 AM 11.95 53.51 0.223 7.08 1.06 8.69
10/29/2020 3:00:00 AM 11.93 53.474 0.223 7.09 0.99 8.71
10/29/2020 3:15:00 AM 11.92 53.456 0.223 7.09 0.99 8.71
10/29/2020 3:30:00 AM 11.91 53.438 0.223 7.09 1.02 8.71
10/29/2020 3:45:00 AM 11.9 53.42 0.223 7.09 1.05 8.72
10/29/2020 4:00:00 AM 11.88 53.384 0.223 7.09 1.04 8.72
10/29/2020 4:15:00 AM 11.87 53.366 0.223 7.09 1.05 8.73
10/29/2020 4:30:00 AM 11.86 53.348 0.222 7.09 1.02 8.73
10/29/2020 4:45:00 AM 11.85 53.33 0.222 7.09 1.03 8.74
10/29/2020 5:00:00 AM 11.85 53.33 0.222 7.09 1.07 8.74
10/29/2020 5:15:00 AM 11.84 53.312 0.222 7.09 1.07 8.75
10/29/2020 5:30:00 AM 11.84 53.312 0.222 7.09 1.1 8.75
10/29/2020 5:45:00 AM 11.84 53.312 0.222 7.1 1.06 8.75
10/29/2020 6:00:00 AM 11.84 53.312 0.222 7.09 1.44 8.75
10/29/2020 6:15:00 AM 11.84 53.312 0.222 7.09 1.04 8.76
10/29/2020 6:30:00 AM 11.84 53.312 0.222 7.09 1.05 8.76
10/29/2020 6:45:00 AM 11.84 53.312 0.222 7.1 1.05 8.75
10/29/2020 7:00:00 AM 11.83 53.294 0.222 7.09 1 8.76
10/29/2020 7:15:00 AM 11.83 53.294 0.221 7.1 1 8.76
10/29/2020 7:30:00 AM 11.83 53.294 0.221 7.1 1 8.76
10/29/2020 7:45:00 AM 11.82 53.276 0.221 7.1 1.28 8.75
10/29/2020 8:00:00 AM 11.82 53.276 0.221 7.09 1.09 8.76
10/29/2020 8:15:00 AM 11.82 53.276 0.221 7.1 1.04 8.77
10/29/2020 8:30:00 AM 11.82 53.276 0.221 7.1 1 8.8
10/29/2020 8:45:00 AM 11.82 53.276 0.22 7.1 1.03 8.83
10/29/2020 9:00:00 AM 11.82 53.276 0.22 7.1 1.09 8.86
10/29/2020 9:15:00 AM 11.83 53.294 0.22 7.1 1 8.9
10/29/2020 9:30:00 AM 11.83 53.294 0.22 7.11 0.99 8.92
10/29/2020 9:45:00 AM 11.83 53.294 0.22 7.11 1.03 8.95
10/29/2020 10:00:00 AM 11.83 53.294 0.219 7.12 1.04 9
10/29/2020 10:15:00 AM 11.82 53.276 0.219 7.12 1.09 9.03
10/29/2020 10:30:00 AM 11.81 53.258 0.218 7.12 1.03 9.08
10/29/2020 10:45:00 AM 11.8 53.24 0.217 7.13 1.05 9.13
10/29/2020 11:00:00 AM 11.78 53.204 0.216 7.13 1.19 9.18
10/29/2020 11:15:00 AM 11.77 53.186 0.215 7.14 1.23 9.23
10/29/2020 11:30:00 AM 11.77 53.186 0.215 7.15 1.18 9.26
10/29/2020 11:45:00 AM 11.77 53.186 0.214 7.15 1.17 9.29
10/29/2020 12:00:00 PM 11.77 53.186 0.214 7.15 1.18 9.36
10/29/2020 12:15:00 PM 11.77 53.186 0.213 7.16 1.18 9.42
10/29/2020 12:30:00 PM 11.77 53.186 0.212 7.17 1.21 9.48
10/29/2020 12:45:00 PM 11.77 53.186 0.212 7.18 1.28 9.54
10/29/2020 1:00:00 PM 11.77 53.186 0.211 7.19 1.39 9.59
10/29/2020 1:15:00 PM 11.78 53.204 0.21 7.19 1.32 9.62
10/29/2020 1:30:00 PM 11.77 53.186 0.209 7.19 1.42 9.64
10/29/2020 1:45:00 PM 11.76 53.168 0.209 7.2 1.35 9.65
10/29/2020 2:00:00 PM 11.75 53.15 0.208 7.21 1.38 9.66
10/29/2020 2:15:00 PM 11.75 53.15 0.207 7.21 1.35 9.66
10/29/2020 2:30:00 PM 11.74 53.132 0.207 7.21 1.51 9.66
10/29/2020 2:45:00 PM 11.71 53.078 0.205 7.22 1.58 9.7
10/29/2020 3:00:00 PM 11.69 53.042 0.205 7.24 1.81 9.79
10/29/2020 3:15:00 PM 11.61 52.898 0.202 7.27 2.42 9.88
10/29/2020 3:30:00 PM 11.46 52.628 0.199 7.32 5.01 10.01
10/29/2020 3:45:00 PM 11.29 52.322 0.196 7.37 5.03 10.07
10/29/2020 4:00:00 PM 11.11 51.998 0.192 7.38 6.64 10.11
10/29/2020 4:15:00 PM 10.9 51.62 0.189 7.38 11.98 10.14
10/29/2020 4:30:00 PM 10.74 51.332 0.189 7.38 18.48 10.17
10/29/2020 4:45:00 PM 10.59 51.062 0.189 7.38 29.64 10.19
10/29/2020 5:00:00 PM 10.45 50.81 0.187 7.39 42.71 10.22
10/29/2020 5:15:00 PM 10.32 50.576 0.184 7.39 70.2 10.27
10/29/2020 5:30:00 PM 10.21 50.378 0.182 7.39 61.1 10.32
10/29/2020 5:45:00 PM 10.12 50.216 0.181 7.4 43.34 10.36
10/29/2020 6:00:00 PM 10.02 50.036 0.179 7.38 52.33 10.4
10/29/2020 6:15:00 PM 9.94 49.892 0.177 7.38 80.47 10.42
10/29/2020 6:30:00 PM 9.87 49.766 0.176 7.36 77.46 10.42
10/29/2020 6:45:00 PM 9.79 49.622 0.174 7.36 87.59 10.48
10/29/2020 7:00:00 PM 9.71 49.478 0.171 7.34 84.09 10.53
10/29/2020 7:15:00 PM 9.68 49.424 0.167 7.35 105.65 10.55
10/29/2020 7:30:00 PM 9.66 49.388 0.164 7.35 109.06 10.56
10/29/2020 7:45:00 PM 9.63 49.334 0.162 7.34 104.45 10.58
10/29/2020 8:00:00 PM 9.6 49.28 0.16 7.34 197.69 10.59
10/29/2020 8:15:00 PM 9.58 49.244 0.157 7.34 178.07 10.6
10/29/2020 8:30:00 PM 9.57 49.226 0.155 7.32 136.7 10.61
10/29/2020 8:45:00 PM 9.56 49.208 0.153 7.32 150.2 10.62
10/29/2020 9:00:00 PM 9.55 49.19 0.15 7.3 86 10.62
10/29/2020 9:15:00 PM 9.55 49.19 0.148 7.3 115.63 10.62
10/29/2020 9:30:00 PM 9.55 49.19 0.146 7.29 151.09 10.62
10/29/2020 9:45:00 PM 9.55 49.19 0.144 7.29 89.93 10.62
10/29/2020 10:00:00 PM 9.56 49.208 0.143 7.26 151.19 10.61
10/29/2020 10:15:00 PM 9.56 49.208 0.141 7.26 75.38 10.62
10/29/2020 10:30:00 PM 9.56 49.208 0.14 7.26 222.26 10.62
10/29/2020 10:45:00 PM 9.54 49.172 0.139 7.25 120.21 10.61
10/29/2020 11:00:00 PM 9.53 49.154 0.138 7.25 117.29 10.61
10/29/2020 11:15:00 PM 9.52 49.136 0.137 7.25 77.03 10.61
10/29/2020 11:30:00 PM 9.51 49.118 0.136 7.23 73.16 10.61
10/29/2020 11:45:00 PM 9.5 49.1 0.136 7.22 70.1 10.61
10/30/2020 12:00:00 AM 9.48 49.064 0.135 7.23 115.84 10.61
10/30/2020 12:15:00 AM 9.47 49.046 0.135 7.23 59.23 10.61
10/30/2020 12:30:00 AM 9.46 49.028 0.135 7.21 73.88 10.61
10/30/2020 12:45:00 AM 9.45 49.01 0.135 7.22 67.52 10.6
10/30/2020 1:00:00 AM 9.44 48.992 0.135 7.23 41.79 10.6
10/30/2020 1:15:00 AM 9.43 48.974 0.135 7.22 46.9 10.6
10/30/2020 1:30:00 AM 9.41 48.938 0.135 7.22 50.31 10.6
10/30/2020 1:45:00 AM 9.39 48.902 0.135 7.21 44.75 10.61
10/30/2020 2:00:00 AM 9.36 48.848 0.135 7.2 34.77 10.62
10/30/2020 2:15:00 AM 9.34 48.812 0.135 7.23 37.8 10.62
10/30/2020 2:30:00 AM 9.3 48.74 0.136 7.21 40.22 10.63
10/30/2020 2:45:00 AM 9.28 48.704 0.136 7.2 40.43 10.63
10/30/2020 3:00:00 AM 9.27 48.686 0.136 7.22 43.75 10.64
10/30/2020 3:15:00 AM 9.25 48.65 0.136 7.21 37.35 10.64
10/30/2020 3:30:00 AM 9.22 48.596 0.136 7.22 51.15 10.65
10/30/2020 3:45:00 AM 9.19 48.542 0.136 7.22 32.12 10.66
10/30/2020 4:00:00 AM 9.16 48.488 0.136 7.22 33.21 10.67
10/30/2020 4:15:00 AM 9.12 48.416 0.136 7.23 45.97 10.68
10/30/2020 4:30:00 AM 9.1 48.38 0.136 7.21 29.9 10.68
10/30/2020 4:45:00 AM 9.08 48.344 0.136 7.23 29.68 10.69
10/30/2020 5:00:00 AM 9.07 48.326 0.136 7.22 24.15 10.69
10/30/2020 5:15:00 AM 9.04 48.272 0.136 7.23 28.95 10.7
10/30/2020 5:30:00 AM 8.99 48.182 0.136 7.22 24.3 10.72
10/30/2020 5:45:00 AM 8.94 48.092 0.136 7.22 23.41 10.73
10/30/2020 6:00:00 AM 8.9 48.02 0.136 7.22 26.48 10.74
10/30/2020 6:15:00 AM 8.83 47.894 0.136 7.22 25.2 10.75
10/30/2020 6:30:00 AM 8.79 47.822 0.136 7.21 25.64 10.77
10/30/2020 6:45:00 AM 8.76 47.768 0.136 7.21 37.3 10.78
10/30/2020 7:00:00 AM 8.73 47.714 0.136 7.21 26.95 10.79
10/30/2020 7:15:00 AM 8.71 47.678 0.136 7.22 64.44 10.81
10/30/2020 7:30:00 AM 8.68 47.624 0.136 7.23 35.44 10.82
10/30/2020 7:45:00 AM 8.64 47.552 0.136 7.22 26.29 10.83
10/30/2020 8:00:00 AM 8.61 47.498 0.137 7.22 24 10.85
10/30/2020 8:15:00 AM 8.58 47.444 0.137 7.22 29.64 10.86
10/30/2020 8:30:00 AM 8.55 47.39 0.137 7.21 24.93 10.88
10/30/2020 8:45:00 AM 8.54 47.372 0.138 7.22 30.63 10.89
10/30/2020 9:00:00 AM 8.53 47.354 0.138 7.21 25 10.91
10/30/2020 9:15:00 AM 8.52 47.336 0.138 7.23 27.21 10.92
10/30/2020 9:30:00 AM 8.52 47.336 0.138 7.23 29.67 10.93
10/30/2020 9:45:00 AM 8.53 47.354 0.138 7.23 34.61 10.95
10/30/2020 10:00:00 AM 8.53 47.354 0.138 7.23 27.59 10.95
10/30/2020 10:15:00 AM 8.54 47.372 0.138 7.23 28.91 10.96
10/30/2020 10:30:00 AM 8.56 47.408 0.138 7.24 27.11 10.97
10/30/2020 10:45:00 AM 8.59 47.462 0.138 7.23 24.58 10.98
10/30/2020 11:00:00 AM 8.63 47.534 0.138 7.24 21.89 10.99
10/30/2020 11:15:00 AM 8.65 47.57 0.138 7.23 22.81 10.98
10/30/2020 11:30:00 AM 8.66 47.588 0.138 7.23 24.76 10.97
10/30/2020 11:45:00 AM 8.69 47.642 0.138 7.24 23.48 10.97
10/30/2020 12:00:00 PM 8.72 47.696 0.138 7.25 23.32 10.97
10/30/2020 12:15:00 PM 8.75 47.75 0.138 7.25 20.7 10.98
10/30/2020 12:30:00 PM 8.78 47.804 0.138 7.25 22.38 10.98
10/30/2020 12:45:00 PM 8.81 47.858 0.138 7.25 20.41 10.98
10/30/2020 1:00:00 PM 8.84 47.912 0.138 7.24 21.16 10.99
10/30/2020 1:15:00 PM 8.87 47.966 0.138 7.25 21.49 10.99
10/30/2020 1:30:00 PM 8.97 48.146 0.138 7.27 21.31 11.01
10/30/2020 1:45:00 PM 9.12 48.416 0.138 7.29 19.36 10.99
10/30/2020 2:00:00 PM 9.18 48.524 0.138 7.29 20.39 10.98
10/30/2020 2:15:00 PM 9.15 48.47 0.138 7.28 20.96 10.97
10/30/2020 2:30:00 PM 9.15 48.47 0.138 7.26 18.36 10.96
10/30/2020 2:45:00 PM 9.23 48.614 0.138 7.27 19.52 10.95
10/30/2020 3:00:00 PM 9.28 48.704 0.138 7.28 17.61 10.94
10/30/2020 3:15:00 PM 9.37 48.866 0.139 7.29 17.32 10.92
10/30/2020 3:30:00 PM 9.42 48.956 0.139 7.29 17.32 10.89
10/30/2020 3:45:00 PM 9.38 48.884 0.139 7.28 16.73 10.87
10/30/2020 4:00:00 PM 9.33 48.794 0.139 7.27 15.99 10.87
10/30/2020 4:15:00 PM 9.31 48.758 0.139 7.28 17.59 10.89
10/30/2020 4:30:00 PM 9.3 48.74 0.139 7.26 16.85 10.89
10/30/2020 4:45:00 PM 9.28 48.704 0.139 7.26 16.92 10.89
10/30/2020 5:00:00 PM 9.23 48.614 0.139 7.26 16.32 10.89
10/30/2020 5:15:00 PM 9.16 48.488 0.139 7.25 14.71 10.88
10/30/2020 5:30:00 PM 9.06 48.308 0.139 7.24 15.9 10.87
10/30/2020 5:45:00 PM 8.96 48.128 0.139 7.22 16.03 10.88
10/30/2020 6:00:00 PM 8.87 47.966 0.139 7.22 14.8 10.88
10/30/2020 6:15:00 PM 8.81 47.858 0.14 7.21 14.23 10.87
10/30/2020 6:30:00 PM 8.75 47.75 0.14 7.21 14.52 10.87
10/30/2020 6:45:00 PM 8.71 47.678 0.14 7.21 15.13 10.87
10/30/2020 7:00:00 PM 8.68 47.624 0.14 7.21 14.24 10.87
10/30/2020 7:15:00 PM 8.65 47.57 0.14 7.21 13.36 10.88
10/30/2020 7:30:00 PM 8.63 47.534 0.14 7.21 14.3 10.88
10/30/2020 7:45:00 PM 8.6 47.48 0.14 7.21 15 10.89
10/30/2020 8:00:00 PM 8.58 47.444 0.14 7.21 14.02 10.89
10/30/2020 8:15:00 PM 8.54 47.372 0.141 7.21 13.75 10.9
10/30/2020 8:30:00 PM 8.51 47.318 0.141 7.2 14.18 10.91
10/30/2020 8:45:00 PM 8.47 47.246 0.141 7.21 13.59 10.92
10/30/2020 9:00:00 PM 8.42 47.156 0.141 7.21 13.31 10.93
10/30/2020 9:15:00 PM 8.37 47.066 0.141 7.21 14.18 10.94
10/30/2020 9:30:00 PM 8.33 46.994 0.141 7.21 12.04 10.95
10/30/2020 9:45:00 PM 8.3 46.94 0.142 7.2 12.64 10.96
10/30/2020 10:00:00 PM 8.27 46.886 0.142 7.21 12.48 10.97
10/30/2020 10:15:00 PM 8.25 46.85 0.142 7.2 12.93 10.99
10/30/2020 10:30:00 PM 8.23 46.814 0.142 7.21 11.59 10.98
10/30/2020 10:45:00 PM 8.22 46.796 0.142 7.2 11.53 10.99
10/30/2020 11:00:00 PM 8.2 46.76 0.143 7.21 12.56 11
10/30/2020 11:15:00 PM 8.2 46.76 0.143 7.21 12.07 11
10/30/2020 11:30:00 PM 8.19 46.742 0.143 7.22 11.12 11.01
10/30/2020 11:45:00 PM 8.19 46.742 0.143 7.22 11.53 11.01
10/31/2020 12:00:00 AM 8.18 46.724 0.143 7.21 11.15 11.01
10/31/2020 12:15:00 AM 8.17 46.706 0.144 7.22 10.55 11.01
10/31/2020 12:30:00 AM 8.16 46.688 0.144 7.21 10.59 11.01
10/31/2020 12:45:00 AM 8.15 46.67 0.144 7.22 9.96 11.01
10/31/2020 1:00:00 AM 8.13 46.634 0.145 7.22 10.72 11.01
10/31/2020 1:15:00 AM 8.11 46.598 0.145 7.22 10.48 11.01
10/31/2020 1:30:00 AM 8.08 46.544 0.145 7.22 10.14 11.02
10/31/2020 1:45:00 AM 8.03 46.454 0.145 7.21 10.38 11.02
10/31/2020 2:00:00 AM 7.99 46.382 0.145 7.21 9.96 11.04
10/31/2020 2:15:00 AM 7.95 46.31 0.146 7.22 10.04 11.04
10/31/2020 2:30:00 AM 7.9 46.22 0.146 7.21 9.47 11.05
10/31/2020 2:45:00 AM 7.86 46.148 0.146 7.21 9.77 11.06
10/31/2020 3:00:00 AM 7.81 46.058 0.146 7.2 8.87 11.07
10/31/2020 3:15:00 AM 7.77 45.986 0.147 7.21 9.05 11.09
10/31/2020 3:30:00 AM 7.72 45.896 0.147 7.21 9.02 11.1
10/31/2020 3:45:00 AM 7.69 45.842 0.147 7.22 9.14 11.1
10/31/2020 4:00:00 AM 7.66 45.788 0.148 7.21 8.88 11.12
10/31/2020 4:15:00 AM 7.65 45.77 0.148 7.21 9.39 11.12
10/31/2020 4:30:00 AM 7.64 45.752 0.148 7.22 8.92 11.13
10/31/2020 4:45:00 AM 7.63 45.734 0.148 7.22 8.15 11.13
10/31/2020 5:00:00 AM 7.63 45.734 0.148 7.21 8.45 11.14
10/31/2020 5:15:00 AM 7.61 45.698 0.149 7.22 7.93 11.14
10/31/2020 5:30:00 AM 7.6 45.68 0.149 7.22 8.97 11.15
10/31/2020 5:45:00 AM 7.59 45.662 0.149 7.22 7.81 11.15
10/31/2020 6:00:00 AM 7.57 45.626 0.149 7.22 8.13 11.15
10/31/2020 6:15:00 AM 7.57 45.626 0.15 7.22 7.33 11.15
10/31/2020 6:30:00 AM 7.56 45.608 0.15 7.22 7.6 11.16
10/31/2020 6:45:00 AM 7.56 45.608 0.15 7.22 7.86 11.16
10/31/2020 7:00:00 AM 7.56 45.608 0.151 7.21 8.13 11.16
10/31/2020 7:15:00 AM 7.55 45.59 0.151 7.22 7.56 11.16
10/31/2020 7:30:00 AM 7.53 45.554 0.151 7.21 7.19 11.16
10/31/2020 7:45:00 AM 7.51 45.518 0.151 7.22 7.24 11.17
10/31/2020 8:00:00 AM 7.5 45.5 0.151 7.22 7.01 11.18
10/31/2020 8:15:00 AM 7.51 45.518 0.152 7.22 7.46 11.21
10/31/2020 8:30:00 AM 7.52 45.536 0.152 7.23 7.19 11.23
10/31/2020 8:45:00 AM 7.55 45.59 0.152 7.24 6.72 11.27
10/31/2020 9:00:00 AM 7.59 45.662 0.152 7.24 6.47 11.31
10/31/2020 9:15:00 AM 7.63 45.734 0.153 7.25 6.54 11.34
10/31/2020 9:30:00 AM 7.69 45.842 0.153 7.27 7.18 11.37
10/31/2020 9:45:00 AM 7.78 46.004 0.153 7.27 7.13 11.39
10/31/2020 10:00:00 AM 7.86 46.148 0.153 7.28 6.27 11.4
10/31/2020 10:15:00 AM 7.94 46.292 0.153 7.28 6.14 11.4
10/31/2020 10:30:00 AM 8.04 46.472 0.154 7.29 5.9 11.4
10/31/2020 10:45:00 AM 8.21 46.778 0.154 7.3 5.98 11.39
10/31/2020 11:00:00 AM 8.41 47.138 0.154 7.31 5.9 11.38
10/31/2020 11:15:00 AM 8.61 47.498 0.154 7.32 5.66 11.37
10/31/2020 11:30:00 AM 8.7 47.66 0.155 7.31 5.69 11.31
10/31/2020 11:45:00 AM 8.72 47.696 0.155 7.31 5.5 11.29
10/31/2020 12:00:00 PM 8.67 47.606 0.155 7.3 5.57 11.27
10/31/2020 12:15:00 PM 8.65 47.57 0.155 7.3 5.47 11.27
10/31/2020 12:30:00 PM 8.68 47.624 0.156 7.3 5.34 11.25
10/31/2020 12:45:00 PM 8.73 47.714 0.156 7.3 5.37 11.23
10/31/2020 1:00:00 PM 8.79 47.822 0.156 7.29 5.32 11.21
10/31/2020 1:15:00 PM 8.83 47.894 0.156 7.31 5.35 11.2
10/31/2020 1:30:00 PM 8.88 47.984 0.156 7.3 5.1 11.19
10/31/2020 1:45:00 PM 8.91 48.038 0.157 7.3 5.36 11.17
10/31/2020 2:00:00 PM 8.93 48.074 0.157 7.3 4.88 11.16
10/31/2020 2:15:00 PM 8.96 48.128 0.157 7.3 5.15 11.16
10/31/2020 2:30:00 PM 8.99 48.182 0.157 7.29 4.92 11.15
10/31/2020 2:45:00 PM 9.01 48.218 0.157 7.3 5.14 11.15
10/31/2020 3:00:00 PM 9.04 48.272 0.158 7.3 5.28 11.15
10/31/2020 3:15:00 PM 9.1 48.38 0.158 7.3 4.68 11.15
10/31/2020 3:30:00 PM 9.13 48.434 0.158 7.3 4.61 11.13
10/31/2020 3:45:00 PM 9.16 48.488 0.158 7.3 4.94 11.1
10/31/2020 4:00:00 PM 9.2 48.56 0.158 7.31 4.56 11.07
10/31/2020 4:15:00 PM 9.24 48.632 0.159 7.3 4.49 11.05
10/31/2020 4:30:00 PM 9.24 48.632 0.159 7.3 4.51 11.02
10/31/2020 4:45:00 PM 9.21 48.578 0.159 7.29 4.67 10.98
10/31/2020 5:00:00 PM 9.16 48.488 0.159 7.28 4.6 10.95
10/31/2020 5:15:00 PM 9.09 48.362 0.16 7.27 15.65 10.92
10/31/2020 5:30:00 PM 9.01 48.218 0.16 7.27 4.74 10.9
10/31/2020 5:45:00 PM 8.93 48.074 0.16 7.26 4.38 10.87
10/31/2020 6:00:00 PM 8.85 47.93 0.16 7.24 4.42 10.84
10/31/2020 6:15:00 PM 8.77 47.786 0.161 7.23 4.39 10.82
10/31/2020 6:30:00 PM 8.71 47.678 0.161 7.23 4.24 10.79
10/31/2020 6:45:00 PM 8.64 47.552 0.161 7.22 4.33 10.78
10/31/2020 7:00:00 PM 8.57 47.426 0.161 7.21 4.37 10.78
10/31/2020 7:15:00 PM 8.51 47.318 0.161 7.21 4.4 10.77
10/31/2020 7:30:00 PM 8.45 47.21 0.162 7.21 4.33 10.78
10/31/2020 7:45:00 PM 8.39 47.102 0.162 7.21 4.31 10.78
10/31/2020 8:00:00 PM 8.33 46.994 0.162 7.21 4.15 10.79
10/31/2020 8:15:00 PM 8.27 46.886 0.162 7.21 4.29 10.8
10/31/2020 8:30:00 PM 8.21 46.778 0.162 7.21 4.06 10.82
10/31/2020 8:45:00 PM 8.16 46.688 0.163 7.2 4.15 10.83
10/31/2020 9:00:00 PM 8.1 46.58 0.163 7.2 4.49 10.83
10/31/2020 9:15:00 PM 8.05 46.49 0.163 7.2 4.18 10.85
10/31/2020 9:30:00 PM 8 46.4 0.163 7.2 4.25 10.86
10/31/2020 9:45:00 PM 7.96 46.328 0.163 7.2 4.26 10.87
10/31/2020 10:00:00 PM 7.91 46.238 0.163 7.2 4.14 10.88
10/31/2020 10:15:00 PM 7.87 46.166 0.164 7.2 4.08 10.89
10/31/2020 10:30:00 PM 7.83 46.094 0.164 7.2 4.09 10.9
10/31/2020 10:45:00 PM 7.79 46.022 0.164 7.2 4.31 10.91
10/31/2020 11:00:00 PM 7.75 45.95 0.164 7.2 3.99 10.92
10/31/2020 11:15:00 PM 7.72 45.896 0.164 7.2 4.19 10.92
10/31/2020 11:30:00 PM 7.68 45.824 0.164 7.2 4.02 10.92
10/31/2020 11:45:00 PM 7.65 45.77 0.165 7.21 3.97 10.93
11/1/2020 12:00:00 AM 7.61 45.698 0.165 7.2 3.91 10.94
11/1/2020 12:15:00 AM 7.58 45.644 0.165 7.2 4.37 10.94
11/1/2020 12:30:00 AM 7.56 45.608 0.165 7.2 3.92 10.95
11/1/2020 12:45:00 AM 7.53 45.554 0.165 7.2 4.08 10.96
11/1/2020 1:00:00 AM 7.51 45.518 0.165 7.2 3.72 10.96
11/1/2020 1:15:00 AM 7.48 45.464 0.165 7.21 3.74 10.97
11/1/2020 1:30:00 AM 7.46 45.428 0.166 7.21 3.73 10.96
11/1/2020 1:45:00 AM 7.44 45.392 0.166 7.21 3.81 10.97
11/1/2020 2:00:00 AM 7.42 45.356 0.166 7.21 3.87 10.96
11/1/2020 2:15:00 AM 7.4 45.32 0.166 7.2 3.6 10.98
11/1/2020 2:30:00 AM 7.39 45.302 0.166 7.21 3.86 10.98
11/1/2020 2:45:00 AM 7.4 45.32 0.166 7.21 3.61 10.98
11/1/2020 3:00:00 AM 7.43 45.374 0.167 7.21 3.83 10.97
11/1/2020 3:15:00 AM 7.44 45.392 0.167 7.21 3.82 10.96
11/1/2020 3:30:00 AM 7.47 45.446 0.167 7.21 3.5 10.96
11/1/2020 3:45:00 AM 7.49 45.482 0.167 7.21 3.81 10.95
11/1/2020 4:00:00 AM 7.51 45.518 0.167 7.22 3.47 10.94
11/1/2020 4:15:00 AM 7.62 45.716 0.168 7.22 3.61 10.89
11/1/2020 4:30:00 AM 7.64 45.752 0.168 7.22 3.4 10.88
11/1/2020 4:45:00 AM 7.65 45.77 0.168 7.22 3.34 10.88
11/1/2020 5:00:00 AM 7.65 45.77 0.168 7.21 3.32 10.87
11/1/2020 5:15:00 AM 7.65 45.77 0.168 7.22 3.27 10.86
11/1/2020 5:30:00 AM 7.64 45.752 0.168 7.21 3.33 10.86
11/1/2020 5:45:00 AM 7.65 45.77 0.169 7.21 3.26 10.85
11/1/2020 6:00:00 AM 7.66 45.788 0.169 7.21 3.56 10.84
11/1/2020 6:15:00 AM 7.67 45.806 0.169 7.21 3.3 10.84
11/1/2020 6:30:00 AM 7.69 45.842 0.169 7.21 3.35 10.83
11/1/2020 6:45:00 AM 7.72 45.896 0.169 7.21 3.29 10.82
11/1/2020 7:00:00 AM 7.74 45.932 0.169 7.21 3.52 10.81
11/1/2020 7:15:00 AM 7.76 45.968 0.169 7.22 3.29 10.8
11/1/2020 7:30:00 AM 7.79 46.022 0.169 7.21 3.22 10.81
11/1/2020 7:45:00 AM 7.83 46.094 0.169 7.22 3.53 10.81
11/1/2020 8:00:00 AM 7.87 46.166 0.17 7.23 3.3 10.82
11/1/2020 8:15:00 AM 7.92 46.256 0.17 7.23 3.29 10.83
11/1/2020 8:30:00 AM 7.96 46.328 0.17 7.23 3.13 10.84
11/1/2020 8:45:00 AM 8.01 46.418 0.17 7.24 3.19 10.89
11/1/2020 9:00:00 AM 8.09 46.562 0.17 7.24 3.16 10.94
11/1/2020 9:15:00 AM 8.18 46.724 0.17 7.25 3.2 10.98
11/1/2020 9:30:00 AM 8.28 46.904 0.17 7.27 2.98 11.02
11/1/2020 9:45:00 AM 8.43 47.174 0.17 7.28 2.99 11.05
11/1/2020 10:00:00 AM 8.57 47.426 0.17 7.29 2.97 11.05
11/1/2020 10:15:00 AM 8.69 47.642 0.17 7.3 3.13 11.05
11/1/2020 10:30:00 AM 8.78 47.804 0.17 7.29 3.01 11.05
11/1/2020 10:45:00 AM 8.89 48.002 0.17 7.31 2.93 11.04
11/1/2020 11:00:00 AM 8.97 48.146 0.171 7.31 2.99 11.01
11/1/2020 11:15:00 AM 9.04 48.272 0.171 7.31 2.96 10.95
11/1/2020 11:30:00 AM 9.06 48.308 0.171 7.3 2.81 10.91
11/1/2020 11:45:00 AM 9.08 48.344 0.171 7.3 2.83 10.87
11/1/2020 12:00:00 PM 9.09 48.362 0.171 7.3 2.88 10.86
11/1/2020 12:15:00 PM 9.11 48.398 0.171 7.3 2.83 10.82
11/1/2020 12:30:00 PM 9.1 48.38 0.171 7.28 2.91 10.79
11/1/2020 12:45:00 PM 9.09 48.362 0.171 7.28 2.98 10.76
11/1/2020 1:00:00 PM 9.08 48.344 0.171 7.27 3.05 10.72
11/1/2020 1:15:00 PM 9.09 48.362 0.171 7.27 2.86 10.72
11/1/2020 1:30:00 PM 9.12 48.416 0.171 7.27 2.98 10.75
11/1/2020 1:45:00 PM 9.16 48.488 0.171 7.27 2.83 10.75
11/1/2020 2:00:00 PM 9.21 48.578 0.171 7.28 2.82 10.75
11/1/2020 2:15:00 PM 9.25 48.65 0.171 7.28 2.83 10.71
11/1/2020 2:30:00 PM 9.28 48.704 0.171 7.28 2.73 10.72
11/1/2020 2:45:00 PM 9.3 48.74 0.171 7.28 2.77 10.69
11/1/2020 3:00:00 PM 9.31 48.758 0.171 7.27 2.83 10.63
11/1/2020 3:15:00 PM 9.31 48.758 0.171 7.26 2.76 10.6
11/1/2020 3:30:00 PM 9.3 48.74 0.171 7.26 2.78 10.54
11/1/2020 3:45:00 PM 9.29 48.722 0.171 7.26 2.83 10.54
11/1/2020 4:00:00 PM 9.29 48.722 0.171 7.26 2.87 10.54
11/1/2020 4:15:00 PM 9.26 48.668 0.17 7.26 2.76 10.49
11/1/2020 4:30:00 PM 9.21 48.578 0.17 7.24 2.86 10.47
11/1/2020 4:45:00 PM 9.19 48.542 0.17 7.24 2.84 10.46
11/1/2020 5:00:00 PM 9.16 48.488 0.17 7.23 2.85 10.45
11/1/2020 5:15:00 PM 9.12 48.416 0.17 7.23 2.82 10.41
11/1/2020 5:30:00 PM 9.08 48.344 0.17 7.23 2.74 10.4
11/1/2020 5:45:00 PM 9.03 48.254 0.171 7.22 2.73 10.39
11/1/2020 6:00:00 PM 8.98 48.164 0.171 7.21 2.82 10.38
11/1/2020 6:15:00 PM 8.95 48.11 0.171 7.21 2.83 10.37
11/1/2020 6:30:00 PM 8.92 48.056 0.171 7.21 2.93 10.36
11/1/2020 6:45:00 PM 8.88 47.984 0.171 7.2 2.86 10.37
11/1/2020 7:00:00 PM 8.85 47.93 0.171 7.21 2.81 10.38
11/1/2020 7:15:00 PM 8.81 47.858 0.171 7.21 2.95 10.38
11/1/2020 7:30:00 PM 8.77 47.786 0.171 7.2 2.75 10.39
11/1/2020 7:45:00 PM 8.74 47.732 0.171 7.2 2.93 10.39
11/1/2020 8:00:00 PM 8.71 47.678 0.171 7.21 2.98 10.39
11/1/2020 8:15:00 PM 8.61 47.498 0.171 7.2 2.89 10.41
11/1/2020 8:30:00 PM 8.53 47.354 0.171 7.2 2.9 10.43
11/1/2020 8:45:00 PM 8.44 47.192 0.171 7.2 2.92 10.45
11/1/2020 9:00:00 PM 8.37 47.066 0.171 7.21 2.92 10.48
11/1/2020 9:15:00 PM 8.32 46.976 0.171 7.2 3.93 10.49
11/1/2020 9:30:00 PM 8.25 46.85 0.171 7.2 2.96 10.51
11/1/2020 9:45:00 PM 8.17 46.706 0.171 7.2 2.89 10.54
11/1/2020 10:00:00 PM 8.1 46.58 0.171 7.21 2.82 10.56
11/1/2020 10:15:00 PM 8.03 46.454 0.171 7.21 2.9 10.58
11/1/2020 10:30:00 PM 7.98 46.364 0.171 7.21 2.81 10.6
11/1/2020 10:45:00 PM 7.92 46.256 0.171 7.21 3.08 10.62
11/1/2020 11:00:00 PM 7.86 46.148 0.171 7.21 2.88 10.63
11/1/2020 11:15:00 PM 7.81 46.058 0.171 7.21 2.82 10.65
11/1/2020 11:30:00 PM 7.75 45.95 0.171 7.21 3.23 10.67
11/1/2020 11:45:00 PM 7.69 45.842 0.171 7.22 3.16 10.69
11/2/2020 12:00:00 AM 7.61 45.698 0.17 7.22 3.13 10.71
11/2/2020 12:15:00 AM 7.55 45.59 0.17 7.22 3.31 10.74
11/2/2020 12:30:00 AM 7.5 45.5 0.17 7.22 3.16 10.76
11/2/2020 12:45:00 AM 7.46 45.428 0.17 7.23 3.17 10.78
11/2/2020 1:00:00 AM 7.44 45.392 0.169 7.24 3.16 10.8
11/2/2020 1:15:00 AM 7.41 45.338 0.169 7.23 3.16 10.81
11/2/2020 1:30:00 AM 7.4 45.32 0.169 7.23 3.13 10.82
11/2/2020 1:45:00 AM 7.4 45.32 0.169 7.24 3.29 10.83
11/2/2020 2:00:00 AM 7.4 45.32 0.169 7.24 3.18 10.84
11/2/2020 2:15:00 AM 7.39 45.302 0.168 7.24 3.6 10.84
11/2/2020 2:30:00 AM 7.37 45.266 0.168 7.25 3.3 10.85
11/2/2020 2:45:00 AM 7.36 45.248 0.168 7.25 3.58 10.86
11/2/2020 3:00:00 AM 7.35 45.23 0.168 7.25 3.74 10.86
11/2/2020 3:15:00 AM 7.32 45.176 0.168 7.25 3.59 10.86
11/2/2020 3:30:00 AM 7.31 45.158 0.167 7.25 3.86 10.88
11/2/2020 3:45:00 AM 7.28 45.104 0.167 7.25 3.42 10.89
11/2/2020 4:00:00 AM 7.24 45.032 0.167 7.25 3.7 10.89
11/2/2020 4:15:00 AM 7.22 44.996 0.167 7.25 3.49 10.91
11/2/2020 4:30:00 AM 7.19 44.942 0.167 7.25 3.53 10.92
11/2/2020 4:45:00 AM 7.16 44.888 0.167 7.25 3.49 10.93
11/2/2020 5:00:00 AM 7.11 44.798 0.166 7.25 3.51 10.94
11/2/2020 5:15:00 AM 7.06 44.708 0.166 7.24 3.54 10.96
11/2/2020 5:30:00 AM 7.01 44.618 0.166 7.25 3.47 10.98
11/2/2020 5:45:00 AM 6.98 44.564 0.166 7.25 3.53 11
11/2/2020 6:00:00 AM 6.94 44.492 0.166 7.25 3.75 11
11/2/2020 6:15:00 AM 6.88 44.384 0.166 7.24 3.65 11.02
11/2/2020 6:30:00 AM 6.83 44.294 0.166 7.24 3.52 11.03
11/2/2020 6:45:00 AM 6.8 44.24 0.166 7.24 3.59 11.06
11/2/2020 7:00:00 AM 6.76 44.168 0.166 7.25 3.66 11.08
11/2/2020 7:15:00 AM 6.73 44.114 0.166 7.25 3.64 11.1
11/2/2020 7:30:00 AM 6.7 44.06 0.166 7.25 3.61 11.14
11/2/2020 7:45:00 AM 6.69 44.042 0.166 7.26 3.71 11.2
11/2/2020 8:00:00 AM 6.7 44.06 0.166 7.26 3.71 11.24
11/2/2020 8:15:00 AM 6.7 44.06 0.165 7.27 3.75 11.29
11/2/2020 8:30:00 AM 6.7 44.06 0.165 7.28 3.7 11.34
11/2/2020 8:45:00 AM 6.7 44.06 0.165 7.28 3.66 11.38
11/2/2020 9:00:00 AM 6.68 44.024 0.165 7.29 3.74 11.4
11/2/2020 9:15:00 AM 6.64 43.952 0.165 7.29 3.78 11.43
11/2/2020 9:30:00 AM 6.66 43.988 0.165 7.3 3.71 11.49
11/2/2020 9:45:00 AM 6.67 44.006 0.165 7.3 3.7 11.53
11/2/2020 10:00:00 AM 6.67 44.006 0.165 7.31 3.99 11.56
11/2/2020 10:15:00 AM 6.7 44.06 0.165 7.32 3.58 11.6
11/2/2020 10:30:00 AM 6.75 44.15 0.165 7.32 3.58 11.62
11/2/2020 10:45:00 AM 6.81 44.258 0.165 7.33 3.47 11.64
11/2/2020 11:00:00 AM 6.88 44.384 0.165 7.34 3.56 11.65
11/2/2020 11:15:00 AM 6.98 44.564 0.165 7.34 3.45 11.65
11/2/2020 11:30:00 AM 7.11 44.798 0.165 7.35 3.43 11.65
11/2/2020 11:45:00 AM 7.27 45.086 0.165 7.35 3.55 11.64
11/2/2020 12:00:00 PM 7.44 45.392 0.165 7.36 3.71 11.6
11/2/2020 12:15:00 PM 7.62 45.716 0.165 7.36 3.43 11.56
11/2/2020 12:30:00 PM 7.71 45.878 0.165 7.36 3.71 11.54
11/2/2020 12:45:00 PM 7.85 46.13 0.165 7.36 3.56 11.51
11/2/2020 1:00:00 PM 7.97 46.346 0.166 7.36 3.35 11.46
11/2/2020 1:15:00 PM 8.05 46.49 0.166 7.36 3.38 11.42
11/2/2020 1:30:00 PM 8.14 46.652 0.166 7.34 25.43 11.39
11/2/2020 1:45:00 PM 8.24 46.832 0.166 7.36 3.67 11.38
11/2/2020 2:00:00 PM 8.34 47.012 0.166 7.36 3.09 11.33
11/2/2020 2:15:00 PM 8.35 47.03 0.166 7.36 2.67 11.31
11/2/2020 2:30:00 PM 8.35 47.03 0.166 7.35 2.56 11.29
11/2/2020 2:45:00 PM 8.34 47.012 0.166 7.35 2.57 11.26
11/2/2020 3:00:00 PM 8.3 46.94 0.166 7.34 2.66 11.25
11/2/2020 3:15:00 PM 8.24 46.832 0.166 7.34 2.53 11.25
11/2/2020 3:30:00 PM 8.17 46.706 0.166 7.33 2.56 11.23
11/2/2020 3:45:00 PM 8.11 46.598 0.166 7.32 2.5 11.21
11/2/2020 4:00:00 PM 8.04 46.472 0.166 7.32 2.51 11.19
11/2/2020 4:15:00 PM 7.97 46.346 0.167 7.3 2.62 11.16
11/2/2020 4:30:00 PM 7.9 46.22 0.167 7.28 2.62 11.12
11/2/2020 4:45:00 PM 7.85 46.13 0.167 7.28 2.47 11.07
11/2/2020 5:00:00 PM 7.79 46.022 0.167 7.27 2.5 11.03
11/2/2020 5:15:00 PM 7.74 45.932 0.167 7.26 2.44 10.98
11/2/2020 5:30:00 PM 7.69 45.842 0.167 7.25 2.34 10.95
11/2/2020 5:45:00 PM 7.65 45.77 0.167 7.24 2.6 10.92
11/2/2020 6:00:00 PM 7.6 45.68 0.167 7.24 2.38 10.9
11/2/2020 6:15:00 PM 7.58 45.644 0.167 7.23 2.4 10.88
11/2/2020 6:30:00 PM 7.55 45.59 0.167 7.23 2.39 10.87
11/2/2020 6:45:00 PM 7.52 45.536 0.168 7.22 2.33 10.86
11/2/2020 7:00:00 PM 7.49 45.482 0.168 7.22 2.32 10.86
11/2/2020 7:15:00 PM 7.45 45.41 0.168 7.22 2.47 10.86
11/2/2020 7:30:00 PM 7.41 45.338 0.168 7.21 2.32 10.87
11/2/2020 7:45:00 PM 7.39 45.302 0.168 7.22 2.36 10.88
11/2/2020 8:00:00 PM 7.37 45.266 0.168 7.22 2.21 10.87
11/2/2020 8:15:00 PM 7.34 45.212 0.168 7.21 2.23 10.87
11/2/2020 8:30:00 PM 7.32 45.176 0.168 7.22 2.26 10.87
11/2/2020 8:45:00 PM 7.31 45.158 0.168 7.22 2.3 10.87
11/2/2020 9:00:00 PM 7.28 45.104 0.168 7.22 2.24 10.88
11/2/2020 9:15:00 PM 7.26 45.068 0.168 7.21 2.22 10.88
11/2/2020 9:30:00 PM 7.25 45.05 0.168 7.21 2.24 10.88
11/2/2020 9:45:00 PM 7.24 45.032 0.168 7.22 2.23 10.88
11/2/2020 10:00:00 PM 7.23 45.014 0.168 7.21 2.33 10.88
11/2/2020 10:15:00 PM 7.22 44.996 0.168 7.22 2.37 10.87
11/2/2020 10:30:00 PM 7.2 44.96 0.169 7.22 2.38 10.87
11/2/2020 10:45:00 PM 7.18 44.924 0.169 7.21 2.26 10.86
11/2/2020 11:00:00 PM 7.16 44.888 0.169 7.21 2.21 10.88
11/2/2020 11:15:00 PM 7.14 44.852 0.169 7.22 2.24 10.88
11/2/2020 11:30:00 PM 7.12 44.816 0.169 7.21 2.26 10.88
11/2/2020 11:45:00 PM 7.11 44.798 0.169 7.21 2.22 10.88
11/3/2020 12:00:00 AM 7.09 44.762 0.169 7.22 2.22 10.89
11/3/2020 12:15:00 AM 7.08 44.744 0.169 7.21 2.25 10.89
11/3/2020 12:30:00 AM 7.07 44.726 0.169 7.21 2.32 10.89
11/3/2020 12:45:00 AM 7.06 44.708 0.169 7.22 2.11 10.89
11/3/2020 1:00:00 AM 7.04 44.672 0.169 7.21 2.33 10.9
11/3/2020 1:15:00 AM 7.03 44.654 0.169 7.22 2.27 10.89
11/3/2020 1:30:00 AM 7.01 44.618 0.169 7.21 2.23 10.9
11/3/2020 1:45:00 AM 7 44.6 0.169 7.21 2.11 10.9
11/3/2020 2:00:00 AM 7 44.6 0.169 7.21 2.18 10.9
11/3/2020 2:15:00 AM 7 44.6 0.169 7.21 2.13 10.9
11/3/2020 2:30:00 AM 7 44.6 0.17 7.21 2.1 10.9
11/3/2020 2:45:00 AM 6.99 44.582 0.17 7.21 2.24 10.9
11/3/2020 3:00:00 AM 6.99 44.582 0.17 7.21 2.33 10.9
11/3/2020 3:15:00 AM 6.98 44.564 0.17 7.21 2.11 10.9
11/3/2020 3:30:00 AM 6.98 44.564 0.17 7.22 2.16 10.9
11/3/2020 3:45:00 AM 6.98 44.564 0.17 7.22 2.1 10.9
11/3/2020 4:00:00 AM 6.97 44.546 0.17 7.21 2.13 10.9
11/3/2020 4:15:00 AM 6.97 44.546 0.17 7.21 2.13 10.91
11/3/2020 4:30:00 AM 6.98 44.564 0.17 7.21 2.07 10.9
11/3/2020 4:45:00 AM 6.99 44.582 0.17 7.21 2.05 10.9
11/3/2020 5:00:00 AM 7.01 44.618 0.17 7.21 2.06 10.9
11/3/2020 5:15:00 AM 7.02 44.636 0.17 7.22 2.08 10.9
11/3/2020 5:30:00 AM 7.04 44.672 0.17 7.22 2.11 10.9
11/3/2020 5:45:00 AM 7.06 44.708 0.17 7.22 2.13 10.9
11/3/2020 6:00:00 AM 7.07 44.726 0.171 7.21 2.44 10.89
11/3/2020 6:15:00 AM 7.08 44.744 0.171 7.21 2.06 10.89
11/3/2020 6:30:00 AM 7.09 44.762 0.171 7.21 2.08 10.88
11/3/2020 6:45:00 AM 7.11 44.798 0.171 7.21 2.1 10.88
11/3/2020 7:00:00 AM 7.13 44.834 0.171 7.21 2.11 10.87
11/3/2020 7:15:00 AM 7.16 44.888 0.171 7.22 2.04 10.88
11/3/2020 7:30:00 AM 7.18 44.924 0.171 7.21 2 10.88
11/3/2020 7:45:00 AM 7.2 44.96 0.171 7.21 2.18 10.89
11/3/2020 8:00:00 AM 7.23 45.014 0.171 7.21 2.05 10.88
11/3/2020 8:15:00 AM 7.25 45.05 0.171 7.21 2.09 10.9
11/3/2020 8:30:00 AM 7.27 45.086 0.171 7.22 2.08 10.9
11/3/2020 8:45:00 AM 7.29 45.122 0.171 7.22 2.86 10.96
11/3/2020 9:00:00 AM 7.32 45.176 0.171 7.22 2.69 10.98
11/3/2020 9:15:00 AM 7.36 45.248 0.171 7.21 10.36 10.93
11/3/2020 9:30:00 AM 7.39 45.302 0.171 7.23 4.73 11.02
11/3/2020 9:45:00 AM 7.41 45.338 0.171 7.24 4 11.07
11/3/2020 10:00:00 AM 7.42 45.356 0.171 7.24 3.92 11.08
11/3/2020 10:15:00 AM 7.43 45.374 0.171 7.24 3.79 11.12
11/3/2020 10:30:00 AM 7.46 45.428 0.171 7.25 3.72 11.15
11/3/2020 10:45:00 AM 7.5 45.5 0.171 7.26 3.74 11.19
11/3/2020 11:00:00 AM 7.55 45.59 0.171 7.26 3.92 11.24
11/3/2020 11:15:00 AM 7.62 45.716 0.171 7.27 3.73 11.29
11/3/2020 11:30:00 AM 7.68 45.824 0.171 7.28 3.59 11.31
11/3/2020 11:45:00 AM 7.73 45.914 0.171 7.28 3.42 11.32
11/3/2020 12:00:00 PM 7.79 46.022 0.171 7.29 3.54 11.34
11/3/2020 12:15:00 PM 7.83 46.094 0.171 7.3 3.52 11.33
11/3/2020 12:30:00 PM 7.87 46.166 0.171 7.3 3.55 11.34
11/3/2020 12:45:00 PM 7.9 46.22 0.171 7.3 4.09 11.31
11/3/2020 1:00:00 PM 7.96 46.328 0.171 7.3 3.89 11.35
11/3/2020 1:15:00 PM 8.04 46.472 0.171 7.31 3.81 11.38
11/3/2020 1:30:00 PM 8.12 46.616 0.171 7.31 3.63 11.39
11/3/2020 1:45:00 PM 8.16 46.688 0.171 7.32 3.79 11.34
11/3/2020 2:00:00 PM 8.25 46.85 0.171 7.32 3.64 11.41
11/3/2020 2:15:00 PM 8.35 47.03 0.171 7.33 3.72 11.41
11/3/2020 2:30:00 PM 8.44 47.192 0.171 7.33 3.49 11.38
11/3/2020 2:45:00 PM 8.5 47.3 0.171 7.33 4.3 11.38
11/3/2020 3:00:00 PM 8.55 47.39 0.171 7.34 3.25 11.37
11/3/2020 3:15:00 PM 8.58 47.444 0.172 7.33 2.91 11.3
11/3/2020 3:30:00 PM 8.59 47.462 0.172 7.33 3.76 11.31
11/3/2020 3:45:00 PM 8.57 47.426 0.172 7.33 3.14 11.25
11/3/2020 4:00:00 PM 8.55 47.39 0.172 7.32 2.85 11.23
11/3/2020 4:15:00 PM 8.51 47.318 0.172 7.31 2.8 11.2
11/3/2020 4:30:00 PM 8.47 47.246 0.172 7.3 2.58 11.14
11/3/2020 4:45:00 PM 8.41 47.138 0.172 7.28 3.05 11.06
11/3/2020 5:00:00 PM 8.34 47.012 0.172 7.27 2.4 11.02
11/3/2020 5:15:00 PM 8.27 46.886 0.172 7.26 2.44 10.95
11/3/2020 5:30:00 PM 8.18 46.724 0.173 7.25 2.21 10.92
11/3/2020 5:45:00 PM 8.09 46.562 0.173 7.23 2.12 10.87
11/3/2020 6:00:00 PM 8.01 46.418 0.173 7.22 2.17 10.81
11/3/2020 6:15:00 PM 7.94 46.292 0.173 7.21 2.31 10.83
11/3/2020 6:30:00 PM 7.87 46.166 0.173 7.2 2.53 10.8
11/3/2020 6:45:00 PM 7.81 46.058 0.173 7.2 2.16 10.79
11/3/2020 7:00:00 PM 7.75 45.95 0.173 7.19 2.23 10.79
11/3/2020 7:15:00 PM 7.69 45.842 0.173 7.19 2.36 10.77
11/3/2020 7:30:00 PM 7.63 45.734 0.173 7.19 2.61 10.79
11/3/2020 7:45:00 PM 7.58 45.644 0.174 7.18 2.34 10.8
11/3/2020 8:00:00 PM 7.53 45.554 0.174 7.18 2.23 10.81
11/3/2020 8:15:00 PM 7.48 45.464 0.174 7.18 2.16 10.82
11/3/2020 8:30:00 PM 7.44 45.392 0.174 7.18 2.3 10.82
11/3/2020 8:45:00 PM 7.4 45.32 0.174 7.18 2.09 10.84
11/3/2020 9:00:00 PM 7.36 45.248 0.174 7.18 2.19 10.85
11/3/2020 9:15:00 PM 7.32 45.176 0.174 7.18 2.2 10.85
11/3/2020 9:30:00 PM 7.27 45.086 0.174 7.18 2.12 10.87
11/3/2020 9:45:00 PM 7.24 45.032 0.174 7.18 2.27 10.88
11/3/2020 10:00:00 PM 7.21 44.978 0.174 7.18 2.23 10.89
11/3/2020 10:15:00 PM 7.17 44.906 0.174 7.18 2.91 10.9
11/3/2020 10:30:00 PM 7.14 44.852 0.174 7.18 2.36 10.89
11/3/2020 10:45:00 PM 7.1 44.78 0.174 7.18 2.99 10.92
11/3/2020 11:00:00 PM 7.07 44.726 0.174 7.18 2.77 10.92
11/3/2020 11:15:00 PM 7.04 44.672 0.175 7.18 2.61 10.94
11/3/2020 11:30:00 PM 7.02 44.636 0.175 7.18 2.38 10.94
11/3/2020 11:45:00 PM 6.98 44.564 0.175 7.18 2.2 10.96
11/4/2020 12:00:00 AM 6.94 44.492 0.175 7.18 2.32 10.97
11/4/2020 12:15:00 AM 6.92 44.456 0.175 7.18 2.21 10.98
11/4/2020 12:30:00 AM 6.89 44.402 0.175 7.18 2.21 10.98
11/4/2020 12:45:00 AM 6.86 44.348 0.175 7.18 2.26 10.98
11/4/2020 1:00:00 AM 6.84 44.312 0.175 7.18 2.53 10.99
11/4/2020 1:15:00 AM 6.81 44.258 0.175 7.18 2.1 10.99
11/4/2020 1:30:00 AM 6.79 44.222 0.175 7.18 2.07 11.01
11/4/2020 1:45:00 AM 6.76 44.168 0.175 7.18 1.99 11.01
11/4/2020 2:00:00 AM 6.73 44.114 0.175 7.18 2.08 11.01
11/4/2020 2:15:00 AM 6.72 44.096 0.175 7.18 2.34 11.02
11/4/2020 2:30:00 AM 6.68 44.024 0.176 7.17 1.95 11.04
11/4/2020 2:45:00 AM 6.67 44.006 0.176 7.18 2.06 11.04
11/4/2020 3:00:00 AM 6.65 43.97 0.176 7.18 1.93 11.04
11/4/2020 3:15:00 AM 6.62 43.916 0.176 7.18 1.97 11.05
11/4/2020 3:30:00 AM 6.6 43.88 0.176 7.18 1.98 11.06
11/4/2020 3:45:00 AM 6.58 43.844 0.176 7.18 2.06 11.05
11/4/2020 4:00:00 AM 6.56 43.808 0.176 7.17 2.06 11.06
11/4/2020 4:15:00 AM 6.55 43.79 0.176 7.17 2.3 11.07
11/4/2020 4:30:00 AM 6.52 43.736 0.176 7.18 2.05 11.08
11/4/2020 4:45:00 AM 6.5 43.7 0.176 7.17 2.01 11.08
11/4/2020 5:00:00 AM 6.49 43.682 0.176 7.17 2.02 11.08
11/4/2020 5:15:00 AM 6.48 43.664 0.176 7.16 2.73 11.06
11/4/2020 5:30:00 AM 6.45 43.61 0.176 7.17 2.1 11.08
11/4/2020 5:45:00 AM 6.44 43.592 0.176 7.18 2.17 11.11
11/4/2020 6:00:00 AM 6.42 43.556 0.176 7.17 2.09 11.12
11/4/2020 6:15:00 AM 6.41 43.538 0.176 7.17 2.17 11.12
11/4/2020 6:30:00 AM 6.38 43.484 0.176 7.18 2.15 11.11
11/4/2020 6:45:00 AM 6.37 43.466 0.177 7.18 2.08 11.13
11/4/2020 7:00:00 AM 6.35 43.43 0.177 7.17 2.1 11.14
11/4/2020 7:15:00 AM 6.35 43.43 0.177 7.17 2.2 11.16
11/4/2020 7:30:00 AM 6.35 43.43 0.177 7.18 2.23 11.21
11/4/2020 7:45:00 AM 6.35 43.43 0.177 7.19 2.13 11.26
11/4/2020 8:00:00 AM 6.37 43.466 0.177 7.17 2.04 11.3
11/4/2020 8:15:00 AM 6.41 43.538 0.177 7.2 7.09 11.39
11/4/2020 8:30:00 AM 6.46 43.628 0.177 7.21 4.33 11.43
11/4/2020 8:45:00 AM 6.52 43.736 0.177 7.22 2.84 11.51
11/4/2020 9:00:00 AM 6.59 43.862 0.177 7.23 4.07 11.57
11/4/2020 9:15:00 AM 6.69 44.042 0.177 7.24 2.24 11.59
11/4/2020 9:30:00 AM 6.81 44.258 0.177 7.25 2.87 11.64
11/4/2020 9:45:00 AM 6.96 44.528 0.177 7.26 2.67 11.66
11/4/2020 10:00:00 AM 7.15 44.87 0.177 7.27 5.03 11.67
11/4/2020 10:15:00 AM 7.35 45.23 0.177 7.27 6.2 11.67
11/4/2020 10:30:00 AM 7.53 45.554 0.177 7.28 5 11.64
11/4/2020 10:45:00 AM 7.73 45.914 0.177 7.29 4.32 11.66
11/4/2020 11:00:00 AM 7.92 46.256 0.177 7.29 2.54 11.59
11/4/2020 11:15:00 AM 8.12 46.616 0.177 7.3 8.59 11.56
11/4/2020 11:30:00 AM 8.29 46.922 0.177 7.31 3.4 11.52
11/4/2020 11:45:00 AM 8.48 47.264 0.177 7.31 3.85 11.53
11/4/2020 12:00:00 PM 8.67 47.606 0.177 7.31 5.27 11.5
11/4/2020 12:15:00 PM 8.86 47.948 0.177 7.32 2.67 11.44
11/4/2020 12:30:00 PM 9.06 48.308 0.177 7.32 1.76 11.4
11/4/2020 12:45:00 PM 9.26 48.668 0.177 7.32 3.14 11.36
11/4/2020 1:00:00 PM 9.44 48.992 0.177 7.32 1.98 11.34
11/4/2020 1:15:00 PM 9.6 49.28 0.177 7.33 1.93 11.27
11/4/2020 1:30:00 PM 9.72 49.496 0.177 7.32 1.96 11.23
11/4/2020 1:45:00 PM 9.83 49.694 0.177 7.33 1.86 11.15
11/4/2020 2:00:00 PM 9.98 49.964 0.177 7.33 1.95 11.17
11/4/2020 2:15:00 PM 10.06 50.108 0.177 7.32 1.62 11.12
11/4/2020 2:30:00 PM 10.12 50.216 0.177 7.32 1.68 11.1
11/4/2020 2:45:00 PM 10.16 50.288 0.177 7.32 1.53 11.02
11/4/2020 3:00:00 PM 10.21 50.378 0.177 7.31 1.57 10.99
11/4/2020 3:15:00 PM 10.23 50.414 0.177 7.3 2.42 10.9
11/4/2020 3:30:00 PM 10.24 50.432 0.177 7.3 1.64 10.92
11/4/2020 3:45:00 PM 10.22 50.396 0.177 7.3 1.59 10.86
11/4/2020 4:00:00 PM 10.18 50.324 0.177 7.29 2.1 10.82
11/4/2020 4:15:00 PM 10.11 50.198 0.177 7.27 1.61 10.73
11/4/2020 4:30:00 PM 10.03 50.054 0.177 7.26 1.86 10.65
11/4/2020 4:45:00 PM 9.94 49.892 0.177 7.25 1.71 10.64
11/4/2020 5:00:00 PM 9.86 49.748 0.177 7.24 1.68 10.51
11/4/2020 5:15:00 PM 9.77 49.586 0.177 7.23 3.6 10.54
11/4/2020 5:30:00 PM 9.67 49.406 0.178 7.21 1.66 10.43
11/4/2020 5:45:00 PM 9.57 49.226 0.178 7.19 2.18 10.42
11/4/2020 6:00:00 PM 9.49 49.082 0.178 7.19 1.51 10.43
11/4/2020 6:15:00 PM 9.39 48.902 0.178 7.18 1.48 10.41
11/4/2020 6:30:00 PM 9.29 48.722 0.178 7.17 1.54 10.39
11/4/2020 6:45:00 PM 9.22 48.596 0.178 7.17 1.47 10.38
11/4/2020 7:00:00 PM 9.14 48.452 0.178 7.16 1.44 10.38
11/4/2020 7:15:00 PM 9.05 48.29 0.178 7.16 1.52 10.39
11/4/2020 7:30:00 PM 8.99 48.182 0.178 7.16 1.54 10.39
11/4/2020 7:45:00 PM 8.92 48.056 0.178 7.15 1.47 10.4
11/4/2020 8:00:00 PM 8.86 47.948 0.178 7.16 1.51 10.4
11/4/2020 8:15:00 PM 8.8 47.84 0.178 7.15 1.44 10.41
11/4/2020 8:30:00 PM 8.75 47.75 0.178 7.15 1.59 10.42
11/4/2020 8:45:00 PM 8.7 47.66 0.178 7.16 1.44 10.42
11/4/2020 9:00:00 PM 8.66 47.588 0.179 7.15 1.47 10.43
11/4/2020 9:15:00 PM 8.61 47.498 0.179 7.16 1.46 10.45
11/4/2020 9:30:00 PM 8.59 47.462 0.179 7.16 1.48 10.45
11/4/2020 9:45:00 PM 8.54 47.372 0.179 7.16 1.64 10.46
11/4/2020 10:00:00 PM 8.5 47.3 0.179 7.16 1.63 10.47
11/4/2020 10:15:00 PM 8.46 47.228 0.179 7.16 1.45 10.48
11/4/2020 10:30:00 PM 8.42 47.156 0.179 7.16 1.37 10.5
11/4/2020 10:45:00 PM 8.38 47.084 0.179 7.16 1.56 10.5
11/4/2020 11:00:00 PM 8.34 47.012 0.179 7.16 1.56 10.52
11/4/2020 11:15:00 PM 8.31 46.958 0.179 7.16 1.52 10.51
11/4/2020 11:30:00 PM 8.26 46.868 0.179 7.16 1.43 10.53
11/4/2020 11:45:00 PM 8.23 46.814 0.179 7.16 1.42 10.53
11/5/2020 12:00:00 AM 8.19 46.742 0.179 7.16 1.59 10.54
11/5/2020 12:15:00 AM 8.15 46.67 0.179 7.16 1.43 10.56
11/5/2020 12:30:00 AM 8.12 46.616 0.179 7.16 1.37 10.56
11/5/2020 12:45:00 AM 8.09 46.562 0.179 7.16 1.48 10.56
11/5/2020 1:00:00 AM 8.05 46.49 0.179 7.16 1.45 10.57
11/5/2020 1:15:00 AM 8.02 46.436 0.179 7.16 1.43 10.58
11/5/2020 1:30:00 AM 7.98 46.364 0.179 7.16 1.41 10.59
11/5/2020 1:45:00 AM 7.95 46.31 0.179 7.16 1.45 10.6
11/5/2020 2:00:00 AM 7.92 46.256 0.179 7.16 1.49 10.6
11/5/2020 2:15:00 AM 7.89 46.202 0.179 7.16 1.47 10.61
11/5/2020 2:30:00 AM 7.85 46.13 0.179 7.16 1.41 10.62
11/5/2020 2:45:00 AM 7.82 46.076 0.18 7.16 1.43 10.63
11/5/2020 3:00:00 AM 7.79 46.022 0.18 7.15 1.47 10.63
11/5/2020 3:15:00 AM 7.76 45.968 0.18 7.16 1.42 10.64
11/5/2020 3:30:00 AM 7.74 45.932 0.18 7.16 1.37 10.64
11/5/2020 3:45:00 AM 7.71 45.878 0.18 7.16 1.48 10.65
11/5/2020 4:00:00 AM 7.68 45.824 0.18 7.16 1.46 10.66
11/5/2020 4:15:00 AM 7.66 45.788 0.18 7.15 1.49 10.66
11/5/2020 4:30:00 AM 7.63 45.734 0.18 7.15 1.55 10.67
11/5/2020 4:45:00 AM 7.61 45.698 0.18 7.15 1.54 10.66
11/5/2020 5:00:00 AM 7.59 45.662 0.18 7.15 1.55 10.67
11/5/2020 5:15:00 AM 7.56 45.608 0.18 7.15 1.42 10.68
11/5/2020 5:30:00 AM 7.54 45.572 0.18 7.15 1.37 10.67
11/5/2020 5:45:00 AM 7.52 45.536 0.181 7.15 1.39 10.69
11/5/2020 6:00:00 AM 7.5 45.5 0.181 7.15 1.34 10.68
11/5/2020 6:15:00 AM 7.48 45.464 0.181 7.16 1.41 10.69
11/5/2020 6:30:00 AM 7.45 45.41 0.181 7.15 1.38 10.69
11/5/2020 6:45:00 AM 7.43 45.374 0.181 7.15 1.42 10.7
11/5/2020 7:00:00 AM 7.43 45.374 0.181 7.15 1.39 10.7
11/5/2020 7:15:00 AM 7.4 45.32 0.181 7.15 1.54 10.74
11/5/2020 7:30:00 AM 7.4 45.32 0.181 7.16 1.47 10.75
11/5/2020 7:45:00 AM 7.4 45.32 0.181 7.16 1.41 10.84
11/5/2020 8:00:00 AM 7.41 45.338 0.181 7.17 1.43 10.9
11/5/2020 8:15:00 AM 7.44 45.392 0.181 7.18 1.4 10.96
11/5/2020 8:30:00 AM 7.49 45.482 0.181 7.19 1.39 11.04
11/5/2020 8:45:00 AM 7.58 45.644 0.181 7.2 1.42 11.13
11/5/2020 9:00:00 AM 7.65 45.77 0.181 7.21 1.38 11.18
11/5/2020 9:15:00 AM 7.76 45.968 0.181 7.22 1.61 11.23
11/5/2020 9:30:00 AM 7.87 46.166 0.181 7.23 1.4 11.27
11/5/2020 9:45:00 AM 8.03 46.454 0.181 7.24 1.36 11.34
11/5/2020 10:00:00 AM 8.26 46.868 0.181 7.26 1.35 11.33
11/5/2020 10:15:00 AM 8.43 47.174 0.181 7.27 1.39 11.36
11/5/2020 10:30:00 AM 8.64 47.552 0.181 7.28 1.67 11.4
11/5/2020 10:45:00 AM 8.8 47.84 0.181 7.28 1.33 11.39
11/5/2020 11:00:00 AM 8.97 48.146 0.181 7.29 1.28 11.35
11/5/2020 11:15:00 AM 9.14 48.452 0.181 7.3 1.31 11.35
11/5/2020 11:30:00 AM 9.34 48.812 0.181 7.3 1.29 11.3
11/5/2020 11:45:00 AM 9.5 49.1 0.181 7.31 1.25 11.33
11/5/2020 12:00:00 PM 9.69 49.442 0.181 7.32 1.35 11.3
11/5/2020 12:15:00 PM 9.86 49.748 0.181 7.33 1.19 11.26
11/5/2020 12:30:00 PM 10.04 50.072 0.181 7.33 1.24 11.22
11/5/2020 12:45:00 PM 10.21 50.378 0.181 7.33 1.28 11.2
11/5/2020 1:00:00 PM 10.36 50.648 0.181 7.32 1.25 11.2
11/5/2020 1:15:00 PM 10.51 50.918 0.181 7.33 1.3 11.16
11/5/2020 1:30:00 PM 10.65 51.17 0.181 7.33 2.4 11.13
11/5/2020 1:45:00 PM 10.75 51.35 0.181 7.33 1.38 11.11
11/5/2020 2:00:00 PM 10.85 51.53 0.181 7.34 1.26 11.07
11/5/2020 2:15:00 PM 10.9 51.62 0.181 7.34 1.28 11.05
11/5/2020 2:30:00 PM 10.93 51.674 0.181 7.33 1.31 10.98
11/5/2020 2:45:00 PM 10.96 51.728 0.181 7.33 1.28 10.98
11/5/2020 3:00:00 PM 10.98 51.764 0.181 7.32 1.35 10.96
11/5/2020 3:15:00 PM 10.99 51.782 0.181 7.32 1.31 10.9
11/5/2020 3:30:00 PM 10.98 51.764 0.181 7.31 1.27 10.86
11/5/2020 3:45:00 PM 10.95 51.71 0.181 7.31 1.27 10.81
11/5/2020 4:00:00 PM 10.91 51.638 0.182 7.3 1.27 10.74
11/5/2020 4:15:00 PM 10.85 51.53 0.182 7.29 1.22 10.66
11/5/2020 4:30:00 PM 10.78 51.404 0.182 7.27 1.34 10.57
11/5/2020 4:45:00 PM 10.69 51.242 0.182 7.26 1.38 10.54
11/5/2020 5:00:00 PM 10.59 51.062 0.182 7.24 1.33 10.42
11/5/2020 5:15:00 PM 10.52 50.936 0.182 7.22 1.34 10.36
11/5/2020 5:30:00 PM 10.43 50.774 0.182 7.21 1.26 10.24
11/5/2020 5:45:00 PM 10.33 50.594 0.182 7.2 1.34 10.24
11/5/2020 6:00:00 PM 10.22 50.396 0.183 7.19 1.4 10.21
11/5/2020 6:15:00 PM 10.14 50.252 0.183 7.18 1.35 10.16
11/5/2020 6:30:00 PM 10.06 50.108 0.183 7.17 1.41 10.13
11/5/2020 6:45:00 PM 9.97 49.946 0.183 7.16 1.36 10.11
11/5/2020 7:00:00 PM 9.91 49.838 0.183 7.15 1.37 10.08
11/5/2020 7:15:00 PM 9.81 49.658 0.183 7.15 1.37 10.08
11/5/2020 7:30:00 PM 9.72 49.496 0.183 7.15 1.42 10.1
11/5/2020 7:45:00 PM 9.67 49.406 0.183 7.14 1.35 10.08
11/5/2020 8:00:00 PM 9.59 49.262 0.183 7.14 1.38 10.09
11/5/2020 8:15:00 PM 9.53 49.154 0.183 7.14 1.32 10.1
11/5/2020 8:30:00 PM 9.46 49.028 0.183 7.14 1.34 10.1
11/5/2020 8:45:00 PM 9.4 48.92 0.183 7.14 1.33 10.12
11/5/2020 9:00:00 PM 9.34 48.812 0.183 7.14 1.36 10.14
11/5/2020 9:15:00 PM 9.3 48.74 0.183 7.14 1.38 10.13
11/5/2020 9:30:00 PM 9.24 48.632 0.183 7.14 1.45 10.15
11/5/2020 9:45:00 PM 9.2 48.56 0.183 7.14 1.39 10.15
11/5/2020 10:00:00 PM 9.17 48.506 0.183 7.14 1.29 10.14
11/5/2020 10:15:00 PM 9.15 48.47 0.183 7.14 1.37 10.16
11/5/2020 10:30:00 PM 9.11 48.398 0.183 7.14 1.4 10.18
11/5/2020 10:45:00 PM 9.09 48.362 0.183 7.14 1.32 10.17
11/5/2020 11:00:00 PM 9.07 48.326 0.183 7.14 1.36 10.15
11/5/2020 11:15:00 PM 9.04 48.272 0.183 7.14 1.46 10.18
11/5/2020 11:30:00 PM 9.03 48.254 0.183 7.14 1.42 10.19
11/5/2020 11:45:00 PM 9.01 48.218 0.183 7.14 1.39 10.19
11/6/2020 12:00:00 AM 9 48.2 0.184 7.14 1.3 10.2
11/6/2020 12:15:00 AM 8.99 48.182 0.184 7.14 1.28 10.21
11/6/2020 12:30:00 AM 8.99 48.182 0.184 7.15 1.42 10.21
11/6/2020 12:45:00 AM 8.99 48.182 0.184 7.14 1.65 10.2
11/6/2020 1:00:00 AM 9 48.2 0.184 7.15 1.32 10.19
11/6/2020 1:15:00 AM 9 48.2 0.184 7.15 1.34 10.2
11/6/2020 1:30:00 AM 9 48.2 0.184 7.15 1.4 10.2
11/6/2020 1:45:00 AM 8.99 48.182 0.184 7.14 1.31 10.18
11/6/2020 2:00:00 AM 8.99 48.182 0.184 7.14 1.4 10.19
11/6/2020 2:15:00 AM 8.97 48.146 0.184 7.14 1.56 10.2
11/6/2020 2:30:00 AM 8.96 48.128 0.184 7.14 1.31 10.19
11/6/2020 2:45:00 AM 8.94 48.092 0.184 7.14 1.36 10.17
11/6/2020 3:00:00 AM 8.92 48.056 0.184 7.14 1.38 10.2
11/6/2020 3:15:00 AM 8.89 48.002 0.184 7.13 1.4 10.2
11/6/2020 3:30:00 AM 8.88 47.984 0.184 7.13 1.42 10.19
11/6/2020 3:45:00 AM 8.85 47.93 0.184 7.13 1.4 10.19
11/6/2020 4:00:00 AM 8.81 47.858 0.184 7.13 1.38 10.21
11/6/2020 4:15:00 AM 8.77 47.786 0.184 7.13 1.44 10.2
11/6/2020 4:30:00 AM 8.74 47.732 0.185 7.13 1.33 10.19
11/6/2020 4:45:00 AM 8.7 47.66 0.185 7.13 1.3 10.22
11/6/2020 5:00:00 AM 8.66 47.588 0.185 7.13 1.34 10.22
11/6/2020 5:15:00 AM 8.62 47.516 0.185 7.13 1.42 10.24
11/6/2020 5:30:00 AM 8.58 47.444 0.185 7.12 1.44 10.24
11/6/2020 5:45:00 AM 8.55 47.39 0.185 7.13 1.41 10.25
11/6/2020 6:00:00 AM 8.52 47.336 0.185 7.13 1.31 10.24
11/6/2020 6:15:00 AM 8.48 47.264 0.185 7.12 1.41 10.26
11/6/2020 6:30:00 AM 8.43 47.174 0.185 7.13 1.29 10.27
11/6/2020 6:45:00 AM 8.4 47.12 0.185 7.13 1.33 10.28
11/6/2020 7:00:00 AM 8.37 47.066 0.185 7.12 1.38 10.3
11/6/2020 7:15:00 AM 8.34 47.012 0.185 7.13 1.39 10.32
11/6/2020 7:30:00 AM 8.32 46.976 0.185 7.14 1.31 10.39
11/6/2020 7:45:00 AM 8.31 46.958 0.185 7.14 1.47 10.43
11/6/2020 8:00:00 AM 8.32 46.976 0.185 7.15 1.32 10.53
11/6/2020 8:15:00 AM 8.33 46.994 0.185 7.16 1.34 10.64
11/6/2020 8:30:00 AM 8.38 47.084 0.185 7.17 1.31 10.75
11/6/2020 8:45:00 AM 8.45 47.21 0.185 7.18 1.33 10.83
11/6/2020 9:00:00 AM 8.51 47.318 0.185 7.19 1.32 10.89
11/6/2020 9:15:00 AM 8.6 47.48 0.185 7.21 1.27 10.99
11/6/2020 9:30:00 AM 8.68 47.624 0.185 7.23 1.5 11.04
11/6/2020 9:45:00 AM 8.81 47.858 0.185 7.23 1.24 11.11
11/6/2020 10:00:00 AM 8.99 48.182 0.185 7.25 1.32 11.16
11/6/2020 10:15:00 AM 9.15 48.47 0.185 7.27 1.3 11.19
11/6/2020 10:30:00 AM 9.34 48.812 0.185 7.28 1.27 11.2
11/6/2020 10:45:00 AM 9.52 49.136 0.185 7.29 1.23 11.24
11/6/2020 11:00:00 AM 9.68 49.424 0.185 7.3 1.24 11.22
11/6/2020 11:15:00 AM 9.83 49.694 0.185 7.3 1.28 11.23
11/6/2020 11:30:00 AM 10.01 50.018 0.185 7.3 1.26 11.22
11/6/2020 11:45:00 AM 10.14 50.252 0.185 7.31 1.22 11.17
11/6/2020 12:00:00 PM 10.35 50.63 0.185 7.31 1.22 11.17
11/6/2020 12:15:00 PM 10.49 50.882 0.185 7.32 1.25 11.17
11/6/2020 12:30:00 PM 10.68 51.224 0.185 7.33 1.2 11.13
11/6/2020 12:45:00 PM 10.86 51.548 0.185 7.33 1.2 11.13
11/6/2020 1:00:00 PM 11.03 51.854 0.185 7.33 1.46 11.07
11/6/2020 1:15:00 PM 11.18 52.124 0.185 7.34 1.23 11.03
11/6/2020 1:30:00 PM 11.28 52.304 0.185 7.34 1.23 11.01
11/6/2020 1:45:00 PM 11.38 52.484 0.185 7.34 1.21 10.98
11/6/2020 2:00:00 PM 11.5 52.7 0.185 7.34 1.2 10.98
11/6/2020 2:15:00 PM 11.57 52.826 0.185 7.34 1.2 10.9
11/6/2020 2:30:00 PM 11.62 52.916 0.185 7.33 1.25 10.86
11/6/2020 2:45:00 PM 11.64 52.952 0.185 7.33 1.45 10.84
11/6/2020 3:00:00 PM 11.67 53.006 0.185 7.32 1.33 10.58
11/6/2020 3:15:00 PM 11.68 53.024 0.185 7.33 1.19 10.79
11/6/2020 3:30:00 PM 11.67 53.006 0.185 7.32 1.25 10.74
11/6/2020 3:45:00 PM 11.66 52.988 0.185 7.31 1.23 10.68
11/6/2020 4:00:00 PM 11.62 52.916 0.185 7.3 1.41 10.61
11/6/2020 4:15:00 PM 11.57 52.826 0.185 7.28 1.23 10.54
11/6/2020 4:30:00 PM 11.5 52.7 0.185 7.27 1.31 10.45
11/6/2020 4:45:00 PM 11.41 52.538 0.185 7.25 1.24 10.35
11/6/2020 5:00:00 PM 11.34 52.412 0.186 7.23 1.36 10.27
11/6/2020 5:15:00 PM 11.24 52.232 0.186 7.22 1.27 10.17
11/6/2020 5:30:00 PM 11.11 51.998 0.186 7.2 1.33 10.07
11/6/2020 5:45:00 PM 11.06 51.908 0.186 7.2 1.34 10.02
11/6/2020 6:00:00 PM 10.95 51.71 0.186 7.18 1.23 9.95
11/6/2020 6:15:00 PM 10.85 51.53 0.186 7.17 1.25 9.92
11/6/2020 6:30:00 PM 10.76 51.368 0.186 7.16 1.25 9.88
11/6/2020 6:45:00 PM 10.68 51.224 0.187 7.15 1.31 9.85
11/6/2020 7:00:00 PM 10.61 51.098 0.187 7.14 1.4 9.82
11/6/2020 7:15:00 PM 10.52 50.936 0.187 7.14 1.37 9.82
11/6/2020 7:30:00 PM 10.41 50.738 0.187 7.13 1.35 9.81
11/6/2020 7:45:00 PM 10.34 50.612 0.187 7.12 1.33 9.8
11/6/2020 8:00:00 PM 10.23 50.414 0.187 7.12 2.01 9.83
11/6/2020 8:15:00 PM 10.18 50.324 0.187 7.12 1.37 9.81
11/6/2020 8:30:00 PM 10.11 50.198 0.187 7.12 1.34 9.83
11/6/2020 8:45:00 PM 10.03 50.054 0.187 7.12 1.38 9.85
11/6/2020 9:00:00 PM 9.97 49.946 0.187 7.12 1.31 9.86
11/6/2020 9:15:00 PM 9.91 49.838 0.187 7.11 1.41 9.86
11/6/2020 9:30:00 PM 9.86 49.748 0.187 7.12 1.34 9.87
11/6/2020 9:45:00 PM 9.81 49.658 0.187 7.12 1.32 9.87
11/6/2020 10:00:00 PM 9.77 49.586 0.187 7.12 1.49 9.88
11/6/2020 10:15:00 PM 9.72 49.496 0.187 7.12 1.29 9.88
11/6/2020 10:30:00 PM 9.66 49.388 0.187 7.12 1.39 9.91
11/6/2020 10:45:00 PM 9.61 49.298 0.188 7.12 1.38 9.92
11/6/2020 11:00:00 PM 9.56 49.208 0.188 7.12 1.33 9.93
11/6/2020 11:15:00 PM 9.52 49.136 0.188 7.12 1.4 9.93
11/6/2020 11:30:00 PM 9.47 49.046 0.188 7.12 1.66 9.95
11/6/2020 11:45:00 PM 9.43 48.974 0.188 7.12 1.37 9.95
11/7/2020 12:00:00 AM 9.4 48.92 0.188 7.12 1.4 9.95
11/7/2020 12:15:00 AM 9.34 48.812 0.188 7.12 1.31 9.97
11/7/2020 12:30:00 AM 9.3 48.74 0.188 7.12 1.27 9.98
11/7/2020 12:45:00 AM 9.26 48.668 0.188 7.12 1.31 9.99
11/7/2020 1:00:00 AM 9.22 48.596 0.188 7.12 1.34 10
11/7/2020 1:15:00 AM 9.19 48.542 0.188 7.11 1.35 10
11/7/2020 1:30:00 AM 9.14 48.452 0.188 7.12 1.28 10.01
11/7/2020 1:45:00 AM 9.1 48.38 0.188 7.12 1.27 10.02
11/7/2020 2:00:00 AM 9.07 48.326 0.188 7.12 1.32 10.03
11/7/2020 2:15:00 AM 9.03 48.254 0.188 7.12 1.41 10.05
11/7/2020 2:30:00 AM 8.99 48.182 0.188 7.12 1.33 10.05
11/7/2020 2:45:00 AM 8.96 48.128 0.188 7.12 1.34 10.06
11/7/2020 3:00:00 AM 8.93 48.074 0.188 7.12 1.35 10.06
11/7/2020 3:15:00 AM 8.89 48.002 0.188 7.12 1.36 10.08
11/7/2020 3:30:00 AM 8.85 47.93 0.188 7.12 1.37 10.09
11/7/2020 3:45:00 AM 8.82 47.876 0.189 7.12 1.37 10.09
11/7/2020 4:00:00 AM 8.79 47.822 0.189 7.12 1.37 10.09
11/7/2020 4:15:00 AM 8.76 47.768 0.189 7.12 1.36 10.1
11/7/2020 4:30:00 AM 8.73 47.714 0.189 7.12 1.32 10.11
11/7/2020 4:45:00 AM 8.7 47.66 0.189 7.12 1.43 10.12
11/7/2020 5:00:00 AM 8.67 47.606 0.189 7.12 1.32 10.13
11/7/2020 5:15:00 AM 8.64 47.552 0.189 7.12 1.3 10.14
11/7/2020 5:30:00 AM 8.61 47.498 0.189 7.12 1.31 10.14
11/7/2020 5:45:00 AM 8.58 47.444 0.189 7.12 1.27 10.15
11/7/2020 6:00:00 AM 8.56 47.408 0.189 7.12 1.36 10.16
11/7/2020 6:15:00 AM 8.53 47.354 0.189 7.12 1.28 10.16
11/7/2020 6:30:00 AM 8.5 47.3 0.189 7.13 1.32 10.17
11/7/2020 6:45:00 AM 8.47 47.246 0.189 7.12 1.4 10.17
11/7/2020 7:00:00 AM 8.45 47.21 0.189 7.12 1.4 10.18
11/7/2020 7:15:00 AM 8.43 47.174 0.189 7.13 1.52 10.22
11/7/2020 7:30:00 AM 8.42 47.156 0.189 7.13 1.37 10.28
11/7/2020 7:45:00 AM 8.41 47.138 0.189 7.14 1.48 10.35
11/7/2020 8:00:00 AM 8.42 47.156 0.189 7.15 1.68 10.45
11/7/2020 8:15:00 AM 8.43 47.174 0.189 7.16 1.34 10.55
11/7/2020 8:30:00 AM 8.47 47.246 0.189 7.17 1.39 10.67
11/7/2020 8:45:00 AM 8.53 47.354 0.189 7.17 1.31 10.81
11/7/2020 9:00:00 AM 8.58 47.444 0.189 7.19 1.3 10.86
11/7/2020 9:15:00 AM 8.65 47.57 0.189 7.2 1.39 10.96
11/7/2020 9:30:00 AM 8.73 47.714 0.189 7.21 1.25 11
11/7/2020 9:45:00 AM 8.85 47.93 0.189 7.23 1.31 11.07
11/7/2020 10:00:00 AM 9.01 48.218 0.189 7.24 1.24 11.12
11/7/2020 10:15:00 AM 9.14 48.452 0.189 7.25 1.19 11.15
11/7/2020 10:30:00 AM 9.32 48.776 0.189 7.26 1.27 11.21
11/7/2020 10:45:00 AM 9.49 49.082 0.189 7.28 1.25 11.24
11/7/2020 11:00:00 AM 9.65 49.37 0.189 7.29 1.22 11.24
11/7/2020 11:15:00 AM 9.79 49.622 0.189 7.3 1.22 11.26
11/7/2020 11:30:00 AM 9.96 49.928 0.189 7.3 1.18 11.26
11/7/2020 11:45:00 AM 10.15 50.27 0.188 7.31 1.21 11.23
11/7/2020 12:00:00 PM 10.34 50.612 0.189 7.31 1.2 11.23
11/7/2020 12:15:00 PM 10.54 50.972 0.188 7.32 1.22 11.23
11/7/2020 12:30:00 PM 10.7 51.26 0.188 7.33 1.17 11.2
11/7/2020 12:45:00 PM 10.91 51.638 0.188 7.33 1.17 11.22
11/7/2020 1:00:00 PM 11.07 51.926 0.188 7.34 1.19 11.21
11/7/2020 1:15:00 PM 11.23 52.214 0.188 7.34 1.18 11.16
11/7/2020 1:30:00 PM 11.35 52.43 0.188 7.34 1.48 11.09
11/7/2020 1:45:00 PM 11.45 52.61 0.188 7.34 1.21 11.06
11/7/2020 2:00:00 PM 11.57 52.826 0.188 7.34 1.28 11.05
11/7/2020 2:15:00 PM 11.65 52.97 0.188 7.35 1.49 11.03
11/7/2020 2:30:00 PM 11.71 53.078 0.188 7.34 1.24 10.99
11/7/2020 2:45:00 PM 11.74 53.132 0.188 7.34 1.17 10.95
11/7/2020 3:00:00 PM 11.76 53.168 0.188 7.34 1.16 10.89
11/7/2020 3:15:00 PM 11.77 53.186 0.188 7.33 1.16 10.85
11/7/2020 3:30:00 PM 11.76 53.168 0.189 7.32 1.7 10.8
11/7/2020 3:45:00 PM 11.75 53.15 0.189 7.31 1.67 10.74
11/7/2020 4:00:00 PM 11.71 53.078 0.189 7.31 1.8 10.67
11/7/2020 4:15:00 PM 11.66 52.988 0.189 7.28 1.39 10.56
11/7/2020 4:30:00 PM 11.6 52.88 0.189 7.28 1.35 10.47
11/7/2020 4:45:00 PM 11.52 52.736 0.189 7.25 1.23 10.35
11/7/2020 5:00:00 PM 11.45 52.61 0.189 7.24 1.31 10.28
11/7/2020 5:15:00 PM 11.35 52.43 0.189 7.22 1.35 10.18
11/7/2020 5:30:00 PM 11.26 52.268 0.189 7.2 1.2 10.08
11/7/2020 5:45:00 PM 11.17 52.106 0.19 7.19 1.29 10.01
11/7/2020 6:00:00 PM 11.08 51.944 0.19 7.18 1.45 9.93
11/7/2020 6:15:00 PM 10.98 51.764 0.19 7.16 1.33 9.89
11/7/2020 6:30:00 PM 10.9 51.62 0.19 7.15 1.26 9.84
11/7/2020 6:45:00 PM 10.8 51.44 0.19 7.14 1.43 9.81
11/7/2020 7:00:00 PM 10.72 51.296 0.19 7.13 1.42 9.79
11/7/2020 7:15:00 PM 10.62 51.116 0.19 7.13 1.34 9.76
11/7/2020 7:30:00 PM 10.53 50.954 0.19 7.12 1.31 9.76
11/7/2020 7:45:00 PM 10.45 50.81 0.191 7.12 1.33 9.75
11/7/2020 8:00:00 PM 10.39 50.702 0.191 7.12 1.31 9.74
11/7/2020 8:15:00 PM 10.33 50.594 0.191 7.12 1.25 9.74
11/7/2020 8:30:00 PM 10.23 50.414 0.191 7.11 1.24 9.73
11/7/2020 8:45:00 PM 10.15 50.27 0.191 7.11 1.28 9.74
11/7/2020 9:00:00 PM 10.08 50.144 0.191 7.11 1.22 9.76
11/7/2020 9:15:00 PM 10.02 50.036 0.191 7.11 1.3 9.76
11/7/2020 9:30:00 PM 9.95 49.91 0.191 7.11 1.4 9.79
11/7/2020 9:45:00 PM 9.9 49.82 0.191 7.11 1.53 9.79
11/7/2020 10:00:00 PM 9.86 49.748 0.191 7.11 1.23 9.79
11/7/2020 10:15:00 PM 9.79 49.622 0.191 7.1 1.24 9.8
11/7/2020 10:30:00 PM 9.74 49.532 0.191 7.1 1.23 9.82
11/7/2020 10:45:00 PM 9.7 49.46 0.191 7.11 1.32 9.83
11/7/2020 11:00:00 PM 9.65 49.37 0.191 7.11 1.24 9.82
11/7/2020 11:15:00 PM 9.59 49.262 0.191 7.11 1.28 9.84
11/7/2020 11:30:00 PM 9.54 49.172 0.191 7.11 1.3 9.86
11/7/2020 11:45:00 PM 9.49 49.082 0.191 7.11 1.26 9.87
11/8/2020 12:00:00 AM 9.44 48.992 0.191 7.11 1.39 9.88
11/8/2020 12:15:00 AM 9.41 48.938 0.191 7.11 1.24 9.89
11/8/2020 12:30:00 AM 9.36 48.848 0.191 7.11 1.38 9.9
11/8/2020 12:45:00 AM 9.31 48.758 0.191 7.11 1.33 9.91
11/8/2020 1:00:00 AM 9.27 48.686 0.191 7.11 1.39 9.92
11/8/2020 1:15:00 AM 9.24 48.632 0.191 7.11 1.53 9.92
11/8/2020 1:30:00 AM 9.2 48.56 0.191 7.11 1.8 9.93
11/8/2020 1:45:00 AM 9.15 48.47 0.191 7.11 2.21 9.94
11/8/2020 2:00:00 AM 9.12 48.416 0.192 7.11 2.87 9.95
11/8/2020 2:15:00 AM 9.08 48.344 0.192 7.11 3.41 9.96
11/8/2020 2:30:00 AM 9.04 48.272 0.192 7.11 3.94 9.97
11/8/2020 2:45:00 AM 8.99 48.182 0.192 7.12 4.27 10
11/8/2020 3:00:00 AM 8.96 48.128 0.192 7.11 4.17 9.99
11/8/2020 3:15:00 AM 8.92 48.056 0.192 7.11 3.91 10.01
11/8/2020 3:30:00 AM 8.89 48.002 0.192 7.11 3.47 10.01
11/8/2020 3:45:00 AM 8.85 47.93 0.192 7.11 3.1 10.02
11/8/2020 4:00:00 AM 8.81 47.858 0.192 7.11 2.71 10.03
11/8/2020 4:15:00 AM 8.77 47.786 0.192 7.11 2.6 10.03
11/8/2020 4:30:00 AM 8.75 47.75 0.192 7.11 2.29 10.04
11/8/2020 4:45:00 AM 8.71 47.678 0.192 7.11 2.02 10.07
11/8/2020 5:00:00 AM 8.68 47.624 0.192 7.11 2.01 10.07
11/8/2020 5:15:00 AM 8.64 47.552 0.192 7.11 2.65 10.07
11/8/2020 5:30:00 AM 8.61 47.498 0.192 7.11 1.6 10.07
11/8/2020 5:45:00 AM 8.58 47.444 0.192 7.11 1.53 10.08
11/8/2020 6:00:00 AM 8.54 47.372 0.192 7.11 1.52 10.09
11/8/2020 6:15:00 AM 8.52 47.336 0.192 7.11 1.6 10.08
11/8/2020 6:30:00 AM 8.49 47.282 0.192 7.11 1.54 10.11
11/8/2020 6:45:00 AM 8.46 47.228 0.193 7.11 1.46 10.12
11/8/2020 7:00:00 AM 8.44 47.192 0.193 7.11 1.48 10.14
11/8/2020 7:15:00 AM 8.4 47.12 0.193 7.12 1.35 10.16
11/8/2020 7:30:00 AM 8.4 47.12 0.193 7.12 1.43 10.2
11/8/2020 7:45:00 AM 8.39 47.102 0.193 7.13 1.44 10.3
11/8/2020 8:00:00 AM 8.39 47.102 0.193 7.14 1.34 10.4
11/8/2020 8:15:00 AM 8.41 47.138 0.193 7.15 1.29 10.56
11/8/2020 8:30:00 AM 8.44 47.192 0.193 7.15 1.35 10.66
11/8/2020 8:45:00 AM 8.48 47.264 0.192 7.17 1.37 10.78
11/8/2020 9:00:00 AM 8.53 47.354 0.192 7.18 1.41 10.89
11/8/2020 9:15:00 AM 8.58 47.444 0.192 7.2 1.35 10.99
11/8/2020 9:30:00 AM 8.63 47.534 0.192 7.21 1.28 11.04
11/8/2020 9:45:00 AM 8.73 47.714 0.192 7.22 1.39 11.12
11/8/2020 10:00:00 AM 8.87 47.966 0.192 7.23 1.3 11.2
11/8/2020 10:15:00 AM 8.99 48.182 0.192 7.24 1.29 11.3
11/8/2020 10:30:00 AM 9.15 48.47 0.192 7.25 1.24 11.33
11/8/2020 10:45:00 AM 9.32 48.776 0.192 7.26 1.25 11.38
11/8/2020 11:00:00 AM 9.45 49.01 0.192 7.27 1.25 11.41
11/8/2020 11:15:00 AM 9.59 49.262 0.192 7.28 1.26 11.38
11/8/2020 11:30:00 AM 9.76 49.568 0.192 7.29 1.19 11.38
11/8/2020 11:45:00 AM 9.93 49.874 0.192 7.29 1.15 11.36
11/8/2020 12:00:00 PM 10.12 50.216 0.192 7.31 1.23 11.34
11/8/2020 12:15:00 PM 10.27 50.486 0.192 7.31 1.21 11.33
11/8/2020 12:30:00 PM 10.45 50.81 0.192 7.31 1.19 11.32
11/8/2020 12:45:00 PM 10.66 51.188 0.192 7.32 1.22 11.32
11/8/2020 1:00:00 PM 10.83 51.494 0.192 7.31 1.21 11.3
11/8/2020 1:15:00 PM 10.98 51.764 0.192 7.32 1.15 11.33
11/8/2020 1:30:00 PM 11.08 51.944 0.192 7.32 1.23 11.25
11/8/2020 1:45:00 PM 11.18 52.124 0.192 7.33 1.22 11.25
11/8/2020 2:00:00 PM 11.33 52.394 0.192 7.33 1.6 11.17
11/8/2020 2:15:00 PM 11.42 52.556 0.192 7.33 1.84 11.13
11/8/2020 2:30:00 PM 11.47 52.646 0.192 7.33 1.24 11.1
11/8/2020 2:45:00 PM 11.51 52.718 0.192 7.33 1.24 11.02
11/8/2020 3:00:00 PM 11.55 52.79 0.192 7.33 1.23 10.97
11/8/2020 3:15:00 PM 11.57 52.826 0.192 7.33 1.38 10.97
11/8/2020 3:30:00 PM 11.58 52.844 0.192 7.32 1.23 10.9
11/8/2020 3:45:00 PM 11.58 52.844 0.192 7.31 1.22 10.84
11/8/2020 4:00:00 PM 11.55 52.79 0.192 7.29 1.4 10.75
11/8/2020 4:15:00 PM 11.53 52.754 0.192 7.29 1.23 10.68
11/8/2020 4:30:00 PM 11.46 52.628 0.192 7.23 12.67 10.51
11/8/2020 4:45:00 PM 11.41 52.538 0.192 7.24 1.21 10.47
11/8/2020 5:00:00 PM 11.35 52.43 0.192 7.23 1.2 10.34
11/8/2020 5:15:00 PM 11.26 52.268 0.193 7.22 1.16 10.25
11/8/2020 5:30:00 PM 11.18 52.124 0.193 7.2 1.18 10.15
11/8/2020 5:45:00 PM 11.07 51.926 0.193 7.19 1.21 10.03
11/8/2020 6:00:00 PM 10.99 51.782 0.193 7.17 1.32 9.95
11/8/2020 6:15:00 PM 10.89 51.602 0.193 7.15 1.26 9.91
11/8/2020 6:30:00 PM 10.83 51.494 0.193 7.15 1.15 9.86
11/8/2020 6:45:00 PM 10.75 51.35 0.193 7.14 1.17 9.83
11/8/2020 7:00:00 PM 10.67 51.206 0.193 7.14 1.28 9.81
11/8/2020 7:15:00 PM 10.57 51.026 0.194 7.13 1.48 9.77
11/8/2020 7:30:00 PM 10.51 50.918 0.194 7.12 1.23 9.75
11/8/2020 7:45:00 PM 10.4 50.72 0.194 7.12 1.19 9.76
11/8/2020 8:00:00 PM 10.33 50.594 0.194 7.12 1.18 9.75
11/8/2020 8:15:00 PM 10.26 50.468 0.194 7.11 1.2 9.74
11/8/2020 8:30:00 PM 10.18 50.324 0.194 7.11 1.27 9.73
11/8/2020 8:45:00 PM 10.1 50.18 0.194 7.11 1.2 9.75
11/8/2020 9:00:00 PM 10.02 50.036 0.194 7.1 1.2 9.75
11/8/2020 9:15:00 PM 9.94 49.892 0.194 7.1 1.14 9.76
11/8/2020 9:30:00 PM 9.88 49.784 0.194 7.11 1.17 9.78
11/8/2020 9:45:00 PM 9.82 49.676 0.194 7.11 1.22 9.79
11/8/2020 10:00:00 PM 9.76 49.568 0.194 7.1 1.18 9.79
11/8/2020 10:15:00 PM 9.71 49.478 0.194 7.1 1.18 9.79
11/8/2020 10:30:00 PM 9.68 49.424 0.194 7.1 1.18 9.78
11/8/2020 10:45:00 PM 9.62 49.316 0.194 7.11 1.18 9.79
11/8/2020 11:00:00 PM 9.55 49.19 0.194 7.1 1.19 9.82
11/8/2020 11:15:00 PM 9.49 49.082 0.194 7.1 1.22 9.84
11/8/2020 11:30:00 PM 9.46 49.028 0.194 7.11 1.21 9.84
11/8/2020 11:45:00 PM 9.4 48.92 0.194 7.1 1.22 9.85
11/9/2020 12:00:00 AM 9.35 48.83 0.194 7.11 1.17 9.87
11/9/2020 12:15:00 AM 9.32 48.776 0.194 7.11 1.13 9.86
11/9/2020 12:30:00 AM 9.27 48.686 0.195 7.11 1.14 9.88
11/9/2020 12:45:00 AM 9.23 48.614 0.195 7.11 1.2 9.89
11/9/2020 1:00:00 AM 9.19 48.542 0.195 7.11 1.16 9.9
11/9/2020 1:15:00 AM 9.15 48.47 0.195 7.11 1.16 9.91
11/9/2020 1:30:00 AM 9.11 48.398 0.195 7.1 1.18 9.92
11/9/2020 1:45:00 AM 9.07 48.326 0.195 7.11 1.31 9.93
11/9/2020 2:00:00 AM 9.03 48.254 0.195 7.1 1.17 9.94
11/9/2020 2:15:00 AM 9 48.2 0.195 7.11 1.24 9.95
11/9/2020 2:30:00 AM 8.97 48.146 0.195 7.11 1.17 9.96
11/9/2020 2:45:00 AM 8.93 48.074 0.195 7.11 1.18 9.97
11/9/2020 3:00:00 AM 8.9 48.02 0.195 7.11 1.18 9.98
11/9/2020 3:15:00 AM 8.87 47.966 0.195 7.11 1.21 9.98
11/9/2020 3:30:00 AM 8.83 47.894 0.195 7.11 1.37 9.99
11/9/2020 3:45:00 AM 8.8 47.84 0.195 7.11 1.21 10
11/9/2020 4:00:00 AM 8.77 47.786 0.195 7.11 1.12 10
11/9/2020 4:15:00 AM 8.74 47.732 0.195 7.11 1.31 10
11/9/2020 4:30:00 AM 8.72 47.696 0.195 7.11 1.26 10
11/9/2020 4:45:00 AM 8.68 47.624 0.195 7.11 1.17 10.02
11/9/2020 5:00:00 AM 8.66 47.588 0.195 7.11 1.19 10.02
11/9/2020 5:15:00 AM 8.63 47.534 0.195 7.11 1.17 10.03
11/9/2020 5:30:00 AM 8.61 47.498 0.195 7.11 1.16 10.02
11/9/2020 5:45:00 AM 8.57 47.426 0.195 7.11 1.24 10.04
11/9/2020 6:00:00 AM 8.54 47.372 0.195 7.11 1.21 10.05
11/9/2020 6:15:00 AM 8.52 47.336 0.195 7.11 1.28 10.06
11/9/2020 6:30:00 AM 8.48 47.264 0.196 7.11 1.18 10.06
11/9/2020 6:45:00 AM 8.46 47.228 0.196 7.11 1.22 10.07
11/9/2020 7:00:00 AM 8.43 47.174 0.196 7.11 1.39 10.09
11/9/2020 7:15:00 AM 8.41 47.138 0.196 7.11 1.16 10.12
11/9/2020 7:30:00 AM 8.4 47.12 0.196 7.12 1.27 10.15
11/9/2020 7:45:00 AM 8.38 47.084 0.196 7.12 1.16 10.26
11/9/2020 8:00:00 AM 8.38 47.084 0.196 7.13 1.2 10.36
11/9/2020 8:15:00 AM 8.4 47.12 0.196 7.14 1.17 10.49
11/9/2020 8:30:00 AM 8.43 47.174 0.195 7.15 1.18 10.61
11/9/2020 8:45:00 AM 8.49 47.282 0.195 7.17 1.67 10.76
11/9/2020 9:00:00 AM 8.54 47.372 0.195 7.18 1.52 10.85
11/9/2020 9:15:00 AM 8.59 47.462 0.195 7.19 1.35 10.92
11/9/2020 9:30:00 AM 8.66 47.588 0.195 7.2 1.17 10.98
11/9/2020 9:45:00 AM 8.77 47.786 0.195 7.21 1.25 11.05
11/9/2020 10:00:00 AM 8.92 48.056 0.195 7.22 1.16 11.18
11/9/2020 10:15:00 AM 9.03 48.254 0.195 7.24 1.11 11.28
11/9/2020 10:30:00 AM 9.16 48.488 0.195 7.25 1.12 11.33
11/9/2020 10:45:00 AM 9.32 48.776 0.195 7.26 1.15 11.33
11/9/2020 11:00:00 AM 9.46 49.028 0.195 7.28 1.14 11.39
11/9/2020 11:15:00 AM 9.59 49.262 0.194 7.28 1.26 11.4
11/9/2020 11:30:00 AM 9.75 49.55 0.194 7.29 1.25 11.39
11/9/2020 11:45:00 AM 9.9 49.82 0.194 7.3 1.12 11.39
11/9/2020 12:00:00 PM 10.07 50.126 0.194 7.3 1.15 11.41
11/9/2020 12:15:00 PM 10.24 50.432 0.194 7.31 1.07 11.37
11/9/2020 12:30:00 PM 10.42 50.756 0.194 7.31 1.1 11.37
11/9/2020 12:45:00 PM 10.6 51.08 0.194 7.31 1.1 11.35
11/9/2020 1:00:00 PM 10.77 51.386 0.194 7.32 1.06 11.35
11/9/2020 1:15:00 PM 10.93 51.674 0.194 7.33 1.09 11.35
11/9/2020 1:30:00 PM 11.06 51.908 0.194 7.33 1.07 11.3
11/9/2020 1:45:00 PM 11.16 52.088 0.194 7.33 1.19 11.3
11/9/2020 2:00:00 PM 11.28 52.304 0.194 7.33 1.36 11.24
11/9/2020 2:15:00 PM 11.41 52.538 0.194 7.34 1.15 11.21
11/9/2020 2:30:00 PM 11.45 52.61 0.194 7.33 1.17 11.15
11/9/2020 2:45:00 PM 11.49 52.682 0.194 7.33 1.32 11.11
11/9/2020 3:00:00 PM 11.55 52.79 0.194 7.33 1.14 11.05
11/9/2020 3:15:00 PM 11.58 52.844 0.194 7.32 1.18 11.02
11/9/2020 3:30:00 PM 11.59 52.862 0.194 7.32 1.12 10.96
11/9/2020 3:45:00 PM 11.6 52.88 0.194 7.31 1.13 10.91
11/9/2020 4:00:00 PM 11.58 52.844 0.195 7.3 1.08 10.82
11/9/2020 4:15:00 PM 11.55 52.79 0.195 7.3 1.07 10.74
11/9/2020 4:30:00 PM 11.51 52.718 0.195 7.28 1.36 10.62
11/9/2020 4:45:00 PM 11.46 52.628 0.195 7.27 1.69 10.51
11/9/2020 5:00:00 PM 11.41 52.538 0.195 7.25 1.2 10.38
11/9/2020 5:15:00 PM 11.32 52.376 0.195 7.23 1.11 10.25
11/9/2020 5:30:00 PM 11.24 52.232 0.195 7.21 1.15 10.12
11/9/2020 5:45:00 PM 11.19 52.142 0.195 7.19 1.34 9.99
11/9/2020 6:00:00 PM 11.09 51.962 0.195 7.18 1.2 9.93
11/9/2020 6:15:00 PM 11.02 51.836 0.196 7.16 1.22 9.86
11/9/2020 6:30:00 PM 10.94 51.692 0.196 7.15 1.13 9.79
11/9/2020 6:45:00 PM 10.87 51.566 0.196 7.14 1.18 9.76
11/9/2020 7:00:00 PM 10.78 51.404 0.196 7.14 1.12 9.73
11/9/2020 7:15:00 PM 10.69 51.242 0.196 7.13 1.25 9.69
11/9/2020 7:30:00 PM 10.62 51.116 0.196 7.12 1.2 9.67
11/9/2020 7:45:00 PM 10.55 50.99 0.196 7.11 1.14 9.66
11/9/2020 8:00:00 PM 10.48 50.864 0.196 7.11 1.21 9.64
11/9/2020 8:15:00 PM 10.42 50.756 0.197 7.1 1.29 9.63
11/9/2020 8:30:00 PM 10.34 50.612 0.197 7.1 1.15 9.63
11/9/2020 8:45:00 PM 10.25 50.45 0.197 7.1 1.21 9.64
11/9/2020 9:00:00 PM 10.18 50.324 0.197 7.1 1.15 9.64
11/9/2020 9:15:00 PM 10.12 50.216 0.197 7.1 1.13 9.64
11/9/2020 9:30:00 PM 10.05 50.09 0.197 7.1 1.17 9.66
11/9/2020 9:45:00 PM 10 50 0.197 7.09 1.17 9.66
11/9/2020 10:00:00 PM 9.93 49.874 0.197 7.1 1.24 9.66
11/9/2020 10:15:00 PM 9.87 49.766 0.197 7.09 1.21 9.68
11/9/2020 10:30:00 PM 9.82 49.676 0.197 7.1 1.17 9.7
11/9/2020 10:45:00 PM 9.79 49.622 0.197 7.1 1.42 9.7
11/9/2020 11:00:00 PM 9.74 49.532 0.197 7.1 1.17 9.71
11/9/2020 11:15:00 PM 9.7 49.46 0.197 7.1 1.19 9.71
11/9/2020 11:30:00 PM 9.66 49.388 0.197 7.1 1.17 9.71
11/9/2020 11:45:00 PM 9.61 49.298 0.197 7.1 1.58 9.73
11/10/2020 12:00:00 AM 9.58 49.244 0.197 7.1 1.2 9.73
11/10/2020 12:15:00 AM 9.55 49.19 0.197 7.1 1.2 9.73
11/10/2020 12:30:00 AM 9.51 49.118 0.197 7.1 1.23 9.75
11/10/2020 12:45:00 AM 9.48 49.064 0.197 7.1 1.21 9.75
11/10/2020 1:00:00 AM 9.45 49.01 0.197 7.1 1.2 9.76
11/10/2020 1:15:00 AM 9.41 48.938 0.197 7.1 1.17 9.76
11/10/2020 1:30:00 AM 9.39 48.902 0.197 7.1 1.16 9.77
11/10/2020 1:45:00 AM 9.35 48.83 0.197 7.1 1.09 9.78
11/10/2020 2:00:00 AM 9.32 48.776 0.197 7.11 1.2 9.79
11/10/2020 2:15:00 AM 9.29 48.722 0.197 7.11 1.11 9.79
11/10/2020 2:30:00 AM 9.26 48.668 0.197 7.11 1.21 9.8
11/10/2020 2:45:00 AM 9.24 48.632 0.197 7.11 1.19 9.8
11/10/2020 3:00:00 AM 9.22 48.596 0.197 7.11 1.14 9.8
11/10/2020 3:15:00 AM 9.19 48.542 0.197 7.11 1.17 9.81
11/10/2020 3:30:00 AM 9.16 48.488 0.197 7.11 1.18 9.82
11/10/2020 3:45:00 AM 9.13 48.434 0.198 7.11 1.1 9.81
11/10/2020 4:00:00 AM 9.11 48.398 0.198 7.11 1.11 9.83
11/10/2020 4:15:00 AM 9.08 48.344 0.198 7.11 1.15 9.84
11/10/2020 4:30:00 AM 9.05 48.29 0.198 7.11 1.16 9.85
11/10/2020 4:45:00 AM 9.02 48.236 0.198 7.11 1.18 9.85
11/10/2020 5:00:00 AM 9.01 48.218 0.198 7.11 1.22 9.85
11/10/2020 5:15:00 AM 8.98 48.164 0.198 7.11 1.13 9.86
11/10/2020 5:30:00 AM 8.95 48.11 0.198 7.11 1.17 9.86
11/10/2020 5:45:00 AM 8.93 48.074 0.198 7.11 1.21 9.86
11/10/2020 6:00:00 AM 8.92 48.056 0.198 7.11 1.16 9.86
11/10/2020 6:15:00 AM 8.89 48.002 0.198 7.1 1.2 9.88
11/10/2020 6:30:00 AM 8.87 47.966 0.198 7.11 1.13 9.88
11/10/2020 6:45:00 AM 8.85 47.93 0.198 7.11 1.31 9.88
11/10/2020 7:00:00 AM 8.84 47.912 0.198 7.11 1.19 9.89
11/10/2020 7:15:00 AM 8.82 47.876 0.198 7.11 1.22 9.91
11/10/2020 7:30:00 AM 8.82 47.876 0.198 7.11 1.14 9.95
11/10/2020 7:45:00 AM 8.81 47.858 0.198 7.12 1.15 10.03
11/10/2020 8:00:00 AM 8.81 47.858 0.198 7.13 1.16 10.16
11/10/2020 8:15:00 AM 8.83 47.894 0.198 7.14 1.16 10.27
11/10/2020 8:30:00 AM 8.87 47.966 0.198 7.14 1.1 10.4
11/10/2020 8:45:00 AM 8.93 48.074 0.197 7.16 1.18 10.54
11/10/2020 9:00:00 AM 8.98 48.164 0.197 7.17 1.14 10.68
11/10/2020 9:15:00 AM 9.04 48.272 0.197 7.18 1.14 10.78
11/10/2020 9:30:00 AM 9.11 48.398 0.197 7.2 1.13 10.88
11/10/2020 9:45:00 AM 9.21 48.578 0.197 7.21 1.13 10.95
11/10/2020 10:00:00 AM 9.34 48.812 0.197 7.22 1.17 11.04
11/10/2020 10:15:00 AM 9.47 49.046 0.197 7.24 1.1 11.11
11/10/2020 10:30:00 AM 9.6 49.28 0.197 7.25 1.15 11.18
11/10/2020 10:45:00 AM 9.75 49.55 0.197 7.26 1.08 11.21
11/10/2020 11:00:00 AM 9.93 49.874 0.197 7.27 1.13 11.29
11/10/2020 11:15:00 AM 10.11 50.198 0.197 7.29 1.12 11.29
11/10/2020 11:30:00 AM 10.31 50.558 0.196 7.29 1.1 11.28
11/10/2020 11:45:00 AM 10.48 50.864 0.196 7.31 1.1 11.29
11/10/2020 12:00:00 PM 10.68 51.224 0.196 7.32 1.09 11.28
11/10/2020 12:15:00 PM 10.86 51.548 0.196 7.32 1.08 11.28
11/10/2020 12:30:00 PM 11.03 51.854 0.196 7.33 1.1 11.29
11/10/2020 12:45:00 PM 11.21 52.178 0.196 7.33 1.01 11.29
11/10/2020 1:00:00 PM 11.41 52.538 0.196 7.33 1 11.3
11/10/2020 1:15:00 PM 11.53 52.754 0.196 7.34 1.05 11.27
11/10/2020 1:30:00 PM 11.68 53.024 0.196 7.34 1.01 11.23
11/10/2020 1:45:00 PM 11.77 53.186 0.196 7.35 1.06 11.2
11/10/2020 2:00:00 PM 11.89 53.402 0.196 7.35 1.05 11.21
11/10/2020 2:15:00 PM 12.01 53.618 0.196 7.35 1.38 11.13
11/10/2020 2:30:00 PM 12.07 53.726 0.196 7.34 1.22 11.07
11/10/2020 2:45:00 PM 12.11 53.798 0.196 7.35 1.13 11
11/10/2020 3:00:00 PM 12.16 53.888 0.196 7.34 1.12 10.98
11/10/2020 3:15:00 PM 12.19 53.942 0.196 7.34 1.03 10.93
11/10/2020 3:30:00 PM 12.21 53.978 0.196 7.33 1.06 10.87
11/10/2020 3:45:00 PM 12.21 53.978 0.196 7.32 1.16 10.79
11/10/2020 4:00:00 PM 12.2 53.96 0.196 7.31 1.02 10.7
11/10/2020 4:15:00 PM 12.16 53.888 0.196 7.3 1.03 10.56
11/10/2020 4:30:00 PM 12.12 53.816 0.197 7.28 1.03 10.44
11/10/2020 4:45:00 PM 12.08 53.744 0.197 7.26 1.07 10.31
11/10/2020 5:00:00 PM 12.01 53.618 0.197 7.24 1.12 10.14
11/10/2020 5:15:00 PM 11.94 53.492 0.197 7.22 1.11 10.01
11/10/2020 5:30:00 PM 11.89 53.402 0.197 7.2 1.22 9.89
11/10/2020 5:45:00 PM 11.82 53.276 0.197 7.19 1.16 9.78
11/10/2020 6:00:00 PM 11.74 53.132 0.197 7.17 1.18 9.68
11/10/2020 6:15:00 PM 11.68 53.024 0.198 7.15 1.19 9.61
11/10/2020 6:30:00 PM 11.62 52.916 0.198 7.14 1.2 9.55
11/10/2020 6:45:00 PM 11.55 52.79 0.198 7.13 1.17 9.51
11/10/2020 7:00:00 PM 11.49 52.682 0.198 7.13 1.18 9.47
11/10/2020 7:15:00 PM 11.42 52.556 0.198 7.12 1.1 9.44
11/10/2020 7:30:00 PM 11.36 52.448 0.198 7.12 1.2 9.41
11/10/2020 7:45:00 PM 11.3 52.34 0.199 7.11 1.09 9.38
11/10/2020 8:00:00 PM 11.24 52.232 0.199 7.1 1.11 9.35
11/10/2020 8:15:00 PM 11.19 52.142 0.199 7.1 1.09 9.35
11/10/2020 8:30:00 PM 11.12 52.016 0.199 7.1 1.11 9.33
11/10/2020 8:45:00 PM 11.07 51.926 0.199 7.09 1.11 9.34
11/10/2020 9:00:00 PM 11.02 51.836 0.199 7.09 1.16 9.33
11/10/2020 9:15:00 PM 10.99 51.782 0.199 7.09 1.16 9.32
11/10/2020 9:30:00 PM 10.95 51.71 0.199 7.09 1.2 9.31
11/10/2020 9:45:00 PM 10.88 51.584 0.199 7.09 1.18 9.33
11/10/2020 10:00:00 PM 10.85 51.53 0.199 7.08 1.26 9.32
11/10/2020 10:15:00 PM 10.82 51.476 0.199 7.09 1.15 9.32
11/10/2020 10:30:00 PM 10.78 51.404 0.199 7.09 1.22 9.31
11/10/2020 10:45:00 PM 10.74 51.332 0.199 7.09 1.2 9.3
11/10/2020 11:00:00 PM 10.71 51.278 0.199 7.09 1.15 9.31
11/10/2020 11:15:00 PM 10.69 51.242 0.2 7.09 1.14 9.3
11/10/2020 11:30:00 PM 10.66 51.188 0.2 7.09 1.15 9.31
11/10/2020 11:45:00 PM 10.64 51.152 0.2 7.09 1.17 9.3
11/11/2020 12:00:00 AM 10.62 51.116 0.2 7.09 1.34 9.32
11/11/2020 12:15:00 AM 10.6 51.08 0.2 7.09 1.16 9.32
11/11/2020 12:30:00 AM 10.59 51.062 0.2 7.09 1.1 9.33
11/11/2020 12:45:00 AM 10.57 51.026 0.2 7.09 1.3 9.33
11/11/2020 1:00:00 AM 10.54 50.972 0.2 7.09 1.12 9.34
11/11/2020 1:15:00 AM 10.53 50.954 0.2 7.1 1.09 9.33
11/11/2020 1:30:00 AM 10.51 50.918 0.2 7.09 1.17 9.33
11/11/2020 1:45:00 AM 10.5 50.9 0.2 7.09 1.14 9.34
11/11/2020 2:00:00 AM 10.48 50.864 0.2 7.09 1.12 9.33
11/11/2020 2:15:00 AM 10.46 50.828 0.2 7.09 1.16 9.33
11/11/2020 2:30:00 AM 10.45 50.81 0.2 7.09 1.12 9.32
11/11/2020 2:45:00 AM 10.43 50.774 0.2 7.09 1.16 9.32
11/11/2020 3:00:00 AM 10.41 50.738 0.2 7.09 1.12 9.34
11/11/2020 3:15:00 AM 10.39 50.702 0.2 7.09 1.2 9.33
11/11/2020 3:30:00 AM 10.36 50.648 0.2 7.09 1.13 9.34
11/11/2020 3:45:00 AM 10.35 50.63 0.201 7.09 1.39 9.32
11/11/2020 4:00:00 AM 10.32 50.576 0.201 7.09 1.13 9.33
11/11/2020 4:15:00 AM 10.3 50.54 0.201 7.09 1.24 9.33
11/11/2020 4:30:00 AM 10.27 50.486 0.201 7.09 1.24 9.35
11/11/2020 4:45:00 AM 10.26 50.468 0.201 7.09 1.18 9.35
11/11/2020 5:00:00 AM 10.25 50.45 0.201 7.09 1.13 9.36
11/11/2020 5:15:00 AM 10.25 50.45 0.201 7.09 1.1 9.35
11/11/2020 5:30:00 AM 10.24 50.432 0.201 7.09 1.25 9.36
11/11/2020 5:45:00 AM 10.23 50.414 0.201 7.1 1.24 9.37
11/11/2020 6:00:00 AM 10.23 50.414 0.201 7.1 1.19 9.37
11/11/2020 6:15:00 AM 10.23 50.414 0.201 7.1 1.2 9.37
11/11/2020 6:30:00 AM 10.24 50.432 0.201 7.1 1.15 9.36
11/11/2020 6:45:00 AM 10.26 50.468 0.201 7.1 1.23 9.36
11/11/2020 7:00:00 AM 10.29 50.522 0.201 7.1 1.18 9.37
11/11/2020 7:15:00 AM 10.32 50.576 0.201 7.11 1.24 9.37
11/11/2020 7:30:00 AM 10.36 50.648 0.201 7.11 1.16 9.41
11/11/2020 7:45:00 AM 10.42 50.756 0.201 7.12 1.17 9.51
11/11/2020 8:00:00 AM 10.48 50.864 0.2 7.13 1.14 9.68
11/11/2020 8:15:00 AM 10.52 50.936 0.2 7.14 1.15 9.81
11/11/2020 8:30:00 AM 10.58 51.044 0.2 7.15 1.1 9.91
11/11/2020 8:45:00 AM 10.63 51.134 0.2 7.16 1.09 9.91
11/11/2020 9:00:00 AM 10.67 51.206 0.2 7.15 1.14 9.83
11/11/2020 9:15:00 AM 10.73 51.314 0.199 7.14 1.18 9.77
11/11/2020 9:30:00 AM 10.77 51.386 0.199 7.15 1.21 9.74
11/11/2020 9:45:00 AM 10.84 51.512 0.198 7.15 1.37 9.73
11/11/2020 10:00:00 AM 10.9 51.62 0.197 7.17 1.31 9.74
11/11/2020 10:15:00 AM 10.97 51.746 0.196 7.17 1.51 9.77
11/11/2020 10:30:00 AM 11.03 51.854 0.195 7.17 1.59 9.8
11/11/2020 10:45:00 AM 11.11 51.998 0.193 7.18 1.57 9.81
11/11/2020 11:00:00 AM 11.17 52.106 0.193 7.2 1.78 9.91
11/11/2020 11:15:00 AM 11.22 52.196 0.192 7.2 1.52 9.97
11/11/2020 11:30:00 AM 11.25 52.25 0.192 7.21 1.49 10.03
11/11/2020 11:45:00 AM 11.29 52.322 0.192 7.21 1.47 10.06
11/11/2020 12:00:00 PM 11.33 52.394 0.191 7.22 1.29 10.07
11/11/2020 12:15:00 PM 11.37 52.466 0.19 7.22 1.27 10.07
11/11/2020 12:30:00 PM 11.4 52.52 0.189 7.22 1.27 10.13
11/11/2020 12:45:00 PM 11.43 52.574 0.188 7.23 1.23 10.17
11/11/2020 1:00:00 PM 11.46 52.628 0.188 7.24 1.28 10.22
11/11/2020 1:15:00 PM 11.48 52.664 0.187 7.24 1.27 10.23
11/11/2020 1:30:00 PM 11.51 52.718 0.187 7.24 1.36 10.21
11/11/2020 1:45:00 PM 11.53 52.754 0.186 7.25 1.35 10.2
11/11/2020 2:00:00 PM 11.55 52.79 0.186 7.26 1.37 10.23
11/11/2020 2:15:00 PM 11.6 52.88 0.185 7.27 2.07 10.2
11/11/2020 2:30:00 PM 11.63 52.934 0.182 7.28 1.74 10.17
11/11/2020 2:45:00 PM 11.65 52.97 0.18 7.32 2.11 10.27
11/11/2020 3:00:00 PM 11.65 52.97 0.179 7.34 4.68 10.28
11/11/2020 3:15:00 PM 11.61 52.898 0.178 7.36 8.82 10.27
11/11/2020 3:30:00 PM 11.55 52.79 0.175 7.37 13.83 10.23
11/11/2020 3:45:00 PM 11.54 52.772 0.168 7.35 18.08 10.17
11/11/2020 4:00:00 PM 11.59 52.862 0.163 7.34 22.47 10.11
11/11/2020 4:15:00 PM 11.66 52.988 0.162 7.35 34.26 10.08
11/11/2020 4:30:00 PM 11.68 53.024 0.165 7.33 55.59 10.06
11/11/2020 4:45:00 PM 11.71 53.078 0.165 7.34 62.95 10.05
11/11/2020 5:00:00 PM 11.75 53.15 0.163 7.35 101.34 10.06
11/11/2020 5:15:00 PM 11.79 53.222 0.161 7.34 55.2 10.06
11/11/2020 5:30:00 PM 11.8 53.24 0.159 7.34 88.05 10.07
11/11/2020 5:45:00 PM 11.82 53.276 0.156 7.33 90.39 10.08
11/11/2020 6:00:00 PM 11.86 53.348 0.155 7.31 95.55 10.07
11/11/2020 6:15:00 PM 11.91 53.438 0.152 7.3 59.94 10.07
11/11/2020 6:30:00 PM 11.95 53.51 0.15 7.29 60.32 10.06
11/11/2020 6:45:00 PM 11.97 53.546 0.147 7.26 61.97 10.06
11/11/2020 7:00:00 PM 11.98 53.564 0.144 7.27 71.11 10.06
11/11/2020 7:15:00 PM 11.98 53.564 0.141 7.27 75.52 10.06
11/11/2020 7:30:00 PM 11.97 53.546 0.139 7.23 71.83 10.07
11/11/2020 7:45:00 PM 11.95 53.51 0.138 7.21 94.75 10.08
11/11/2020 8:00:00 PM 11.93 53.474 0.137 7.2 113.81 10.08
11/11/2020 8:15:00 PM 11.92 53.456 0.136 7.2 76 10.08
11/11/2020 8:30:00 PM 11.91 53.438 0.134 7.18 80.03 10.08
11/11/2020 8:45:00 PM 11.9 53.42 0.133 7.18 79.28 10.08
11/11/2020 9:00:00 PM 11.89 53.402 0.131 7.18 74.14 10.08
11/11/2020 9:15:00 PM 11.88 53.384 0.13 7.15 42.58 10.07
11/11/2020 9:30:00 PM 11.9 53.42 0.129 7.16 98.05 10.08
11/11/2020 9:45:00 PM 11.91 53.438 0.129 7.18 91.67 10.07
11/11/2020 10:00:00 PM 11.91 53.438 0.128 7.17 102.13 10.07
11/11/2020 10:15:00 PM 11.9 53.42 0.128 7.19 52.39 10.07
11/11/2020 10:30:00 PM 11.89 53.402 0.128 7.2 71.1 10.07
11/11/2020 10:45:00 PM 11.87 53.366 0.128 7.18 47.12 10.07
11/11/2020 11:00:00 PM 11.86 53.348 0.127 7.18 43.07 10.07
11/11/2020 11:15:00 PM 11.84 53.312 0.127 7.2 34.65 10.08
11/11/2020 11:30:00 PM 11.82 53.276 0.127 7.2 44.18 10.08
11/11/2020 11:45:00 PM 11.8 53.24 0.127 7.18 38.22 10.08
11/12/2020 12:00:00 AM 11.77 53.186 0.127 7.17 43.31 10.08
11/12/2020 12:15:00 AM 11.74 53.132 0.127 7.19 36.65 10.08
11/12/2020 12:30:00 AM 11.71 53.078 0.127 7.19 38.76 10.08
11/12/2020 12:45:00 AM 11.68 53.024 0.128 7.17 33.05 10.1
11/12/2020 1:00:00 AM 11.65 52.97 0.128 7.18 29.29 10.1
11/12/2020 1:15:00 AM 11.62 52.916 0.128 7.18 30.06 10.1
11/12/2020 1:30:00 AM 11.59 52.862 0.128 7.19 25.47 10.1
11/12/2020 1:45:00 AM 11.55 52.79 0.129 7.17 27.54 10.11
11/12/2020 2:00:00 AM 11.51 52.718 0.129 7.21 27.38 10.12
11/12/2020 2:15:00 AM 11.47 52.646 0.129 7.19 26.05 10.13
11/12/2020 2:30:00 AM 11.42 52.556 0.13 7.2 23.71 10.13
11/12/2020 2:45:00 AM 11.37 52.466 0.13 7.19 21.86 10.14
11/12/2020 3:00:00 AM 11.31 52.358 0.13 7.18 23.37 10.15
11/12/2020 3:15:00 AM 11.26 52.268 0.13 7.19 23.83 10.15
11/12/2020 3:30:00 AM 11.21 52.178 0.131 7.2 21.19 10.17
11/12/2020 3:45:00 AM 11.16 52.088 0.131 7.2 21.38 10.17
11/12/2020 4:00:00 AM 11.11 51.998 0.131 7.2 21.58 10.18
11/12/2020 4:15:00 AM 11.06 51.908 0.131 7.2 33.21 10.2
11/12/2020 4:30:00 AM 11.01 51.818 0.132 7.2 19.42 10.21
11/12/2020 4:45:00 AM 10.96 51.728 0.132 7.22 20.55 10.22
11/12/2020 5:00:00 AM 10.9 51.62 0.132 7.22 17.55 10.23
11/12/2020 5:15:00 AM 10.85 51.53 0.132 7.21 17.39 10.24
11/12/2020 5:30:00 AM 10.81 51.458 0.133 7.21 17.52 10.25
11/12/2020 5:45:00 AM 10.76 51.368 0.133 7.22 16.56 10.26
11/12/2020 6:00:00 AM 10.71 51.278 0.133 7.22 14.74 10.27
11/12/2020 6:15:00 AM 10.66 51.188 0.134 7.21 15.49 10.28
11/12/2020 6:30:00 AM 10.61 51.098 0.134 7.21 14.97 10.29
11/12/2020 6:45:00 AM 10.56 51.008 0.134 7.22 15.04 10.3
11/12/2020 7:00:00 AM 10.52 50.936 0.135 7.23 16.19 10.31
11/12/2020 7:15:00 AM 10.47 50.846 0.135 7.23 13.11 10.32
11/12/2020 7:30:00 AM 10.43 50.774 0.135 7.22 13.77 10.34
11/12/2020 7:45:00 AM 10.39 50.702 0.135 7.23 13.13 10.36
11/12/2020 8:00:00 AM 10.34 50.612 0.136 7.22 14.76 10.4
11/12/2020 8:15:00 AM 10.3 50.54 0.136 7.23 12.63 10.44
11/12/2020 8:30:00 AM 10.28 50.504 0.136 7.25 11.67 10.5
11/12/2020 8:45:00 AM 10.26 50.468 0.136 7.26 11.63 10.53
11/12/2020 9:00:00 AM 10.24 50.432 0.137 7.26 12.02 10.57
11/12/2020 9:15:00 AM 10.2 50.36 0.137 7.27 10.68 10.59
11/12/2020 9:30:00 AM 10.17 50.306 0.137 7.27 10.83 10.62
11/12/2020 9:45:00 AM 10.15 50.27 0.137 7.28 15.4 10.63
11/12/2020 10:00:00 AM 10.13 50.234 0.138 7.29 27.25 10.59
11/12/2020 10:15:00 AM 10.12 50.216 0.138 7.28 50.22 10.59
11/12/2020 10:30:00 AM 10.1 50.18 0.139 7.29 38.95 10.59
11/12/2020 10:45:00 AM 10.09 50.162 0.139 7.28 52.84 10.61
11/12/2020 11:00:00 AM 10.08 50.144 0.139 7.29 41.57 10.62
11/12/2020 11:15:00 AM 10.07 50.126 0.139 7.29 38.07 10.63
11/12/2020 11:30:00 AM 10.05 50.09 0.14 7.3 45.65 10.64
11/12/2020 11:45:00 AM 10.04 50.072 0.14 7.3 42.36 10.68
11/12/2020 12:00:00 PM 10.03 50.054 0.14 7.31 37.63 10.7
11/12/2020 12:15:00 PM 10.04 50.072 0.141 7.31 53.76 10.67
11/12/2020 12:30:00 PM 10.05 50.09 0.141 7.31 61.53 10.66
11/12/2020 12:45:00 PM 10.05 50.09 0.141 7.31 65.55 10.64
11/12/2020 1:00:00 PM 10.07 50.126 0.141 7.31 48.6 10.68
11/12/2020 1:15:00 PM 10.09 50.162 0.141 7.34 47.15 10.76
11/12/2020 1:30:00 PM 10.11 50.198 0.141 7.35 33.02 10.82
11/12/2020 1:45:00 PM 10.13 50.234 0.142 7.36 32.39 10.87
11/12/2020 2:00:00 PM 10.16 50.288 0.142 7.38 21.66 10.94
11/12/2020 2:15:00 PM 10.16 50.288 0.142 7.38 16.12 10.99
11/12/2020 2:30:00 PM 10.16 50.288 0.142 7.39 12.64 11
11/12/2020 2:45:00 PM 10.15 50.27 0.142 7.4 11.51 11.01
11/12/2020 3:00:00 PM 10.13 50.234 0.143 7.4 11.01 10.99
11/12/2020 3:15:00 PM 10.11 50.198 0.143 7.39 10.1 10.97
11/12/2020 3:30:00 PM 10.1 50.18 0.143 7.39 9 10.96
11/12/2020 3:45:00 PM 10.07 50.126 0.143 7.38 9.26 10.94
11/12/2020 4:00:00 PM 10.03 50.054 0.144 7.37 8.07 10.9
11/12/2020 4:15:00 PM 9.99 49.982 0.144 7.36 8.93 10.86
11/12/2020 4:30:00 PM 9.93 49.874 0.144 7.34 8.15 10.8
11/12/2020 4:45:00 PM 9.88 49.784 0.144 7.32 7.98 10.73
11/12/2020 5:00:00 PM 9.81 49.658 0.145 7.3 8.3 10.67
11/12/2020 5:15:00 PM 9.73 49.514 0.145 7.28 7.78 10.62
11/12/2020 5:30:00 PM 9.66 49.388 0.145 7.27 7.34 10.58
11/12/2020 5:45:00 PM 9.58 49.244 0.146 7.25 8.05 10.56
11/12/2020 6:00:00 PM 9.51 49.118 0.146 7.24 7.73 10.55
11/12/2020 6:15:00 PM 9.44 48.992 0.146 7.24 7.11 10.55
11/12/2020 6:30:00 PM 9.37 48.866 0.146 7.23 7.06 10.55
11/12/2020 6:45:00 PM 9.31 48.758 0.147 7.23 6.89 10.56
11/12/2020 7:00:00 PM 9.25 48.65 0.147 7.22 6.5 10.56
11/12/2020 7:15:00 PM 9.18 48.524 0.147 7.23 7.07 10.57
11/12/2020 7:30:00 PM 9.11 48.398 0.147 7.22 7.37 10.58
11/12/2020 7:45:00 PM 9.05 48.29 0.148 7.22 6.56 10.6
11/12/2020 8:00:00 PM 8.99 48.182 0.148 7.22 6.77 10.61
11/12/2020 8:15:00 PM 8.92 48.056 0.148 7.22 6.54 10.63
11/12/2020 8:30:00 PM 8.85 47.93 0.148 7.22 6.44 10.65
11/12/2020 8:45:00 PM 8.79 47.822 0.148 7.21 6.16 10.66
11/12/2020 9:00:00 PM 8.73 47.714 0.149 7.22 6.4 10.67
11/12/2020 9:15:00 PM 8.67 47.606 0.149 7.22 6.17 10.68
11/12/2020 9:30:00 PM 8.62 47.516 0.149 7.22 5.98 10.69
11/12/2020 9:45:00 PM 8.56 47.408 0.149 7.21 6.07 10.71
11/12/2020 10:00:00 PM 8.5 47.3 0.149 7.21 6.71 10.72
11/12/2020 10:15:00 PM 8.44 47.192 0.15 7.22 5.67 10.74
11/12/2020 10:30:00 PM 8.39 47.102 0.15 7.22 5.76 10.76
11/12/2020 10:45:00 PM 8.34 47.012 0.15 7.22 5.71 10.76
11/12/2020 11:00:00 PM 8.28 46.904 0.15 7.22 6.42 10.78
11/12/2020 11:15:00 PM 8.23 46.814 0.15 7.22 5.55 10.79
11/12/2020 11:30:00 PM 8.2 46.76 0.151 7.22 5.29 10.79
11/12/2020 11:45:00 PM 8.18 46.724 0.151 7.22 5.64 10.8
11/13/2020 12:00:00 AM 8.12 46.616 0.151 7.22 5.14 10.82
11/13/2020 12:15:00 AM 8.07 46.526 0.151 7.22 5.31 10.83
11/13/2020 12:30:00 AM 8.03 46.454 0.151 7.22 5.43 10.83
11/13/2020 12:45:00 AM 7.99 46.382 0.152 7.22 5.46 10.85
11/13/2020 1:00:00 AM 7.98 46.364 0.152 7.22 5.88 10.86
11/13/2020 1:15:00 AM 7.96 46.328 0.152 7.22 5.54 10.86
11/13/2020 1:30:00 AM 7.95 46.31 0.152 7.22 5.34 10.87
11/13/2020 1:45:00 AM 7.94 46.292 0.152 7.23 5.03 10.87
11/13/2020 2:00:00 AM 7.92 46.256 0.153 7.23 5.26 10.87
11/13/2020 2:15:00 AM 7.9 46.22 0.153 7.23 5.02 10.88
11/13/2020 2:30:00 AM 7.88 46.184 0.153 7.23 5.6 10.88
11/13/2020 2:45:00 AM 7.86 46.148 0.153 7.23 4.71 10.89
11/13/2020 3:00:00 AM 7.84 46.112 0.153 7.23 5.63 10.89
11/13/2020 3:15:00 AM 7.82 46.076 0.153 7.22 4.75 10.89
11/13/2020 3:30:00 AM 7.79 46.022 0.154 7.23 4.67 10.89
11/13/2020 3:45:00 AM 7.77 45.986 0.154 7.23 5 10.9
11/13/2020 4:00:00 AM 7.75 45.95 0.154 7.23 4.77 10.9
11/13/2020 4:15:00 AM 7.74 45.932 0.154 7.23 4.57 10.91
11/13/2020 4:30:00 AM 7.72 45.896 0.154 7.23 4.78 10.91
11/13/2020 4:45:00 AM 7.71 45.878 0.154 7.23 4.59 10.91
11/13/2020 5:00:00 AM 7.7 45.86 0.154 7.23 4.83 10.91
11/13/2020 5:15:00 AM 7.7 45.86 0.155 7.23 4.21 10.91
11/13/2020 5:30:00 AM 7.69 45.842 0.155 7.23 4.4 10.92
11/13/2020 5:45:00 AM 7.68 45.824 0.155 7.23 4.49 10.92
11/13/2020 6:00:00 AM 7.68 45.824 0.155 7.22 4.57 10.91
11/13/2020 6:15:00 AM 7.68 45.824 0.155 7.23 4.36 10.91
11/13/2020 6:30:00 AM 7.68 45.824 0.155 7.23 4.19 10.91
11/13/2020 6:45:00 AM 7.68 45.824 0.155 7.23 4.24 10.91
11/13/2020 7:00:00 AM 7.67 45.806 0.156 7.23 4.4 10.91
11/13/2020 7:15:00 AM 7.68 45.824 0.156 7.23 4.1 10.92
11/13/2020 7:30:00 AM 7.68 45.824 0.156 7.23 4.15 10.93
11/13/2020 7:45:00 AM 7.69 45.842 0.156 7.23 4.17 10.95
11/13/2020 8:00:00 AM 7.7 45.86 0.156 7.24 4.51 10.97
11/13/2020 8:15:00 AM 7.72 45.896 0.156 7.24 4.19 10.99
11/13/2020 8:30:00 AM 7.76 45.968 0.156 7.26 4.27 11.09
11/13/2020 8:45:00 AM 7.83 46.094 0.156 7.28 4.48 11.19
11/13/2020 9:00:00 AM 7.87 46.166 0.156 7.29 3.88 11.24
11/13/2020 9:15:00 AM 7.92 46.256 0.157 7.31 3.98 11.3
11/13/2020 9:30:00 AM 7.98 46.364 0.157 7.32 3.85 11.38
11/13/2020 9:45:00 AM 8.06